<?xml version="1.0" encoding="UTF-8" standalone="no" ?>
<gpx xmlns="http://www.topografix.com/GPX/1/1" xmlns:xsi="http://www.w3.org/2001/XMLSchema-instance" xsi:schemaLocation="http://www.topografix.com/GPX/1/1 http://www.topografix.com/GPX/1/1/gpx.xsd" version="1.1" creator="VisuGPX - https://www.visugpx.com">
  <metadata>
    <name>75wandignies hamage</name>
  </metadata>
  <trk>
    <name><![CDATA[wandignies hamage]]></name>
    <trkseg>
      <trkpt lat="50.50358" lon="3.46452">
        <ele>20.780705</ele>
        <time>2020-05-31T17:13:16.000Z</time>
      </trkpt>
      <trkpt lat="50.5034" lon="3.46438">
        <ele>20.780705</ele>
        <time>2020-05-31T17:13:19.090Z</time>
      </trkpt>
      <trkpt lat="50.50316" lon="3.46422">
        <ele>20.780705</ele>
        <time>2020-05-31T17:13:23.253Z</time>
      </trkpt>
      <trkpt lat="50.50313" lon="3.46411">
        <ele>20.780705</ele>
        <time>2020-05-31T17:13:24.345Z</time>
      </trkpt>
      <trkpt lat="50.50317" lon="3.46374">
        <ele>20.780705</ele>
        <time>2020-05-31T17:13:28.036Z</time>
      </trkpt>
      <trkpt lat="50.50325" lon="3.46304">
        <ele>20.715277</ele>
        <time>2020-05-31T17:13:34.664Z</time>
      </trkpt>
      <trkpt lat="50.50335" lon="3.46236">
        <ele>20.626723</ele>
        <time>2020-05-31T17:13:41.135Z</time>
      </trkpt>
      <trkpt lat="50.50345" lon="3.46155">
        <ele>20.523067</ele>
        <time>2020-05-31T17:13:48.512Z</time>
      </trkpt>
      <trkpt lat="50.50361" lon="3.46074">
        <ele>20.406938</ele>
        <time>2020-05-31T17:13:55.785Z</time>
      </trkpt>
      <trkpt lat="50.5041" lon="3.45851">
        <ele>19.734213</ele>
        <time>2020-05-31T17:14:15.830Z</time>
      </trkpt>
      <trkpt lat="50.50417" lon="3.4581">
        <ele>19.613276</ele>
        <time>2020-05-31T17:14:19.536Z</time>
      </trkpt>
      <trkpt lat="50.50424" lon="3.45772">
        <ele>19.500222</ele>
        <time>2020-05-31T17:14:22.892Z</time>
      </trkpt>
      <trkpt lat="50.50433" lon="3.4572">
        <ele>19.344741</ele>
        <time>2020-05-31T17:14:27.585Z</time>
      </trkpt>
      <trkpt lat="50.50436" lon="3.45642">
        <ele>19.122324</ele>
        <time>2020-05-31T17:14:34.366Z</time>
      </trkpt>
      <trkpt lat="50.50437" lon="3.45631">
        <ele>19.090698</ele>
        <time>2020-05-31T17:14:35.200Z</time>
      </trkpt>
      <trkpt lat="50.5044" lon="3.45588">
        <ele>18.965643</ele>
        <time>2020-05-31T17:14:39.157Z</time>
      </trkpt>
      <trkpt lat="50.50441" lon="3.45573">
        <ele>18.921584</ele>
        <time>2020-05-31T17:14:40.353Z</time>
      </trkpt>
      <trkpt lat="50.50441" lon="3.45568">
        <ele>18.906864</ele>
        <time>2020-05-31T17:14:40.797Z</time>
      </trkpt>
      <trkpt lat="50.50443" lon="3.45552">
        <ele>18.860037</ele>
        <time>2020-05-31T17:14:42.231Z</time>
      </trkpt>
      <trkpt lat="50.50448" lon="3.45508">
        <ele>18.719162</ele>
        <time>2020-05-31T17:14:45.782Z</time>
      </trkpt>
      <trkpt lat="50.50447" lon="3.4549">
        <ele>18.65563</ele>
        <time>2020-05-31T17:14:47.368Z</time>
      </trkpt>
      <trkpt lat="50.50444" lon="3.45482">
        <ele>18.623204</ele>
        <time>2020-05-31T17:14:48.172Z</time>
      </trkpt>
      <trkpt lat="50.50416" lon="3.45464">
        <ele>18.462964</ele>
        <time>2020-05-31T17:14:52.050Z</time>
      </trkpt>
      <trkpt lat="50.50407" lon="3.45459">
        <ele>18.409238</ele>
        <time>2020-05-31T17:14:53.380Z</time>
      </trkpt>
      <trkpt lat="50.50355" lon="3.45425">
        <ele>18.107632</ele>
        <time>2020-05-31T17:15:00.874Z</time>
      </trkpt>
      <trkpt lat="50.50341" lon="3.45413">
        <ele>18.021479</ele>
        <time>2020-05-31T17:15:03.058Z</time>
      </trkpt>
      <trkpt lat="50.5031" lon="3.45386">
        <ele>17.836133</ele>
        <time>2020-05-31T17:15:07.719Z</time>
      </trkpt>
      <trkpt lat="50.50229" lon="3.45322">
        <ele>17.601176</ele>
        <time>2020-05-31T17:15:19.205Z</time>
      </trkpt>
      <trkpt lat="50.50195" lon="3.45295">
        <ele>17.503558</ele>
        <time>2020-05-31T17:15:24.828Z</time>
      </trkpt>
      <trkpt lat="50.50141" lon="3.4526">
        <ele>17.396227</ele>
        <time>2020-05-31T17:15:34.409Z</time>
      </trkpt>
      <trkpt lat="50.50129" lon="3.45252">
        <ele>17.425085</ele>
        <time>2020-05-31T17:15:36.495Z</time>
      </trkpt>
      <trkpt lat="50.50129" lon="3.45252">
        <ele>17.425227</ele>
        <time>2020-05-31T17:15:36.501Z</time>
      </trkpt>
      <trkpt lat="50.50092" lon="3.45227">
        <ele>17.515127</ele>
        <time>2020-05-31T17:15:42.991Z</time>
      </trkpt>
      <trkpt lat="50.50084" lon="3.45223">
        <ele>17.534049</ele>
        <time>2020-05-31T17:15:44.311Z</time>
      </trkpt>
      <trkpt lat="50.50052" lon="3.45203">
        <ele>17.611293</ele>
        <time>2020-05-31T17:15:49.312Z</time>
      </trkpt>
      <trkpt lat="50.50051" lon="3.45202">
        <ele>17.615004</ele>
        <time>2020-05-31T17:15:49.574Z</time>
      </trkpt>
      <trkpt lat="50.50044" lon="3.45199">
        <ele>17.63069</ele>
        <time>2020-05-31T17:15:50.658Z</time>
      </trkpt>
      <trkpt lat="50.50005" lon="3.45189">
        <ele>17.719146</ele>
        <time>2020-05-31T17:15:56.864Z</time>
      </trkpt>
      <trkpt lat="50.49999" lon="3.45188">
        <ele>17.73336</ele>
        <time>2020-05-31T17:15:57.863Z</time>
      </trkpt>
      <trkpt lat="50.49974" lon="3.45177">
        <ele>17.779492</ele>
        <time>2020-05-31T17:16:02.238Z</time>
      </trkpt>
      <trkpt lat="50.49958" lon="3.45159">
        <ele>17.783658</ele>
        <time>2020-05-31T17:16:05.599Z</time>
      </trkpt>
      <trkpt lat="50.49943" lon="3.45125">
        <ele>17.78908</ele>
        <time>2020-05-31T17:16:09.888Z</time>
      </trkpt>
      <trkpt lat="50.49935" lon="3.45106">
        <ele>17.792187</ele>
        <time>2020-05-31T17:16:12.125Z</time>
      </trkpt>
      <trkpt lat="50.49924" lon="3.45113">
        <ele>17.794691</ele>
        <time>2020-05-31T17:16:13.990Z</time>
      </trkpt>
      <trkpt lat="50.49912" lon="3.45121">
        <ele>17.797234</ele>
        <time>2020-05-31T17:16:15.634Z</time>
      </trkpt>
      <trkpt lat="50.49899" lon="3.45131">
        <ele>17.800374</ele>
        <time>2020-05-31T17:16:17.675Z</time>
      </trkpt>
      <trkpt lat="50.49885" lon="3.4514">
        <ele>17.80346</ele>
        <time>2020-05-31T17:16:19.747Z</time>
      </trkpt>
      <trkpt lat="50.49879" lon="3.45144">
        <ele>17.804705</ele>
        <time>2020-05-31T17:16:20.515Z</time>
      </trkpt>
      <trkpt lat="50.49839" lon="3.45165">
        <ele>17.813524</ele>
        <time>2020-05-31T17:16:26.331Z</time>
      </trkpt>
      <trkpt lat="50.49811" lon="3.4518">
        <ele>17.854328</ele>
        <time>2020-05-31T17:16:30.537Z</time>
      </trkpt>
      <trkpt lat="50.49723" lon="3.45207">
        <ele>18.045965</ele>
        <time>2020-05-31T17:16:45.104Z</time>
      </trkpt>
      <trkpt lat="50.49648" lon="3.45244">
        <ele>18.208428</ele>
        <time>2020-05-31T17:16:57.649Z</time>
      </trkpt>
      <trkpt lat="50.49624" lon="3.45256">
        <ele>18.243067</ele>
        <time>2020-05-31T17:17:03.049Z</time>
      </trkpt>
      <trkpt lat="50.49592" lon="3.45277">
        <ele>18.290405</ele>
        <time>2020-05-31T17:17:10.543Z</time>
      </trkpt>
      <trkpt lat="50.49561" lon="3.45307">
        <ele>18.341263</ele>
        <time>2020-05-31T17:17:18.440Z</time>
      </trkpt>
      <trkpt lat="50.4954" lon="3.45338">
        <ele>18.380908</ele>
        <time>2020-05-31T17:17:24.213Z</time>
      </trkpt>
      <trkpt lat="50.49517" lon="3.4538">
        <ele>18.428749</ele>
        <time>2020-05-31T17:17:30.995Z</time>
      </trkpt>
      <trkpt lat="50.49498" lon="3.45423">
        <ele>18.521397</ele>
        <time>2020-05-31T17:17:37.555Z</time>
      </trkpt>
      <trkpt lat="50.4949" lon="3.45459">
        <ele>18.609844</ele>
        <time>2020-05-31T17:17:42.540Z</time>
      </trkpt>
      <trkpt lat="50.49463" lon="3.45576">
        <ele>18.902223</ele>
        <time>2020-05-31T17:17:59.623Z</time>
      </trkpt>
      <trkpt lat="50.49409" lon="3.45833">
        <ele>19.883599</ele>
        <time>2020-05-31T17:18:40.179Z</time>
      </trkpt>
      <trkpt lat="50.49394" lon="3.45893">
        <ele>20.159263</ele>
        <time>2020-05-31T17:18:49.738Z</time>
      </trkpt>
      <trkpt lat="50.49387" lon="3.45927">
        <ele>20.307866</ele>
        <time>2020-05-31T17:18:54.866Z</time>
      </trkpt>
      <trkpt lat="50.49375" lon="3.45959">
        <ele>20.126784</ele>
        <time>2020-05-31T17:18:59.866Z</time>
      </trkpt>
      <trkpt lat="50.49364" lon="3.45978">
        <ele>20.004483</ele>
        <time>2020-05-31T17:19:02.932Z</time>
      </trkpt>
      <trkpt lat="50.49302" lon="3.46091">
        <ele>19.275901</ele>
        <time>2020-05-31T17:19:20.098Z</time>
      </trkpt>
      <trkpt lat="50.49258" lon="3.4619">
        <ele>18.43072</ele>
        <time>2020-05-31T17:19:32.498Z</time>
      </trkpt>
      <trkpt lat="50.49198" lon="3.463">
        <ele>17.008652</ele>
        <time>2020-05-31T17:19:47.246Z</time>
      </trkpt>
      <trkpt lat="50.4911" lon="3.46408">
        <ele>15.895259</ele>
        <time>2020-05-31T17:20:06.086Z</time>
      </trkpt>
      <trkpt lat="50.49052" lon="3.46461">
        <ele>15.599191</ele>
        <time>2020-05-31T17:20:18.571Z</time>
      </trkpt>
      <trkpt lat="50.48946" lon="3.46572">
        <ele>15.669078</ele>
        <time>2020-05-31T17:20:46.353Z</time>
      </trkpt>
      <trkpt lat="50.48919" lon="3.46599">
        <ele>15.814678</ele>
        <time>2020-05-31T17:20:53.574Z</time>
      </trkpt>
      <trkpt lat="50.4891" lon="3.46609">
        <ele>15.862814</ele>
        <time>2020-05-31T17:20:56.144Z</time>
      </trkpt>
      <trkpt lat="50.48892" lon="3.46634">
        <ele>15.971611</ele>
        <time>2020-05-31T17:21:01.405Z</time>
      </trkpt>
      <trkpt lat="50.48873" lon="3.46674">
        <ele>16.117558</ele>
        <time>2020-05-31T17:21:08.723Z</time>
      </trkpt>
      <trkpt lat="50.4887" lon="3.46679">
        <ele>16.138085</ele>
        <time>2020-05-31T17:21:09.346Z</time>
      </trkpt>
      <trkpt lat="50.48807" lon="3.46816">
        <ele>16.601333</ele>
        <time>2020-05-31T17:21:27.856Z</time>
      </trkpt>
      <trkpt lat="50.488" lon="3.46856">
        <ele>16.715564</ele>
        <time>2020-05-31T17:21:32.074Z</time>
      </trkpt>
      <trkpt lat="50.48795" lon="3.4691">
        <ele>16.865436</ele>
        <time>2020-05-31T17:21:37.432Z</time>
      </trkpt>
      <trkpt lat="50.48793" lon="3.46933">
        <ele>16.928902</ele>
        <time>2020-05-31T17:21:39.959Z</time>
      </trkpt>
      <trkpt lat="50.48757" lon="3.47361">
        <ele>17.273843</ele>
        <time>2020-05-31T17:22:21.784Z</time>
      </trkpt>
      <trkpt lat="50.48743" lon="3.4748">
        <ele>17.391775</ele>
        <time>2020-05-31T17:22:33.785Z</time>
      </trkpt>
      <trkpt lat="50.48742" lon="3.47483">
        <ele>17.39457</ele>
        <time>2020-05-31T17:22:34.105Z</time>
      </trkpt>
      <trkpt lat="50.48729" lon="3.47551">
        <ele>17.483497</ele>
        <time>2020-05-31T17:22:41.278Z</time>
      </trkpt>
      <trkpt lat="50.4872" lon="3.47579">
        <ele>17.524496</ele>
        <time>2020-05-31T17:22:44.441Z</time>
      </trkpt>
      <trkpt lat="50.48711" lon="3.47619">
        <ele>17.580907</ele>
        <time>2020-05-31T17:22:48.679Z</time>
      </trkpt>
      <trkpt lat="50.48701" lon="3.47672">
        <ele>17.652899</ele>
        <time>2020-05-31T17:22:54.129Z</time>
      </trkpt>
      <trkpt lat="50.48689" lon="3.47737">
        <ele>17.742546</ele>
        <time>2020-05-31T17:23:01.080Z</time>
      </trkpt>
      <trkpt lat="50.48683" lon="3.47766">
        <ele>17.779409</ele>
        <time>2020-05-31T17:23:03.976Z</time>
      </trkpt>
      <trkpt lat="50.48676" lon="3.47786">
        <ele>17.775422</ele>
        <time>2020-05-31T17:23:06.445Z</time>
      </trkpt>
      <trkpt lat="50.48665" lon="3.47798">
        <ele>17.77191</ele>
        <time>2020-05-31T17:23:08.470Z</time>
      </trkpt>
      <trkpt lat="50.48564" lon="3.47844">
        <ele>17.743945</ele>
        <time>2020-05-31T17:23:23.889Z</time>
      </trkpt>
      <trkpt lat="50.4856" lon="3.47846">
        <ele>17.742653</ele>
        <time>2020-05-31T17:23:24.545Z</time>
      </trkpt>
      <trkpt lat="50.485" lon="3.47882">
        <ele>17.684902</ele>
        <time>2020-05-31T17:23:33.634Z</time>
      </trkpt>
      <trkpt lat="50.48439" lon="3.47931">
        <ele>17.545585</ele>
        <time>2020-05-31T17:23:43.365Z</time>
      </trkpt>
      <trkpt lat="50.48424" lon="3.4796">
        <ele>17.495321</ele>
        <time>2020-05-31T17:23:46.832Z</time>
      </trkpt>
      <trkpt lat="50.48417" lon="3.47979">
        <ele>17.467028</ele>
        <time>2020-05-31T17:23:48.760Z</time>
      </trkpt>
      <trkpt lat="50.48412" lon="3.48004">
        <ele>17.432906</ele>
        <time>2020-05-31T17:23:51.064Z</time>
      </trkpt>
      <trkpt lat="50.48408" lon="3.48038">
        <ele>17.38868</ele>
        <time>2020-05-31T17:23:54.064Z</time>
      </trkpt>
      <trkpt lat="50.48413" lon="3.48125">
        <ele>17.241588</ele>
        <time>2020-05-31T17:24:01.757Z</time>
      </trkpt>
      <trkpt lat="50.48414" lon="3.48159">
        <ele>17.180077</ele>
        <time>2020-05-31T17:24:04.770Z</time>
      </trkpt>
      <trkpt lat="50.48416" lon="3.48188">
        <ele>17.128503</ele>
        <time>2020-05-31T17:24:07.283Z</time>
      </trkpt>
      <trkpt lat="50.48419" lon="3.48244">
        <ele>17.028055</ele>
        <time>2020-05-31T17:24:12.120Z</time>
      </trkpt>
      <trkpt lat="50.48423" lon="3.48359">
        <ele>16.895172</ele>
        <time>2020-05-31T17:24:22.337Z</time>
      </trkpt>
      <trkpt lat="50.48425" lon="3.48416">
        <ele>16.999113</ele>
        <time>2020-05-31T17:24:27.549Z</time>
      </trkpt>
      <trkpt lat="50.48425" lon="3.48435">
        <ele>17.034014</ele>
        <time>2020-05-31T17:24:29.320Z</time>
      </trkpt>
      <trkpt lat="50.48424" lon="3.48468">
        <ele>17.094816</ele>
        <time>2020-05-31T17:24:32.630Z</time>
      </trkpt>
      <trkpt lat="50.48421" lon="3.48496">
        <ele>17.147925</ele>
        <time>2020-05-31T17:24:35.521Z</time>
      </trkpt>
      <trkpt lat="50.48409" lon="3.48525">
        <ele>17.210699</ele>
        <time>2020-05-31T17:24:39.163Z</time>
      </trkpt>
      <trkpt lat="50.48377" lon="3.48595">
        <ele>17.369232</ele>
        <time>2020-05-31T17:24:48.501Z</time>
      </trkpt>
      <trkpt lat="50.48321" lon="3.4869">
        <ele>18.268346</ele>
        <time>2020-05-31T17:25:04.882Z</time>
      </trkpt>
      <trkpt lat="50.48239" lon="3.4873">
        <ele>19.223673</ele>
        <time>2020-05-31T17:25:21.874Z</time>
      </trkpt>
      <trkpt lat="50.48233" lon="3.48733">
        <ele>19.299874</ele>
        <time>2020-05-31T17:25:23.514Z</time>
      </trkpt>
      <trkpt lat="50.48225" lon="3.48736">
        <ele>19.383292</ele>
        <time>2020-05-31T17:25:24.984Z</time>
      </trkpt>
      <trkpt lat="50.48212" lon="3.48742">
        <ele>19.478489</ele>
        <time>2020-05-31T17:25:27.282Z</time>
      </trkpt>
      <trkpt lat="50.48203" lon="3.48748">
        <ele>19.552289</ele>
        <time>2020-05-31T17:25:29.413Z</time>
      </trkpt>
      <trkpt lat="50.48198" lon="3.48751">
        <ele>19.59034</ele>
        <time>2020-05-31T17:25:30.551Z</time>
      </trkpt>
      <trkpt lat="50.48039" lon="3.49011">
        <ele>21.208927</ele>
        <time>2020-05-31T17:26:09.735Z</time>
      </trkpt>
      <trkpt lat="50.47702" lon="3.49428">
        <ele>24.103346</ele>
        <time>2020-05-31T17:27:26.252Z</time>
      </trkpt>
      <trkpt lat="50.4757" lon="3.49627">
        <ele>24.741632</ele>
        <time>2020-05-31T17:27:54.600Z</time>
      </trkpt>
      <trkpt lat="50.47524" lon="3.49696">
        <ele>25.152001</ele>
        <time>2020-05-31T17:28:05.378Z</time>
      </trkpt>
      <trkpt lat="50.47513" lon="3.49711">
        <ele>25.290141</ele>
        <time>2020-05-31T17:28:07.861Z</time>
      </trkpt>
      <trkpt lat="50.47428" lon="3.49563">
        <ele>26.473654</ele>
        <time>2020-05-31T17:28:32.285Z</time>
      </trkpt>
      <trkpt lat="50.47402" lon="3.49433">
        <ele>27.38868</ele>
        <time>2020-05-31T17:28:49.976Z</time>
      </trkpt>
      <trkpt lat="50.47379" lon="3.49359">
        <ele>27.945924</ele>
        <time>2020-05-31T17:29:00.093Z</time>
      </trkpt>
      <trkpt lat="50.47357" lon="3.49311">
        <ele>28.346536</ele>
        <time>2020-05-31T17:29:06.958Z</time>
      </trkpt>
      <trkpt lat="50.47221" lon="3.49078">
        <ele>29.076225</ele>
        <time>2020-05-31T17:29:39.548Z</time>
      </trkpt>
      <trkpt lat="50.47137" lon="3.48949">
        <ele>29.044734</ele>
        <time>2020-05-31T17:29:56.818Z</time>
      </trkpt>
      <trkpt lat="50.47109" lon="3.48894">
        <ele>29.032885</ele>
        <time>2020-05-31T17:30:03.109Z</time>
      </trkpt>
      <trkpt lat="50.47106" lon="3.48875">
        <ele>29.007305</ele>
        <time>2020-05-31T17:30:04.856Z</time>
      </trkpt>
      <trkpt lat="50.47116" lon="3.48844">
        <ele>28.949765</ele>
        <time>2020-05-31T17:30:07.974Z</time>
      </trkpt>
      <trkpt lat="50.47148" lon="3.48805">
        <ele>28.845891</ele>
        <time>2020-05-31T17:30:13.562Z</time>
      </trkpt>
      <trkpt lat="50.47163" lon="3.48767">
        <ele>28.772186</ele>
        <time>2020-05-31T17:30:17.505Z</time>
      </trkpt>
      <trkpt lat="50.47158" lon="3.48746">
        <ele>28.734202</ele>
        <time>2020-05-31T17:30:19.530Z</time>
      </trkpt>
      <trkpt lat="50.47145" lon="3.48721">
        <ele>28.681158</ele>
        <time>2020-05-31T17:30:22.367Z</time>
      </trkpt>
      <trkpt lat="50.47068" lon="3.48628">
        <ele>28.363627</ele>
        <time>2020-05-31T17:30:35.967Z</time>
      </trkpt>
      <trkpt lat="50.47048" lon="3.48605">
        <ele>28.27157</ele>
        <time>2020-05-31T17:30:39.382Z</time>
      </trkpt>
      <trkpt lat="50.47025" lon="3.48575">
        <ele>28.156483</ele>
        <time>2020-05-31T17:30:43.702Z</time>
      </trkpt>
      <trkpt lat="50.46952" lon="3.48448">
        <ele>27.579225</ele>
        <time>2020-05-31T17:30:57.946Z</time>
      </trkpt>
      <trkpt lat="50.46935" lon="3.48395">
        <ele>27.268088</ele>
        <time>2020-05-31T17:31:02.713Z</time>
      </trkpt>
      <trkpt lat="50.46907" lon="3.48316">
        <ele>26.797673</ele>
        <time>2020-05-31T17:31:09.909Z</time>
      </trkpt>
      <trkpt lat="50.46898" lon="3.48284">
        <ele>26.615265</ele>
        <time>2020-05-31T17:31:12.609Z</time>
      </trkpt>
      <trkpt lat="50.46896" lon="3.4827">
        <ele>26.537597</ele>
        <time>2020-05-31T17:31:13.782Z</time>
      </trkpt>
      <trkpt lat="50.46895" lon="3.48256">
        <ele>26.463585</ele>
        <time>2020-05-31T17:31:14.934Z</time>
      </trkpt>
      <trkpt lat="50.46896" lon="3.48242">
        <ele>26.389992</ele>
        <time>2020-05-31T17:31:15.983Z</time>
      </trkpt>
      <trkpt lat="50.46883" lon="3.48246">
        <ele>26.272462</ele>
        <time>2020-05-31T17:31:17.528Z</time>
      </trkpt>
      <trkpt lat="50.4688" lon="3.48246">
        <ele>26.247872</ele>
        <time>2020-05-31T17:31:17.863Z</time>
      </trkpt>
      <trkpt lat="50.46873" lon="3.48247">
        <ele>26.183273</ele>
        <time>2020-05-31T17:31:18.765Z</time>
      </trkpt>
      <trkpt lat="50.46852" lon="3.48266">
        <ele>25.959916</ele>
        <time>2020-05-31T17:31:21.676Z</time>
      </trkpt>
      <trkpt lat="50.46818" lon="3.48313">
        <ele>25.550753</ele>
        <time>2020-05-31T17:31:27.093Z</time>
      </trkpt>
      <trkpt lat="50.46627" lon="3.48616">
        <ele>23.504236</ele>
        <time>2020-05-31T17:32:01.783Z</time>
      </trkpt>
      <trkpt lat="50.46622" lon="3.48623">
        <ele>23.487963</ele>
        <time>2020-05-31T17:32:02.564Z</time>
      </trkpt>
      <trkpt lat="50.46359" lon="3.48976">
        <ele>22.911476</ele>
        <time>2020-05-31T17:32:52.051Z</time>
      </trkpt>
      <trkpt lat="50.463" lon="3.49078">
        <ele>23.247843</ele>
        <time>2020-05-31T17:33:06.118Z</time>
      </trkpt>
      <trkpt lat="50.46244" lon="3.49201">
        <ele>23.630608</ele>
        <time>2020-05-31T17:33:22.372Z</time>
      </trkpt>
      <trkpt lat="50.46123" lon="3.4931">
        <ele>24.538868</ele>
        <time>2020-05-31T17:33:46.846Z</time>
      </trkpt>
      <trkpt lat="50.46053" lon="3.49408">
        <ele>25.119518</ele>
        <time>2020-05-31T17:34:03.551Z</time>
      </trkpt>
      <trkpt lat="50.46005" lon="3.49475">
        <ele>25.502869</ele>
        <time>2020-05-31T17:34:14.510Z</time>
      </trkpt>
      <trkpt lat="50.45997" lon="3.49488">
        <ele>25.571203</ele>
        <time>2020-05-31T17:34:16.578Z</time>
      </trkpt>
      <trkpt lat="50.45995" lon="3.49494">
        <ele>25.596845</ele>
        <time>2020-05-31T17:34:17.289Z</time>
      </trkpt>
      <trkpt lat="50.45992" lon="3.49497">
        <ele>25.617541</ele>
        <time>2020-05-31T17:34:17.857Z</time>
      </trkpt>
      <trkpt lat="50.4599" lon="3.49496">
        <ele>25.62642</ele>
        <time>2020-05-31T17:34:18.075Z</time>
      </trkpt>
      <trkpt lat="50.45989" lon="3.49496">
        <ele>25.634798</ele>
        <time>2020-05-31T17:34:18.294Z</time>
      </trkpt>
      <trkpt lat="50.45987" lon="3.49496">
        <ele>25.644521</ele>
        <time>2020-05-31T17:34:18.555Z</time>
      </trkpt>
      <trkpt lat="50.45986" lon="3.49497">
        <ele>25.654412</ele>
        <time>2020-05-31T17:34:18.824Z</time>
      </trkpt>
      <trkpt lat="50.45985" lon="3.495">
        <ele>25.664363</ele>
        <time>2020-05-31T17:34:19.093Z</time>
      </trkpt>
      <trkpt lat="50.45984" lon="3.49502">
        <ele>25.673584</ele>
        <time>2020-05-31T17:34:19.359Z</time>
      </trkpt>
      <trkpt lat="50.45984" lon="3.49504">
        <ele>25.682691</ele>
        <time>2020-05-31T17:34:19.613Z</time>
      </trkpt>
      <trkpt lat="50.45985" lon="3.49507">
        <ele>25.691737</ele>
        <time>2020-05-31T17:34:19.888Z</time>
      </trkpt>
      <trkpt lat="50.45986" lon="3.49509">
        <ele>25.701387</ele>
        <time>2020-05-31T17:34:20.159Z</time>
      </trkpt>
      <trkpt lat="50.45987" lon="3.4951">
        <ele>25.710295</ele>
        <time>2020-05-31T17:34:20.429Z</time>
      </trkpt>
      <trkpt lat="50.45989" lon="3.49518">
        <ele>25.744884</ele>
        <time>2020-05-31T17:34:21.478Z</time>
      </trkpt>
      <trkpt lat="50.45991" lon="3.49526">
        <ele>25.775807</ele>
        <time>2020-05-31T17:34:22.415Z</time>
      </trkpt>
      <trkpt lat="50.46009" lon="3.49667">
        <ele>26.197849</ele>
        <time>2020-05-31T17:34:37.648Z</time>
      </trkpt>
      <trkpt lat="50.46016" lon="3.49739">
        <ele>26.400971</ele>
        <time>2020-05-31T17:34:45.475Z</time>
      </trkpt>
      <trkpt lat="50.46013" lon="3.49779">
        <ele>26.515463</ele>
        <time>2020-05-31T17:34:49.782Z</time>
      </trkpt>
      <trkpt lat="50.45955" lon="3.50033">
        <ele>26.911186</ele>
        <time>2020-05-31T17:35:16.825Z</time>
      </trkpt>
      <trkpt lat="50.45941" lon="3.50087">
        <ele>26.981476</ele>
        <time>2020-05-31T17:35:22.334Z</time>
      </trkpt>
      <trkpt lat="50.4589" lon="3.50312">
        <ele>27.184627</ele>
        <time>2020-05-31T17:35:44.984Z</time>
      </trkpt>
      <trkpt lat="50.4577" lon="3.5083">
        <ele>28.799092</ele>
        <time>2020-05-31T17:36:45.431Z</time>
      </trkpt>
      <trkpt lat="50.45749" lon="3.50921">
        <ele>28.880612</ele>
        <time>2020-05-31T17:36:54.688Z</time>
      </trkpt>
      <trkpt lat="50.45742" lon="3.50951">
        <ele>28.813439</ele>
        <time>2020-05-31T17:36:57.468Z</time>
      </trkpt>
      <trkpt lat="50.4572" lon="3.51037">
        <ele>28.620206</ele>
        <time>2020-05-31T17:37:05.533Z</time>
      </trkpt>
      <trkpt lat="50.45666" lon="3.51274">
        <ele>27.894585</ele>
        <time>2020-05-31T17:37:26.513Z</time>
      </trkpt>
      <trkpt lat="50.45649" lon="3.51328">
        <ele>27.676974</ele>
        <time>2020-05-31T17:37:31.627Z</time>
      </trkpt>
      <trkpt lat="50.45626" lon="3.51375">
        <ele>27.46021</ele>
        <time>2020-05-31T17:37:36.654Z</time>
      </trkpt>
      <trkpt lat="50.45601" lon="3.51427">
        <ele>27.170806</ele>
        <time>2020-05-31T17:37:42.079Z</time>
      </trkpt>
      <trkpt lat="50.45583" lon="3.51477">
        <ele>26.865796</ele>
        <time>2020-05-31T17:37:46.856Z</time>
      </trkpt>
      <trkpt lat="50.45569" lon="3.51518">
        <ele>26.621854</ele>
        <time>2020-05-31T17:37:50.593Z</time>
      </trkpt>
      <trkpt lat="50.4553" lon="3.5162">
        <ele>25.994154</ele>
        <time>2020-05-31T17:38:00.077Z</time>
      </trkpt>
      <trkpt lat="50.45485" lon="3.51712">
        <ele>25.091124</ele>
        <time>2020-05-31T17:38:08.902Z</time>
      </trkpt>
      <trkpt lat="50.45478" lon="3.51791">
        <ele>24.419274</ele>
        <time>2020-05-31T17:38:14.904Z</time>
      </trkpt>
      <trkpt lat="50.45466" lon="3.51901">
        <ele>23.475308</ele>
        <time>2020-05-31T17:38:23.081Z</time>
      </trkpt>
      <trkpt lat="50.45462" lon="3.51929">
        <ele>23.199611</ele>
        <time>2020-05-31T17:38:25.200Z</time>
      </trkpt>
      <trkpt lat="50.45457" lon="3.51957">
        <ele>22.931514</ele>
        <time>2020-05-31T17:38:27.273Z</time>
      </trkpt>
      <trkpt lat="50.45453" lon="3.51955">
        <ele>22.880845</ele>
        <time>2020-05-31T17:38:27.825Z</time>
      </trkpt>
      <trkpt lat="50.45427" lon="3.52007">
        <ele>22.262206</ele>
        <time>2020-05-31T17:38:34.627Z</time>
      </trkpt>
      <trkpt lat="50.45429" lon="3.52011">
        <ele>22.214938</ele>
        <time>2020-05-31T17:38:35.124Z</time>
      </trkpt>
      <trkpt lat="50.45404" lon="3.52042">
        <ele>21.745681</ele>
        <time>2020-05-31T17:38:40.277Z</time>
      </trkpt>
      <trkpt lat="50.45298" lon="3.5221">
        <ele>20.47584</ele>
        <time>2020-05-31T17:39:05.670Z</time>
      </trkpt>
      <trkpt lat="50.45268" lon="3.52254">
        <ele>20.320042</ele>
        <time>2020-05-31T17:39:13.992Z</time>
      </trkpt>
      <trkpt lat="50.45198" lon="3.52351">
        <ele>20.394866</ele>
        <time>2020-05-31T17:39:36.039Z</time>
      </trkpt>
      <trkpt lat="50.45145" lon="3.52424">
        <ele>20.851149</ele>
        <time>2020-05-31T17:39:52.435Z</time>
      </trkpt>
      <trkpt lat="50.45125" lon="3.52455">
        <ele>21.034184</ele>
        <time>2020-05-31T17:39:58.959Z</time>
      </trkpt>
      <trkpt lat="50.45102" lon="3.52431">
        <ele>21.214788</ele>
        <time>2020-05-31T17:40:04.871Z</time>
      </trkpt>
      <trkpt lat="50.44987" lon="3.52304">
        <ele>21.870437</ele>
        <time>2020-05-31T17:40:36.059Z</time>
      </trkpt>
      <trkpt lat="50.44947" lon="3.52384">
        <ele>22.257643</ele>
        <time>2020-05-31T17:40:49.578Z</time>
      </trkpt>
      <trkpt lat="50.44932" lon="3.52404">
        <ele>22.504978</ele>
        <time>2020-05-31T17:40:54.116Z</time>
      </trkpt>
      <trkpt lat="50.44908" lon="3.52397">
        <ele>22.80468</ele>
        <time>2020-05-31T17:40:59.745Z</time>
      </trkpt>
      <trkpt lat="50.44332" lon="3.51973">
        <ele>31.809151</ele>
        <time>2020-05-31T17:43:41.706Z</time>
      </trkpt>
      <trkpt lat="50.44266" lon="3.51924">
        <ele>33.846049</ele>
        <time>2020-05-31T17:44:11.009Z</time>
      </trkpt>
      <trkpt lat="50.44242" lon="3.51914">
        <ele>34.631025</ele>
        <time>2020-05-31T17:44:19.255Z</time>
      </trkpt>
      <trkpt lat="50.4423" lon="3.51916">
        <ele>35.032546</ele>
        <time>2020-05-31T17:44:25.716Z</time>
      </trkpt>
      <trkpt lat="50.44209" lon="3.51939">
        <ele>35.853798</ele>
        <time>2020-05-31T17:44:33.953Z</time>
      </trkpt>
      <trkpt lat="50.44201" lon="3.5195">
        <ele>36.172522</ele>
        <time>2020-05-31T17:44:39.534Z</time>
      </trkpt>
      <trkpt lat="50.442" lon="3.51942">
        <ele>36.331877</ele>
        <time>2020-05-31T17:44:41.144Z</time>
      </trkpt>
      <trkpt lat="50.4393" lon="3.51255">
        <ele>40.198516</ele>
        <time>2020-05-31T17:46:38.820Z</time>
      </trkpt>
      <trkpt lat="50.43715" lon="3.50705">
        <ele>34.090165</ele>
        <time>2020-05-31T17:47:45.833Z</time>
      </trkpt>
      <trkpt lat="50.43688" lon="3.50634">
        <ele>32.965568</ele>
        <time>2020-05-31T17:47:53.553Z</time>
      </trkpt>
      <trkpt lat="50.43687" lon="3.50623">
        <ele>32.799759</ele>
        <time>2020-05-31T17:47:54.553Z</time>
      </trkpt>
      <trkpt lat="50.43703" lon="3.50602">
        <ele>32.303967</ele>
        <time>2020-05-31T17:47:57.639Z</time>
      </trkpt>
      <trkpt lat="50.43794" lon="3.50441">
        <ele>29.315299</ele>
        <time>2020-05-31T17:48:18.570Z</time>
      </trkpt>
      <trkpt lat="50.43803" lon="3.50429">
        <ele>29.336334</ele>
        <time>2020-05-31T17:48:20.586Z</time>
      </trkpt>
      <trkpt lat="50.43983" lon="3.49526">
        <ele>31.051899</ele>
        <time>2020-05-31T17:50:33.390Z</time>
      </trkpt>
      <trkpt lat="50.44009" lon="3.49387">
        <ele>31.395996</ele>
        <time>2020-05-31T17:50:53.450Z</time>
      </trkpt>
      <trkpt lat="50.44064" lon="3.49097">
        <ele>31.251535</ele>
        <time>2020-05-31T17:51:32.785Z</time>
      </trkpt>
      <trkpt lat="50.44068" lon="3.49078">
        <ele>31.147235</ele>
        <time>2020-05-31T17:51:35.009Z</time>
      </trkpt>
      <trkpt lat="50.44113" lon="3.48863">
        <ele>29.91675</ele>
        <time>2020-05-31T17:52:00.107Z</time>
      </trkpt>
      <trkpt lat="50.44139" lon="3.48739">
        <ele>29.085254</ele>
        <time>2020-05-31T17:52:14.167Z</time>
      </trkpt>
      <trkpt lat="50.44284" lon="3.48004">
        <ele>24.185841</ele>
        <time>2020-05-31T17:53:39.625Z</time>
      </trkpt>
      <trkpt lat="50.44287" lon="3.47989">
        <ele>24.122878</ele>
        <time>2020-05-31T17:53:41.403Z</time>
      </trkpt>
      <trkpt lat="50.44287" lon="3.47989">
        <ele>24.122878</ele>
        <time>2020-05-31T17:53:41.404Z</time>
      </trkpt>
      <trkpt lat="50.44287" lon="3.47989">
        <ele>24.122878</ele>
        <time>2020-05-31T17:53:41.406Z</time>
      </trkpt>
      <trkpt lat="50.44293" lon="3.47958">
        <ele>23.995551</ele>
        <time>2020-05-31T17:53:45.051Z</time>
      </trkpt>
      <trkpt lat="50.44287" lon="3.47965">
        <ele>23.950583</ele>
        <time>2020-05-31T17:53:45.867Z</time>
      </trkpt>
      <trkpt lat="50.44124" lon="3.4799">
        <ele>23.476157</ele>
        <time>2020-05-31T17:54:07.710Z</time>
      </trkpt>
      <trkpt lat="50.43654" lon="3.48056">
        <ele>26.705252</ele>
        <time>2020-05-31T17:55:33.854Z</time>
      </trkpt>
      <trkpt lat="50.43294" lon="3.48105">
        <ele>26.99836</ele>
        <time>2020-05-31T17:56:26.650Z</time>
      </trkpt>
      <trkpt lat="50.43274" lon="3.48103">
        <ele>27.012725</ele>
        <time>2020-05-31T17:56:29.928Z</time>
      </trkpt>
      <trkpt lat="50.43265" lon="3.48098">
        <ele>27.063967</ele>
        <time>2020-05-31T17:56:31.450Z</time>
      </trkpt>
      <trkpt lat="50.4326" lon="3.48092">
        <ele>27.128502</ele>
        <time>2020-05-31T17:56:32.401Z</time>
      </trkpt>
      <trkpt lat="50.43255" lon="3.48082">
        <ele>27.216108</ele>
        <time>2020-05-31T17:56:33.744Z</time>
      </trkpt>
      <trkpt lat="50.43251" lon="3.48072">
        <ele>27.291914</ele>
        <time>2020-05-31T17:56:35.141Z</time>
      </trkpt>
      <trkpt lat="50.4324" lon="3.47903">
        <ele>28.418682</ele>
        <time>2020-05-31T17:56:55.745Z</time>
      </trkpt>
      <trkpt lat="50.43218" lon="3.47803">
        <ele>29.152153</ele>
        <time>2020-05-31T17:57:10.551Z</time>
      </trkpt>
      <trkpt lat="50.43184" lon="3.47597">
        <ele>30.748497</ele>
        <time>2020-05-31T17:57:37.853Z</time>
      </trkpt>
      <trkpt lat="50.43178" lon="3.47508">
        <ele>30.886919</ele>
        <time>2020-05-31T17:57:47.527Z</time>
      </trkpt>
      <trkpt lat="50.43163" lon="3.47279">
        <ele>30.337793</ele>
        <time>2020-05-31T17:58:06.358Z</time>
      </trkpt>
      <trkpt lat="50.43136" lon="3.47204">
        <ele>29.918483</ele>
        <time>2020-05-31T17:58:13.163Z</time>
      </trkpt>
      <trkpt lat="50.43126" lon="3.47189">
        <ele>29.813336</ele>
        <time>2020-05-31T17:58:14.746Z</time>
      </trkpt>
      <trkpt lat="50.43178" lon="3.47063">
        <ele>29.07856</ele>
        <time>2020-05-31T17:58:26.948Z</time>
      </trkpt>
      <trkpt lat="50.43286" lon="3.46805">
        <ele>28.756456</ele>
        <time>2020-05-31T17:58:54.684Z</time>
      </trkpt>
      <trkpt lat="50.4332" lon="3.46722">
        <ele>29.447595</ele>
        <time>2020-05-31T17:59:05.922Z</time>
      </trkpt>
      <trkpt lat="50.43343" lon="3.46667">
        <ele>29.904434</ele>
        <time>2020-05-31T17:59:14.324Z</time>
      </trkpt>
      <trkpt lat="50.43374" lon="3.46594">
        <ele>30.521413</ele>
        <time>2020-05-31T17:59:25.623Z</time>
      </trkpt>
      <trkpt lat="50.4338" lon="3.46585">
        <ele>30.608724</ele>
        <time>2020-05-31T17:59:27.361Z</time>
      </trkpt>
      <trkpt lat="50.43393" lon="3.46579">
        <ele>30.787262</ele>
        <time>2020-05-31T17:59:30.649Z</time>
      </trkpt>
      <trkpt lat="50.4346" lon="3.46592">
        <ele>31.802752</ele>
        <time>2020-05-31T17:59:45.521Z</time>
      </trkpt>
      <trkpt lat="50.43489" lon="3.46569">
        <ele>32.30552</ele>
        <time>2020-05-31T17:59:52.839Z</time>
      </trkpt>
      <trkpt lat="50.43513" lon="3.46523">
        <ele>32.873466</ele>
        <time>2020-05-31T18:00:00.579Z</time>
      </trkpt>
      <trkpt lat="50.43524" lon="3.46483">
        <ele>33.29168</ele>
        <time>2020-05-31T18:00:06.358Z</time>
      </trkpt>
      <trkpt lat="50.43536" lon="3.46322">
        <ele>33.832319</ele>
        <time>2020-05-31T18:00:24.421Z</time>
      </trkpt>
      <trkpt lat="50.4354" lon="3.46303">
        <ele>33.885555</ele>
        <time>2020-05-31T18:00:25.998Z</time>
      </trkpt>
      <trkpt lat="50.43542" lon="3.46289">
        <ele>33.925284</ele>
        <time>2020-05-31T18:00:27.927Z</time>
      </trkpt>
      <trkpt lat="50.4359" lon="3.46091">
        <ele>33.987493</ele>
        <time>2020-05-31T18:00:47.887Z</time>
      </trkpt>
      <trkpt lat="50.43597" lon="3.4606">
        <ele>33.925959</ele>
        <time>2020-05-31T18:00:51.235Z</time>
      </trkpt>
      <trkpt lat="50.43601" lon="3.46006">
        <ele>33.824115</ele>
        <time>2020-05-31T18:00:56.041Z</time>
      </trkpt>
      <trkpt lat="50.43607" lon="3.45893">
        <ele>33.451407</ele>
        <time>2020-05-31T18:01:05.272Z</time>
      </trkpt>
      <trkpt lat="50.4361" lon="3.45755">
        <ele>32.46768</ele>
        <time>2020-05-31T18:01:15.651Z</time>
      </trkpt>
      <trkpt lat="50.43611" lon="3.45705">
        <ele>32.112486</ele>
        <time>2020-05-31T18:01:19.453Z</time>
      </trkpt>
      <trkpt lat="50.43612" lon="3.45671">
        <ele>31.877798</ele>
        <time>2020-05-31T18:01:22.038Z</time>
      </trkpt>
      <trkpt lat="50.43616" lon="3.45646">
        <ele>31.691763</ele>
        <time>2020-05-31T18:01:24.073Z</time>
      </trkpt>
      <trkpt lat="50.43625" lon="3.45608">
        <ele>31.473709</ele>
        <time>2020-05-31T18:01:27.201Z</time>
      </trkpt>
      <trkpt lat="50.43644" lon="3.45529">
        <ele>31.023698</ele>
        <time>2020-05-31T18:01:33.918Z</time>
      </trkpt>
      <trkpt lat="50.43659" lon="3.45458">
        <ele>30.628466</ele>
        <time>2020-05-31T18:01:39.925Z</time>
      </trkpt>
      <trkpt lat="50.43689" lon="3.45318">
        <ele>29.575067</ele>
        <time>2020-05-31T18:01:52.281Z</time>
      </trkpt>
      <trkpt lat="50.43708" lon="3.45231">
        <ele>28.682663</ele>
        <time>2020-05-31T18:01:59.269Z</time>
      </trkpt>
      <trkpt lat="50.43716" lon="3.45204">
        <ele>28.389561</ele>
        <time>2020-05-31T18:02:01.338Z</time>
      </trkpt>
      <trkpt lat="50.4371" lon="3.45198">
        <ele>28.277055</ele>
        <time>2020-05-31T18:02:02.236Z</time>
      </trkpt>
      <trkpt lat="50.43679" lon="3.45166">
        <ele>27.721217</ele>
        <time>2020-05-31T18:02:06.233Z</time>
      </trkpt>
      <trkpt lat="50.43673" lon="3.4516">
        <ele>27.609753</ele>
        <time>2020-05-31T18:02:07.051Z</time>
      </trkpt>
      <trkpt lat="50.43655" lon="3.45143">
        <ele>27.187579</ele>
        <time>2020-05-31T18:02:09.224Z</time>
      </trkpt>
      <trkpt lat="50.43612" lon="3.45099">
        <ele>25.857301</ele>
        <time>2020-05-31T18:02:14.614Z</time>
      </trkpt>
      <trkpt lat="50.43558" lon="3.45046">
        <ele>24.236188</ele>
        <time>2020-05-31T18:02:21.040Z</time>
      </trkpt>
      <trkpt lat="50.43489" lon="3.44978">
        <ele>22.726062</ele>
        <time>2020-05-31T18:02:29.801Z</time>
      </trkpt>
      <trkpt lat="50.43438" lon="3.44927">
        <ele>22.551234</ele>
        <time>2020-05-31T18:02:37.274Z</time>
      </trkpt>
      <trkpt lat="50.43297" lon="3.44785">
        <ele>22.886184</ele>
        <time>2020-05-31T18:03:07.918Z</time>
      </trkpt>
      <trkpt lat="50.42912" lon="3.44396">
        <ele>25.810616</ele>
        <time>2020-05-31T18:04:30.510Z</time>
      </trkpt>
      <trkpt lat="50.42907" lon="3.44391">
        <ele>25.833577</ele>
        <time>2020-05-31T18:04:31.272Z</time>
      </trkpt>
      <trkpt lat="50.42904" lon="3.44386">
        <ele>25.772699</ele>
        <time>2020-05-31T18:04:31.632Z</time>
      </trkpt>
      <trkpt lat="50.42906" lon="3.44345">
        <ele>25.105428</ele>
        <time>2020-05-31T18:04:34.775Z</time>
      </trkpt>
      <trkpt lat="50.42906" lon="3.44333">
        <ele>24.915593</ele>
        <time>2020-05-31T18:04:35.518Z</time>
      </trkpt>
      <trkpt lat="50.42916" lon="3.44181">
        <ele>22.444633</ele>
        <time>2020-05-31T18:04:45.615Z</time>
      </trkpt>
      <trkpt lat="50.4292" lon="3.44112">
        <ele>21.322252</ele>
        <time>2020-05-31T18:04:49.992Z</time>
      </trkpt>
      <trkpt lat="50.42926" lon="3.44074">
        <ele>20.699307</ele>
        <time>2020-05-31T18:04:53.666Z</time>
      </trkpt>
      <trkpt lat="50.42928" lon="3.44051">
        <ele>20.323658</ele>
        <time>2020-05-31T18:04:55.823Z</time>
      </trkpt>
      <trkpt lat="50.42929" lon="3.44047">
        <ele>20.26312</ele>
        <time>2020-05-31T18:04:56.071Z</time>
      </trkpt>
      <trkpt lat="50.42932" lon="3.44037">
        <ele>20.076793</ele>
        <time>2020-05-31T18:04:56.851Z</time>
      </trkpt>
      <trkpt lat="50.42931" lon="3.44021">
        <ele>19.828051</ele>
        <time>2020-05-31T18:04:57.920Z</time>
      </trkpt>
      <trkpt lat="50.42928" lon="3.4401">
        <ele>19.640083</ele>
        <time>2020-05-31T18:04:58.683Z</time>
      </trkpt>
      <trkpt lat="50.42926" lon="3.44008">
        <ele>19.578079</ele>
        <time>2020-05-31T18:04:58.934Z</time>
      </trkpt>
      <trkpt lat="50.42925" lon="3.43998">
        <ele>19.41838</ele>
        <time>2020-05-31T18:04:59.578Z</time>
      </trkpt>
      <trkpt lat="50.42927" lon="3.43972">
        <ele>19.001707</ele>
        <time>2020-05-31T18:05:01.368Z</time>
      </trkpt>
      <trkpt lat="50.42935" lon="3.43956">
        <ele>18.6708</ele>
        <time>2020-05-31T18:05:02.733Z</time>
      </trkpt>
      <trkpt lat="50.42995" lon="3.43894">
        <ele>16.890636</ele>
        <time>2020-05-31T18:05:10.485Z</time>
      </trkpt>
      <trkpt lat="50.43004" lon="3.43883">
        <ele>16.726633</ele>
        <time>2020-05-31T18:05:11.820Z</time>
      </trkpt>
      <trkpt lat="50.43013" lon="3.43873">
        <ele>16.655711</ele>
        <time>2020-05-31T18:05:13.189Z</time>
      </trkpt>
      <trkpt lat="50.43043" lon="3.43837">
        <ele>16.408053</ele>
        <time>2020-05-31T18:05:17.884Z</time>
      </trkpt>
      <trkpt lat="50.43047" lon="3.43833">
        <ele>16.379563</ele>
        <time>2020-05-31T18:05:18.437Z</time>
      </trkpt>
      <trkpt lat="50.43052" lon="3.43828">
        <ele>16.340742</ele>
        <time>2020-05-31T18:05:19.282Z</time>
      </trkpt>
      <trkpt lat="50.43044" lon="3.43809">
        <ele>16.247838</ele>
        <time>2020-05-31T18:05:21.863Z</time>
      </trkpt>
      <trkpt lat="50.43042" lon="3.43749">
        <ele>15.998281</ele>
        <time>2020-05-31T18:05:29.262Z</time>
      </trkpt>
      <trkpt lat="50.43041" lon="3.43734">
        <ele>15.934119</ele>
        <time>2020-05-31T18:05:31.121Z</time>
      </trkpt>
      <trkpt lat="50.43024" lon="3.43624">
        <ele>15.574317</ele>
        <time>2020-05-31T18:05:45.221Z</time>
      </trkpt>
      <trkpt lat="50.43024" lon="3.43609">
        <ele>15.562488</ele>
        <time>2020-05-31T18:05:47.183Z</time>
      </trkpt>
      <trkpt lat="50.43027" lon="3.43563">
        <ele>15.526672</ele>
        <time>2020-05-31T18:05:52.928Z</time>
      </trkpt>
      <trkpt lat="50.43028" lon="3.43555">
        <ele>15.520458</ele>
        <time>2020-05-31T18:05:53.949Z</time>
      </trkpt>
      <trkpt lat="50.43029" lon="3.43537">
        <ele>15.505926</ele>
        <time>2020-05-31T18:05:56.459Z</time>
      </trkpt>
      <trkpt lat="50.43034" lon="3.43431">
        <ele>15.422548</ele>
        <time>2020-05-31T18:06:09.958Z</time>
      </trkpt>
      <trkpt lat="50.43051" lon="3.43035">
        <ele>14.872113</ele>
        <time>2020-05-31T18:06:58.793Z</time>
      </trkpt>
      <trkpt lat="50.43131" lon="3.42791">
        <ele>14.619582</ele>
        <time>2020-05-31T18:07:33.841Z</time>
      </trkpt>
      <trkpt lat="50.43137" lon="3.42782">
        <ele>14.602876</ele>
        <time>2020-05-31T18:07:35.686Z</time>
      </trkpt>
      <trkpt lat="50.43135" lon="3.42773">
        <ele>14.590533</ele>
        <time>2020-05-31T18:07:36.359Z</time>
      </trkpt>
      <trkpt lat="50.43102" lon="3.42618">
        <ele>14.372474</ele>
        <time>2020-05-31T18:07:50.889Z</time>
      </trkpt>
      <trkpt lat="50.43073" lon="3.42464">
        <ele>14.58735</ele>
        <time>2020-05-31T18:08:05.140Z</time>
      </trkpt>
      <trkpt lat="50.4305" lon="3.42343">
        <ele>14.893394</ele>
        <time>2020-05-31T18:08:18.948Z</time>
      </trkpt>
      <trkpt lat="50.4301" lon="3.42135">
        <ele>16.521534</ele>
        <time>2020-05-31T18:08:46.588Z</time>
      </trkpt>
      <trkpt lat="50.42918" lon="3.41683">
        <ele>20.922507</ele>
        <time>2020-05-31T18:09:51.860Z</time>
      </trkpt>
      <trkpt lat="50.4289" lon="3.41509">
        <ele>21.915934</ele>
        <time>2020-05-31T18:10:11.763Z</time>
      </trkpt>
      <trkpt lat="50.42885" lon="3.41471">
        <ele>21.909336</ele>
        <time>2020-05-31T18:10:15.598Z</time>
      </trkpt>
      <trkpt lat="50.42881" lon="3.41438">
        <ele>21.741066</ele>
        <time>2020-05-31T18:10:18.709Z</time>
      </trkpt>
      <trkpt lat="50.42873" lon="3.41356">
        <ele>21.324889</ele>
        <time>2020-05-31T18:10:25.454Z</time>
      </trkpt>
      <trkpt lat="50.42841" lon="3.41187">
        <ele>20.278127</ele>
        <time>2020-05-31T18:10:38.882Z</time>
      </trkpt>
      <trkpt lat="50.4284" lon="3.41173">
        <ele>20.139631</ele>
        <time>2020-05-31T18:10:39.840Z</time>
      </trkpt>
      <trkpt lat="50.42837" lon="3.41157">
        <ele>19.970633</ele>
        <time>2020-05-31T18:10:41.173Z</time>
      </trkpt>
      <trkpt lat="50.42836" lon="3.41154">
        <ele>19.935232</ele>
        <time>2020-05-31T18:10:41.413Z</time>
      </trkpt>
      <trkpt lat="50.42834" lon="3.41137">
        <ele>19.761545</ele>
        <time>2020-05-31T18:10:42.712Z</time>
      </trkpt>
      <trkpt lat="50.42832" lon="3.41132">
        <ele>19.713181</ele>
        <time>2020-05-31T18:10:43.037Z</time>
      </trkpt>
      <trkpt lat="50.42822" lon="3.41087">
        <ele>19.233376</ele>
        <time>2020-05-31T18:10:46.481Z</time>
      </trkpt>
      <trkpt lat="50.42774" lon="3.40962">
        <ele>17.761621</ele>
        <time>2020-05-31T18:10:56.963Z</time>
      </trkpt>
      <trkpt lat="50.42769" lon="3.4095">
        <ele>17.670432</ele>
        <time>2020-05-31T18:10:57.986Z</time>
      </trkpt>
      <trkpt lat="50.4275" lon="3.40908">
        <ele>17.341932</ele>
        <time>2020-05-31T18:11:01.891Z</time>
      </trkpt>
      <trkpt lat="50.42706" lon="3.40784">
        <ele>16.426683</ele>
        <time>2020-05-31T18:11:13.191Z</time>
      </trkpt>
      <trkpt lat="50.42692" lon="3.40753">
        <ele>16.188813</ele>
        <time>2020-05-31T18:11:16.124Z</time>
      </trkpt>
      <trkpt lat="50.42612" lon="3.4063">
        <ele>15.353025</ele>
        <time>2020-05-31T18:11:30.569Z</time>
      </trkpt>
      <trkpt lat="50.42583" lon="3.40595">
        <ele>15.106608</ele>
        <time>2020-05-31T18:11:35.287Z</time>
      </trkpt>
      <trkpt lat="50.42553" lon="3.40572">
        <ele>14.882718</ele>
        <time>2020-05-31T18:11:39.547Z</time>
      </trkpt>
      <trkpt lat="50.42537" lon="3.40559">
        <ele>14.761143</ele>
        <time>2020-05-31T18:11:41.874Z</time>
      </trkpt>
      <trkpt lat="50.42521" lon="3.40552">
        <ele>14.705013</ele>
        <time>2020-05-31T18:11:44.054Z</time>
      </trkpt>
      <trkpt lat="50.42482" lon="3.40542">
        <ele>14.60786</ele>
        <time>2020-05-31T18:11:49.201Z</time>
      </trkpt>
      <trkpt lat="50.42457" lon="3.40539">
        <ele>14.546622</ele>
        <time>2020-05-31T18:11:52.659Z</time>
      </trkpt>
      <trkpt lat="50.42425" lon="3.40544">
        <ele>14.468306</ele>
        <time>2020-05-31T18:11:57.143Z</time>
      </trkpt>
      <trkpt lat="50.4236" lon="3.40564">
        <ele>14.306527</ele>
        <time>2020-05-31T18:12:06.839Z</time>
      </trkpt>
      <trkpt lat="50.42335" lon="3.40575">
        <ele>14.509028</ele>
        <time>2020-05-31T18:12:10.846Z</time>
      </trkpt>
      <trkpt lat="50.42321" lon="3.40582">
        <ele>14.645831</ele>
        <time>2020-05-31T18:12:13.413Z</time>
      </trkpt>
      <trkpt lat="50.42239" lon="3.40628">
        <ele>15.445117</ele>
        <time>2020-05-31T18:12:29.058Z</time>
      </trkpt>
      <trkpt lat="50.42166" lon="3.40669">
        <ele>16.322101</ele>
        <time>2020-05-31T18:12:45.731Z</time>
      </trkpt>
      <trkpt lat="50.42126" lon="3.40683">
        <ele>16.972809</ele>
        <time>2020-05-31T18:12:54.449Z</time>
      </trkpt>
      <trkpt lat="50.42074" lon="3.40691">
        <ele>17.806491</ele>
        <time>2020-05-31T18:13:05.800Z</time>
      </trkpt>
      <trkpt lat="50.4206" lon="3.40693">
        <ele>18.026113</ele>
        <time>2020-05-31T18:13:08.768Z</time>
      </trkpt>
      <trkpt lat="50.42042" lon="3.40696">
        <ele>18.317398</ele>
        <time>2020-05-31T18:13:12.718Z</time>
      </trkpt>
      <trkpt lat="50.4199" lon="3.40707">
        <ele>19.011973</ele>
        <time>2020-05-31T18:13:23.871Z</time>
      </trkpt>
      <trkpt lat="50.41922" lon="3.40716">
        <ele>19.59126</ele>
        <time>2020-05-31T18:13:37.160Z</time>
      </trkpt>
      <trkpt lat="50.41878" lon="3.4072">
        <ele>19.968104</ele>
        <time>2020-05-31T18:13:44.907Z</time>
      </trkpt>
      <trkpt lat="50.41813" lon="3.4073">
        <ele>20.288658</ele>
        <time>2020-05-31T18:13:55.447Z</time>
      </trkpt>
      <trkpt lat="50.41806" lon="3.40731">
        <ele>20.256197</ele>
        <time>2020-05-31T18:13:56.401Z</time>
      </trkpt>
      <trkpt lat="50.41772" lon="3.40734">
        <ele>20.096702</ele>
        <time>2020-05-31T18:14:01.256Z</time>
      </trkpt>
      <trkpt lat="50.41764" lon="3.40736">
        <ele>20.057717</ele>
        <time>2020-05-31T18:14:02.441Z</time>
      </trkpt>
      <trkpt lat="50.41748" lon="3.40736">
        <ele>19.985122</ele>
        <time>2020-05-31T18:14:04.472Z</time>
      </trkpt>
      <trkpt lat="50.41738" lon="3.40737">
        <ele>19.937289</ele>
        <time>2020-05-31T18:14:05.736Z</time>
      </trkpt>
      <trkpt lat="50.4169" lon="3.40738">
        <ele>19.714496</ele>
        <time>2020-05-31T18:14:11.734Z</time>
      </trkpt>
      <trkpt lat="50.41619" lon="3.40735">
        <ele>19.312258</ele>
        <time>2020-05-31T18:14:20.609Z</time>
      </trkpt>
      <trkpt lat="50.416" lon="3.4073">
        <ele>19.186767</ele>
        <time>2020-05-31T18:14:22.891Z</time>
      </trkpt>
      <trkpt lat="50.41576" lon="3.40723">
        <ele>19.023351</ele>
        <time>2020-05-31T18:14:25.977Z</time>
      </trkpt>
      <trkpt lat="50.41572" lon="3.40722">
        <ele>18.993967</ele>
        <time>2020-05-31T18:14:26.532Z</time>
      </trkpt>
      <trkpt lat="50.41562" lon="3.40718">
        <ele>18.926348</ele>
        <time>2020-05-31T18:14:27.711Z</time>
      </trkpt>
      <trkpt lat="50.4155" lon="3.40714">
        <ele>18.84438</ele>
        <time>2020-05-31T18:14:29.316Z</time>
      </trkpt>
      <trkpt lat="50.41578" lon="3.40641">
        <ele>18.478367</ele>
        <time>2020-05-31T18:14:39.267Z</time>
      </trkpt>
      <trkpt lat="50.41667" lon="3.40455">
        <ele>18.01149</ele>
        <time>2020-05-31T18:15:08.429Z</time>
      </trkpt>
      <trkpt lat="50.41653" lon="3.40436">
        <ele>17.96512</ele>
        <time>2020-05-31T18:15:11.208Z</time>
      </trkpt>
      <trkpt lat="50.41519" lon="3.40218">
        <ele>17.110469</ele>
        <time>2020-05-31T18:15:36.943Z</time>
      </trkpt>
      <trkpt lat="50.41512" lon="3.40197">
        <ele>17.037417</ele>
        <time>2020-05-31T18:15:38.816Z</time>
      </trkpt>
      <trkpt lat="50.415" lon="3.4014">
        <ele>16.962622</ele>
        <time>2020-05-31T18:15:43.909Z</time>
      </trkpt>
      <trkpt lat="50.41489" lon="3.40064">
        <ele>16.904253</ele>
        <time>2020-05-31T18:15:50.860Z</time>
      </trkpt>
      <trkpt lat="50.41471" lon="3.39998">
        <ele>16.850259</ele>
        <time>2020-05-31T18:15:57.469Z</time>
      </trkpt>
      <trkpt lat="50.41442" lon="3.39906">
        <ele>16.80903</ele>
        <time>2020-05-31T18:16:07.649Z</time>
      </trkpt>
      <trkpt lat="50.41439" lon="3.39875">
        <ele>16.847451</ele>
        <time>2020-05-31T18:16:10.946Z</time>
      </trkpt>
      <trkpt lat="50.41467" lon="3.39611">
        <ele>17.146493</ele>
        <time>2020-05-31T18:16:37.752Z</time>
      </trkpt>
      <trkpt lat="50.41482" lon="3.39488">
        <ele>17.17354</ele>
        <time>2020-05-31T18:16:49.660Z</time>
      </trkpt>
      <trkpt lat="50.41488" lon="3.39439">
        <ele>17.18436</ele>
        <time>2020-05-31T18:16:54.407Z</time>
      </trkpt>
      <trkpt lat="50.41502" lon="3.39314">
        <ele>17.217819</ele>
        <time>2020-05-31T18:17:06.393Z</time>
      </trkpt>
      <trkpt lat="50.41511" lon="3.3925">
        <ele>17.239075</ele>
        <time>2020-05-31T18:17:12.758Z</time>
      </trkpt>
      <trkpt lat="50.41512" lon="3.39237">
        <ele>17.24332</ele>
        <time>2020-05-31T18:17:13.993Z</time>
      </trkpt>
      <trkpt lat="50.41527" lon="3.3918">
        <ele>17.263312</ele>
        <time>2020-05-31T18:17:20.176Z</time>
      </trkpt>
      <trkpt lat="50.4163" lon="3.38996">
        <ele>17.314679</ele>
        <time>2020-05-31T18:17:43.212Z</time>
      </trkpt>
      <trkpt lat="50.41633" lon="3.38991">
        <ele>17.315639</ele>
        <time>2020-05-31T18:17:43.834Z</time>
      </trkpt>
      <trkpt lat="50.41644" lon="3.38966">
        <ele>17.31994</ele>
        <time>2020-05-31T18:17:46.510Z</time>
      </trkpt>
      <trkpt lat="50.41655" lon="3.38938">
        <ele>17.324751</ele>
        <time>2020-05-31T18:17:49.650Z</time>
      </trkpt>
      <trkpt lat="50.41668" lon="3.38876">
        <ele>17.348525</ele>
        <time>2020-05-31T18:17:55.950Z</time>
      </trkpt>
      <trkpt lat="50.41683" lon="3.38779">
        <ele>17.515396</ele>
        <time>2020-05-31T18:18:05.978Z</time>
      </trkpt>
      <trkpt lat="50.41693" lon="3.38735">
        <ele>17.594972</ele>
        <time>2020-05-31T18:18:10.882Z</time>
      </trkpt>
      <trkpt lat="50.41677" lon="3.38721">
        <ele>17.642884</ele>
        <time>2020-05-31T18:18:13.918Z</time>
      </trkpt>
      <trkpt lat="50.41656" lon="3.38713">
        <ele>17.700791</ele>
        <time>2020-05-31T18:18:17.448Z</time>
      </trkpt>
      <trkpt lat="50.41626" lon="3.38688">
        <ele>17.788838</ele>
        <time>2020-05-31T18:18:22.903Z</time>
      </trkpt>
      <trkpt lat="50.41598" lon="3.38667">
        <ele>17.809774</ele>
        <time>2020-05-31T18:18:27.962Z</time>
      </trkpt>
      <trkpt lat="50.41566" lon="3.38641">
        <ele>17.815625</ele>
        <time>2020-05-31T18:18:33.645Z</time>
      </trkpt>
      <trkpt lat="50.41522" lon="3.38604">
        <ele>17.823888</ele>
        <time>2020-05-31T18:18:41.377Z</time>
      </trkpt>
      <trkpt lat="50.4141" lon="3.38573">
        <ele>17.588948</ele>
        <time>2020-05-31T18:18:56.975Z</time>
      </trkpt>
      <trkpt lat="50.41295" lon="3.38499">
        <ele>16.914907</ele>
        <time>2020-05-31T18:19:12.943Z</time>
      </trkpt>
      <trkpt lat="50.4119" lon="3.38461">
        <ele>16.679927</ele>
        <time>2020-05-31T18:19:27.171Z</time>
      </trkpt>
      <trkpt lat="50.41026" lon="3.38342">
        <ele>17.638027</ele>
        <time>2020-05-31T18:19:55.864Z</time>
      </trkpt>
      <trkpt lat="50.41008" lon="3.3834">
        <ele>17.846204</ele>
        <time>2020-05-31T18:20:00.098Z</time>
      </trkpt>
      <trkpt lat="50.40909" lon="3.38386">
        <ele>19.309717</ele>
        <time>2020-05-31T18:20:24.247Z</time>
      </trkpt>
      <trkpt lat="50.4089" lon="3.38395">
        <ele>19.682297</ele>
        <time>2020-05-31T18:20:28.359Z</time>
      </trkpt>
      <trkpt lat="50.40886" lon="3.38394">
        <ele>19.767491</ele>
        <time>2020-05-31T18:20:29.985Z</time>
      </trkpt>
      <trkpt lat="50.40881" lon="3.38394">
        <ele>19.854473</ele>
        <time>2020-05-31T18:20:31.499Z</time>
      </trkpt>
      <trkpt lat="50.40837" lon="3.38361">
        <ele>20.776133</ele>
        <time>2020-05-31T18:20:43.170Z</time>
      </trkpt>
      <trkpt lat="50.40482" lon="3.38043">
        <ele>25.827741</ele>
        <time>2020-05-31T18:22:03.953Z</time>
      </trkpt>
      <trkpt lat="50.40219" lon="3.37809">
        <ele>24.873809</ele>
        <time>2020-05-31T18:22:44.441Z</time>
      </trkpt>
      <trkpt lat="50.40193" lon="3.37783">
        <ele>24.722171</ele>
        <time>2020-05-31T18:22:48.479Z</time>
      </trkpt>
      <trkpt lat="50.40172" lon="3.37767">
        <ele>24.609016</ele>
        <time>2020-05-31T18:22:51.457Z</time>
      </trkpt>
      <trkpt lat="50.40147" lon="3.37751">
        <ele>24.501766</ele>
        <time>2020-05-31T18:22:55.104Z</time>
      </trkpt>
      <trkpt lat="50.40104" lon="3.37745">
        <ele>24.398327</ele>
        <time>2020-05-31T18:23:00.999Z</time>
      </trkpt>
      <trkpt lat="50.39974" lon="3.37765">
        <ele>24.032077</ele>
        <time>2020-05-31T18:23:20.477Z</time>
      </trkpt>
      <trkpt lat="50.39895" lon="3.37777">
        <ele>22.886161</ele>
        <time>2020-05-31T18:23:30.200Z</time>
      </trkpt>
      <trkpt lat="50.39837" lon="3.37772">
        <ele>22.048904</ele>
        <time>2020-05-31T18:23:36.544Z</time>
      </trkpt>
      <trkpt lat="50.39783" lon="3.37761">
        <ele>21.147945</ele>
        <time>2020-05-31T18:23:42.594Z</time>
      </trkpt>
      <trkpt lat="50.39779" lon="3.3776">
        <ele>21.076471</ele>
        <time>2020-05-31T18:23:42.986Z</time>
      </trkpt>
      <trkpt lat="50.39779" lon="3.3776">
        <ele>21.076471</ele>
        <time>2020-05-31T18:23:42.999Z</time>
      </trkpt>
      <trkpt lat="50.3975" lon="3.37767">
        <ele>20.463446</ele>
        <time>2020-05-31T18:23:46.180Z</time>
      </trkpt>
      <trkpt lat="50.39703" lon="3.37776">
        <ele>19.476398</ele>
        <time>2020-05-31T18:23:51.075Z</time>
      </trkpt>
      <trkpt lat="50.39665" lon="3.37774">
        <ele>18.673261</ele>
        <time>2020-05-31T18:23:55.270Z</time>
      </trkpt>
      <trkpt lat="50.39604" lon="3.37752">
        <ele>17.639614</ele>
        <time>2020-05-31T18:24:02.452Z</time>
      </trkpt>
      <trkpt lat="50.39585" lon="3.37737">
        <ele>17.522005</ele>
        <time>2020-05-31T18:24:05.213Z</time>
      </trkpt>
      <trkpt lat="50.39506" lon="3.37622">
        <ele>16.91671</ele>
        <time>2020-05-31T18:24:19.861Z</time>
      </trkpt>
      <trkpt lat="50.39481" lon="3.37593">
        <ele>16.739737</ele>
        <time>2020-05-31T18:24:24.318Z</time>
      </trkpt>
      <trkpt lat="50.39236" lon="3.37444">
        <ele>16.198889</ele>
        <time>2020-05-31T18:25:01.366Z</time>
      </trkpt>
      <trkpt lat="50.3908" lon="3.37379">
        <ele>15.931335</ele>
        <time>2020-05-31T18:25:24.107Z</time>
      </trkpt>
      <trkpt lat="50.39067" lon="3.37372">
        <ele>15.915047</ele>
        <time>2020-05-31T18:25:25.945Z</time>
      </trkpt>
      <trkpt lat="50.39061" lon="3.37368">
        <ele>15.906832</ele>
        <time>2020-05-31T18:25:27.003Z</time>
      </trkpt>
      <trkpt lat="50.39047" lon="3.37357">
        <ele>15.88736</ele>
        <time>2020-05-31T18:25:29.325Z</time>
      </trkpt>
      <trkpt lat="50.3896" lon="3.37264">
        <ele>15.765639</ele>
        <time>2020-05-31T18:25:44.740Z</time>
      </trkpt>
      <trkpt lat="50.38561" lon="3.36835">
        <ele>15.385532</ele>
        <time>2020-05-31T18:26:54.526Z</time>
      </trkpt>
      <trkpt lat="50.3816" lon="3.36428">
        <ele>16.295773</ele>
        <time>2020-05-31T18:28:08.379Z</time>
      </trkpt>
      <trkpt lat="50.37975" lon="3.36313">
        <ele>17.515956</ele>
        <time>2020-05-31T18:28:44.515Z</time>
      </trkpt>
      <trkpt lat="50.37926" lon="3.36278">
        <ele>17.904898</ele>
        <time>2020-05-31T18:28:54.225Z</time>
      </trkpt>
      <trkpt lat="50.37889" lon="3.3626">
        <ele>18.079305</ele>
        <time>2020-05-31T18:29:00.650Z</time>
      </trkpt>
      <trkpt lat="50.37793" lon="3.36227">
        <ele>18.184994</ele>
        <time>2020-05-31T18:29:15.894Z</time>
      </trkpt>
      <trkpt lat="50.37773" lon="3.36213">
        <ele>18.208758</ele>
        <time>2020-05-31T18:29:19.072Z</time>
      </trkpt>
      <trkpt lat="50.37736" lon="3.36179">
        <ele>18.252761</ele>
        <time>2020-05-31T18:29:25.059Z</time>
      </trkpt>
      <trkpt lat="50.37695" lon="3.36142">
        <ele>18.150545</ele>
        <time>2020-05-31T18:29:31.562Z</time>
      </trkpt>
      <trkpt lat="50.37686" lon="3.36134">
        <ele>18.12781</ele>
        <time>2020-05-31T18:29:33.041Z</time>
      </trkpt>
      <trkpt lat="50.37621" lon="3.36076">
        <ele>17.966488</ele>
        <time>2020-05-31T18:29:43.346Z</time>
      </trkpt>
      <trkpt lat="50.37611" lon="3.36067">
        <ele>17.941931</ele>
        <time>2020-05-31T18:29:44.930Z</time>
      </trkpt>
      <trkpt lat="50.37568" lon="3.36025">
        <ele>17.899831</ele>
        <time>2020-05-31T18:29:52.318Z</time>
      </trkpt>
      <trkpt lat="50.37551" lon="3.3601">
        <ele>17.943113</ele>
        <time>2020-05-31T18:29:55.482Z</time>
      </trkpt>
      <trkpt lat="50.37534" lon="3.36004">
        <ele>17.984703</ele>
        <time>2020-05-31T18:29:58.029Z</time>
      </trkpt>
      <trkpt lat="50.37477" lon="3.36003">
        <ele>18.112759</ele>
        <time>2020-05-31T18:30:07.177Z</time>
      </trkpt>
      <trkpt lat="50.37461" lon="3.36006">
        <ele>18.150608</ele>
        <time>2020-05-31T18:30:09.576Z</time>
      </trkpt>
      <trkpt lat="50.37447" lon="3.36006">
        <ele>18.181033</ele>
        <time>2020-05-31T18:30:11.989Z</time>
      </trkpt>
      <trkpt lat="50.37418" lon="3.36">
        <ele>18.247079</ele>
        <time>2020-05-31T18:30:16.558Z</time>
      </trkpt>
      <trkpt lat="50.37318" lon="3.3595">
        <ele>18.863785</ele>
        <time>2020-05-31T18:30:34.408Z</time>
      </trkpt>
      <trkpt lat="50.37272" lon="3.35927">
        <ele>19.170065</ele>
        <time>2020-05-31T18:30:43.181Z</time>
      </trkpt>
      <trkpt lat="50.37253" lon="3.3592">
        <ele>19.290935</ele>
        <time>2020-05-31T18:30:46.592Z</time>
      </trkpt>
      <trkpt lat="50.37225" lon="3.3591">
        <ele>19.474936</ele>
        <time>2020-05-31T18:30:51.759Z</time>
      </trkpt>
      <trkpt lat="50.37135" lon="3.35884">
        <ele>20.060426</ele>
        <time>2020-05-31T18:31:07.941Z</time>
      </trkpt>
      <trkpt lat="50.37051" lon="3.35859">
        <ele>20.597875</ele>
        <time>2020-05-31T18:31:22.491Z</time>
      </trkpt>
      <trkpt lat="50.37048" lon="3.35858">
        <ele>20.612418</ele>
        <time>2020-05-31T18:31:23.010Z</time>
      </trkpt>
      <trkpt lat="50.36987" lon="3.35835">
        <ele>20.936258</ele>
        <time>2020-05-31T18:31:33.306Z</time>
      </trkpt>
      <trkpt lat="50.36939" lon="3.35818">
        <ele>21.184442</ele>
        <time>2020-05-31T18:31:41.812Z</time>
      </trkpt>
      <trkpt lat="50.36931" lon="3.35814">
        <ele>21.227068</ele>
        <time>2020-05-31T18:31:43.202Z</time>
      </trkpt>
      <trkpt lat="50.36887" lon="3.3579">
        <ele>21.464967</ele>
        <time>2020-05-31T18:31:50.980Z</time>
      </trkpt>
      <trkpt lat="50.3687" lon="3.35781">
        <ele>21.540799</ele>
        <time>2020-05-31T18:31:54.213Z</time>
      </trkpt>
      <trkpt lat="50.36794" lon="3.35737">
        <ele>21.863554</ele>
        <time>2020-05-31T18:32:07.312Z</time>
      </trkpt>
      <trkpt lat="50.36794" lon="3.35737">
        <ele>21.863554</ele>
        <time>2020-05-31T18:32:07.351Z</time>
      </trkpt>
      <trkpt lat="50.36794" lon="3.35737">
        <ele>21.863554</ele>
        <time>2020-05-31T18:32:07.355Z</time>
      </trkpt>
      <trkpt lat="50.36737" lon="3.35704">
        <ele>22.105687</ele>
        <time>2020-05-31T18:32:17.539Z</time>
      </trkpt>
      <trkpt lat="50.367" lon="3.35683">
        <ele>22.255765</ele>
        <time>2020-05-31T18:32:24.105Z</time>
      </trkpt>
      <trkpt lat="50.36695" lon="3.3568">
        <ele>22.276692</ele>
        <time>2020-05-31T18:32:25.032Z</time>
      </trkpt>
      <trkpt lat="50.36693" lon="3.3568">
        <ele>22.28439</ele>
        <time>2020-05-31T18:32:25.383Z</time>
      </trkpt>
      <trkpt lat="50.36691" lon="3.35679">
        <ele>22.291727</ele>
        <time>2020-05-31T18:32:25.633Z</time>
      </trkpt>
      <trkpt lat="50.36623" lon="3.35724">
        <ele>22.559139</ele>
        <time>2020-05-31T18:32:37.255Z</time>
      </trkpt>
      <trkpt lat="50.36467" lon="3.35875">
        <ele>23.453823</ele>
        <time>2020-05-31T18:33:07.568Z</time>
      </trkpt>
      <trkpt lat="50.36385" lon="3.35989">
        <ele>24.088276</ele>
        <time>2020-05-31T18:33:27.296Z</time>
      </trkpt>
      <trkpt lat="50.36291" lon="3.36086">
        <ele>24.70508</ele>
        <time>2020-05-31T18:33:46.642Z</time>
      </trkpt>
      <trkpt lat="50.36274" lon="3.36089">
        <ele>24.802616</ele>
        <time>2020-05-31T18:33:49.565Z</time>
      </trkpt>
      <trkpt lat="50.36244" lon="3.36077">
        <ele>24.880686</ele>
        <time>2020-05-31T18:33:54.550Z</time>
      </trkpt>
      <trkpt lat="50.3623" lon="3.36072">
        <ele>24.865829</ele>
        <time>2020-05-31T18:33:56.802Z</time>
      </trkpt>
      <trkpt lat="50.3622" lon="3.36062">
        <ele>24.852885</ele>
        <time>2020-05-31T18:33:58.653Z</time>
      </trkpt>
      <trkpt lat="50.36135" lon="3.35951">
        <ele>24.736202</ele>
        <time>2020-05-31T18:34:14.496Z</time>
      </trkpt>
      <trkpt lat="50.36112" lon="3.3593">
        <ele>24.708413</ele>
        <time>2020-05-31T18:34:18.006Z</time>
      </trkpt>
      <trkpt lat="50.36175" lon="3.35708">
        <ele>23.792233</ele>
        <time>2020-05-31T18:34:38.068Z</time>
      </trkpt>
      <trkpt lat="50.36199" lon="3.35596">
        <ele>23.38098</ele>
        <time>2020-05-31T18:34:47.754Z</time>
      </trkpt>
      <trkpt lat="50.36247" lon="3.35294">
        <ele>22.553523</ele>
        <time>2020-05-31T18:35:14.584Z</time>
      </trkpt>
      <trkpt lat="50.36296" lon="3.35096">
        <ele>22.245949</ele>
        <time>2020-05-31T18:35:34.007Z</time>
      </trkpt>
      <trkpt lat="50.36306" lon="3.35037">
        <ele>22.161851</ele>
        <time>2020-05-31T18:35:39.662Z</time>
      </trkpt>
      <trkpt lat="50.36308" lon="3.34982">
        <ele>22.0871</ele>
        <time>2020-05-31T18:35:44.651Z</time>
      </trkpt>
      <trkpt lat="50.36309" lon="3.34968">
        <ele>22.068032</ele>
        <time>2020-05-31T18:35:45.939Z</time>
      </trkpt>
      <trkpt lat="50.36309" lon="3.34964">
        <ele>22.06258</ele>
        <time>2020-05-31T18:35:46.307Z</time>
      </trkpt>
      <trkpt lat="50.36316" lon="3.34914">
        <ele>21.993947</ele>
        <time>2020-05-31T18:35:50.817Z</time>
      </trkpt>
      <trkpt lat="50.36353" lon="3.34723">
        <ele>21.751063</ele>
        <time>2020-05-31T18:36:08.512Z</time>
      </trkpt>
      <trkpt lat="50.36366" lon="3.34621">
        <ele>21.631545</ele>
        <time>2020-05-31T18:36:17.804Z</time>
      </trkpt>
      <trkpt lat="50.36377" lon="3.3439">
        <ele>21.920688</ele>
        <time>2020-05-31T18:36:40.389Z</time>
      </trkpt>
      <trkpt lat="50.3638" lon="3.34238">
        <ele>22.375504</ele>
        <time>2020-05-31T18:36:57.169Z</time>
      </trkpt>
      <trkpt lat="50.36365" lon="3.34135">
        <ele>22.882907</ele>
        <time>2020-05-31T18:37:09.443Z</time>
      </trkpt>
      <trkpt lat="50.36372" lon="3.34062">
        <ele>23.239562</ele>
        <time>2020-05-31T18:37:18.124Z</time>
      </trkpt>
      <trkpt lat="50.36378" lon="3.34019">
        <ele>23.442852</ele>
        <time>2020-05-31T18:37:23.180Z</time>
      </trkpt>
      <trkpt lat="50.36398" lon="3.33873">
        <ele>23.953949</ele>
        <time>2020-05-31T18:37:40.404Z</time>
      </trkpt>
      <trkpt lat="50.36448" lon="3.33756">
        <ele>24.382858</ele>
        <time>2020-05-31T18:37:55.003Z</time>
      </trkpt>
      <trkpt lat="50.36457" lon="3.33747">
        <ele>24.35804</ele>
        <time>2020-05-31T18:37:56.491Z</time>
      </trkpt>
      <trkpt lat="50.36471" lon="3.3375">
        <ele>24.326146</ele>
        <time>2020-05-31T18:37:58.596Z</time>
      </trkpt>
      <trkpt lat="50.36502" lon="3.33756">
        <ele>24.252445</ele>
        <time>2020-05-31T18:38:03.115Z</time>
      </trkpt>
      <trkpt lat="50.36508" lon="3.33758">
        <ele>24.238966</ele>
        <time>2020-05-31T18:38:03.964Z</time>
      </trkpt>
      <trkpt lat="50.36531" lon="3.33765">
        <ele>24.184798</ele>
        <time>2020-05-31T18:38:07.178Z</time>
      </trkpt>
      <trkpt lat="50.36549" lon="3.33768">
        <ele>24.144133</ele>
        <time>2020-05-31T18:38:09.726Z</time>
      </trkpt>
      <trkpt lat="50.36552" lon="3.33765">
        <ele>24.13436</ele>
        <time>2020-05-31T18:38:10.291Z</time>
      </trkpt>
      <trkpt lat="50.36557" lon="3.33774">
        <ele>24.117217</ele>
        <time>2020-05-31T18:38:11.241Z</time>
      </trkpt>
      <trkpt lat="50.36567" lon="3.3379">
        <ele>24.083537</ele>
        <time>2020-05-31T18:38:13.396Z</time>
      </trkpt>
      <trkpt lat="50.36584" lon="3.33809">
        <ele>24.035247</ele>
        <time>2020-05-31T18:38:16.107Z</time>
      </trkpt>
      <trkpt lat="50.36591" lon="3.33801">
        <ele>24.017085</ele>
        <time>2020-05-31T18:38:17.615Z</time>
      </trkpt>
      <trkpt lat="50.36612" lon="3.33779">
        <ele>23.900111</ele>
        <time>2020-05-31T18:38:22.220Z</time>
      </trkpt>
      <trkpt lat="50.3665" lon="3.33704">
        <ele>23.434009</ele>
        <time>2020-05-31T18:38:33.340Z</time>
      </trkpt>
      <trkpt lat="50.36663" lon="3.3366">
        <ele>23.202807</ele>
        <time>2020-05-31T18:38:38.696Z</time>
      </trkpt>
      <trkpt lat="50.36692" lon="3.3358">
        <ele>22.758537</ele>
        <time>2020-05-31T18:38:49.193Z</time>
      </trkpt>
      <trkpt lat="50.36703" lon="3.33565">
        <ele>22.648326</ele>
        <time>2020-05-31T18:38:51.825Z</time>
      </trkpt>
      <trkpt lat="50.36736" lon="3.33545">
        <ele>22.342512</ele>
        <time>2020-05-31T18:38:58.075Z</time>
      </trkpt>
      <trkpt lat="50.3676" lon="3.3353">
        <ele>22.11561</ele>
        <time>2020-05-31T18:39:02.565Z</time>
      </trkpt>
      <trkpt lat="50.36768" lon="3.33523">
        <ele>22.03524</ele>
        <time>2020-05-31T18:39:04.227Z</time>
      </trkpt>
      <trkpt lat="50.36772" lon="3.33506">
        <ele>21.934462</ele>
        <time>2020-05-31T18:39:06.269Z</time>
      </trkpt>
      <trkpt lat="50.36763" lon="3.33452">
        <ele>21.621778</ele>
        <time>2020-05-31T18:39:12.518Z</time>
      </trkpt>
      <trkpt lat="50.3678" lon="3.33449">
        <ele>21.467125</ele>
        <time>2020-05-31T18:39:14.641Z</time>
      </trkpt>
      <trkpt lat="50.36848" lon="3.33421">
        <ele>20.950719</ele>
        <time>2020-05-31T18:39:23.423Z</time>
      </trkpt>
      <trkpt lat="50.36868" lon="3.33405">
        <ele>20.853667</ele>
        <time>2020-05-31T18:39:26.351Z</time>
      </trkpt>
      <trkpt lat="50.36923" lon="3.33342">
        <ele>20.553346</ele>
        <time>2020-05-31T18:39:35.387Z</time>
      </trkpt>
      <trkpt lat="50.36932" lon="3.33331">
        <ele>20.503117</ele>
        <time>2020-05-31T18:39:36.952Z</time>
      </trkpt>
      <trkpt lat="50.36989" lon="3.33264">
        <ele>20.279334</ele>
        <time>2020-05-31T18:39:47.015Z</time>
      </trkpt>
      <trkpt lat="50.37079" lon="3.33151">
        <ele>20.419247</ele>
        <time>2020-05-31T18:40:04.697Z</time>
      </trkpt>
      <trkpt lat="50.37079" lon="3.33151">
        <ele>20.419247</ele>
        <time>2020-05-31T18:40:04.735Z</time>
      </trkpt>
      <trkpt lat="50.37085" lon="3.33168">
        <ele>20.434475</ele>
        <time>2020-05-31T18:40:06.718Z</time>
      </trkpt>
      <trkpt lat="50.37099" lon="3.33301">
        <ele>20.572486</ele>
        <time>2020-05-31T18:40:20.381Z</time>
      </trkpt>
      <trkpt lat="50.37107" lon="3.33336">
        <ele>20.616898</ele>
        <time>2020-05-31T18:40:24.161Z</time>
      </trkpt>
      <trkpt lat="50.37118" lon="3.33358">
        <ele>20.650578</ele>
        <time>2020-05-31T18:40:26.949Z</time>
      </trkpt>
      <trkpt lat="50.37125" lon="3.33375">
        <ele>20.675179</ele>
        <time>2020-05-31T18:40:29.085Z</time>
      </trkpt>
      <trkpt lat="50.37147" lon="3.33412">
        <ele>20.735952</ele>
        <time>2020-05-31T18:40:34.097Z</time>
      </trkpt>
      <trkpt lat="50.3717" lon="3.33443">
        <ele>20.793909</ele>
        <time>2020-05-31T18:40:38.866Z</time>
      </trkpt>
      <trkpt lat="50.37229" lon="3.33506">
        <ele>20.720467</ele>
        <time>2020-05-31T18:40:49.094Z</time>
      </trkpt>
      <trkpt lat="50.37288" lon="3.33562">
        <ele>20.599525</ele>
        <time>2020-05-31T18:40:58.844Z</time>
      </trkpt>
      <trkpt lat="50.37325" lon="3.3354">
        <ele>20.529856</ele>
        <time>2020-05-31T18:41:04.358Z</time>
      </trkpt>
      <trkpt lat="50.37396" lon="3.33436">
        <ele>20.311957</ele>
        <time>2020-05-31T18:41:17.766Z</time>
      </trkpt>
      <trkpt lat="50.37441" lon="3.33419">
        <ele>20.203443</ele>
        <time>2020-05-31T18:41:24.100Z</time>
      </trkpt>
      <trkpt lat="50.37456" lon="3.33418">
        <ele>20.168199</ele>
        <time>2020-05-31T18:41:26.302Z</time>
      </trkpt>
      <trkpt lat="50.37485" lon="3.33417">
        <ele>20.100281</ele>
        <time>2020-05-31T18:41:30.517Z</time>
      </trkpt>
      <trkpt lat="50.37499" lon="3.33415">
        <ele>20.092305</ele>
        <time>2020-05-31T18:41:32.519Z</time>
      </trkpt>
      <trkpt lat="50.37537" lon="3.3341">
        <ele>20.121455</ele>
        <time>2020-05-31T18:41:38.154Z</time>
      </trkpt>
      <trkpt lat="50.37567" lon="3.334">
        <ele>20.145189</ele>
        <time>2020-05-31T18:41:42.844Z</time>
      </trkpt>
      <trkpt lat="50.37613" lon="3.33379">
        <ele>20.181691</ele>
        <time>2020-05-31T18:41:50.286Z</time>
      </trkpt>
      <trkpt lat="50.3769" lon="3.33368">
        <ele>20.166355</ele>
        <time>2020-05-31T18:42:02.396Z</time>
      </trkpt>
      <trkpt lat="50.37736" lon="3.3336">
        <ele>20.046789</ele>
        <time>2020-05-31T18:42:09.099Z</time>
      </trkpt>
      <trkpt lat="50.37773" lon="3.33352">
        <ele>19.951967</ele>
        <time>2020-05-31T18:42:14.143Z</time>
      </trkpt>
      <trkpt lat="50.37789" lon="3.33353">
        <ele>19.908853</ele>
        <time>2020-05-31T18:42:16.394Z</time>
      </trkpt>
      <trkpt lat="50.37822" lon="3.33346">
        <ele>19.825268</ele>
        <time>2020-05-31T18:42:20.733Z</time>
      </trkpt>
      <trkpt lat="50.37865" lon="3.33337">
        <ele>19.669724</ele>
        <time>2020-05-31T18:42:26.599Z</time>
      </trkpt>
      <trkpt lat="50.37877" lon="3.33341">
        <ele>19.612633</ele>
        <time>2020-05-31T18:42:28.116Z</time>
      </trkpt>
      <trkpt lat="50.37926" lon="3.33368">
        <ele>19.362286</ele>
        <time>2020-05-31T18:42:34.900Z</time>
      </trkpt>
      <trkpt lat="50.38005" lon="3.33374">
        <ele>18.984168</ele>
        <time>2020-05-31T18:42:45.213Z</time>
      </trkpt>
      <trkpt lat="50.38064" lon="3.33345">
        <ele>18.916971</ele>
        <time>2020-05-31T18:42:53.968Z</time>
      </trkpt>
      <trkpt lat="50.38122" lon="3.33342">
        <ele>18.942811</ele>
        <time>2020-05-31T18:43:02.873Z</time>
      </trkpt>
      <trkpt lat="50.38177" lon="3.33329">
        <ele>18.967646</ele>
        <time>2020-05-31T18:43:11.592Z</time>
      </trkpt>
      <trkpt lat="50.38204" lon="3.33323">
        <ele>18.968044</ele>
        <time>2020-05-31T18:43:15.877Z</time>
      </trkpt>
      <trkpt lat="50.38292" lon="3.33302">
        <ele>18.7799</ele>
        <time>2020-05-31T18:43:29.833Z</time>
      </trkpt>
      <trkpt lat="50.38394" lon="3.33269">
        <ele>18.418168</ele>
        <time>2020-05-31T18:43:43.403Z</time>
      </trkpt>
      <trkpt lat="50.38444" lon="3.33269">
        <ele>17.927844</ele>
        <time>2020-05-31T18:43:49.643Z</time>
      </trkpt>
      <trkpt lat="50.38459" lon="3.33269">
        <ele>17.784263</ele>
        <time>2020-05-31T18:43:51.366Z</time>
      </trkpt>
      <trkpt lat="50.38505" lon="3.33271">
        <ele>17.333941</ele>
        <time>2020-05-31T18:43:56.920Z</time>
      </trkpt>
      <trkpt lat="50.38659" lon="3.33275">
        <ele>16.522069</ele>
        <time>2020-05-31T18:44:15.532Z</time>
      </trkpt>
      <trkpt lat="50.38712" lon="3.33275">
        <ele>16.357269</ele>
        <time>2020-05-31T18:44:24.182Z</time>
      </trkpt>
      <trkpt lat="50.38761" lon="3.33269">
        <ele>16.658026</ele>
        <time>2020-05-31T18:44:33.485Z</time>
      </trkpt>
      <trkpt lat="50.3877" lon="3.33268">
        <ele>16.793407</ele>
        <time>2020-05-31T18:44:35.421Z</time>
      </trkpt>
      <trkpt lat="50.38791" lon="3.33266">
        <ele>17.088548</ele>
        <time>2020-05-31T18:44:39.429Z</time>
      </trkpt>
      <trkpt lat="50.38877" lon="3.33258">
        <ele>18.342</ele>
        <time>2020-05-31T18:44:58.519Z</time>
      </trkpt>
      <trkpt lat="50.39013" lon="3.33244">
        <ele>19.137947</ele>
        <time>2020-05-31T18:45:26.465Z</time>
      </trkpt>
      <trkpt lat="50.39178" lon="3.33138">
        <ele>18.005593</ele>
        <time>2020-05-31T18:45:47.755Z</time>
      </trkpt>
      <trkpt lat="50.39192" lon="3.33122">
        <ele>17.769965</ele>
        <time>2020-05-31T18:45:49.796Z</time>
      </trkpt>
      <trkpt lat="50.39199" lon="3.33114">
        <ele>17.656002</ele>
        <time>2020-05-31T18:45:50.620Z</time>
      </trkpt>
      <trkpt lat="50.39208" lon="3.33066">
        <ele>17.218943</ele>
        <time>2020-05-31T18:45:54.318Z</time>
      </trkpt>
      <trkpt lat="50.3928" lon="3.32956">
        <ele>16.336759</ele>
        <time>2020-05-31T18:46:06.108Z</time>
      </trkpt>
      <trkpt lat="50.39301" lon="3.32924">
        <ele>16.125559</ele>
        <time>2020-05-31T18:46:09.690Z</time>
      </trkpt>
      <trkpt lat="50.39326" lon="3.32887">
        <ele>15.884309</ele>
        <time>2020-05-31T18:46:14.593Z</time>
      </trkpt>
      <trkpt lat="50.39387" lon="3.32799">
        <ele>15.791132</ele>
        <time>2020-05-31T18:46:27.676Z</time>
      </trkpt>
      <trkpt lat="50.39395" lon="3.32788">
        <ele>15.839275</ele>
        <time>2020-05-31T18:46:29.406Z</time>
      </trkpt>
      <trkpt lat="50.39419" lon="3.32751">
        <ele>15.999205</ele>
        <time>2020-05-31T18:46:35.139Z</time>
      </trkpt>
      <trkpt lat="50.39426" lon="3.32751">
        <ele>16.027934</ele>
        <time>2020-05-31T18:46:36.284Z</time>
      </trkpt>
      <trkpt lat="50.3943" lon="3.32756">
        <ele>16.054614</ele>
        <time>2020-05-31T18:46:37.174Z</time>
      </trkpt>
      <trkpt lat="50.39449" lon="3.32811">
        <ele>16.243186</ele>
        <time>2020-05-31T18:46:44.237Z</time>
      </trkpt>
      <trkpt lat="50.39454" lon="3.32816">
        <ele>16.27023</ele>
        <time>2020-05-31T18:46:45.175Z</time>
      </trkpt>
      <trkpt lat="50.39461" lon="3.32818">
        <ele>16.302057</ele>
        <time>2020-05-31T18:46:46.600Z</time>
      </trkpt>
      <trkpt lat="50.39469" lon="3.32816">
        <ele>16.342301</ele>
        <time>2020-05-31T18:46:48.145Z</time>
      </trkpt>
      <trkpt lat="50.39621" lon="3.32785">
        <ele>16.724431</ele>
        <time>2020-05-31T18:47:13.583Z</time>
      </trkpt>
      <trkpt lat="50.39629" lon="3.32927">
        <ele>16.59077</ele>
        <time>2020-05-31T18:47:25.832Z</time>
      </trkpt>
      <trkpt lat="50.39635" lon="3.32985">
        <ele>16.390243</ele>
        <time>2020-05-31T18:47:30.659Z</time>
      </trkpt>
      <trkpt lat="50.39645" lon="3.33028">
        <ele>16.232378</ele>
        <time>2020-05-31T18:47:34.415Z</time>
      </trkpt>
      <trkpt lat="50.39669" lon="3.3311">
        <ele>15.92447</ele>
        <time>2020-05-31T18:47:41.791Z</time>
      </trkpt>
      <trkpt lat="50.3968" lon="3.33126">
        <ele>15.85823</ele>
        <time>2020-05-31T18:47:43.905Z</time>
      </trkpt>
      <trkpt lat="50.39746" lon="3.33153">
        <ele>15.825542</ele>
        <time>2020-05-31T18:47:53.289Z</time>
      </trkpt>
      <trkpt lat="50.39831" lon="3.33138">
        <ele>15.783807</ele>
        <time>2020-05-31T18:48:06.369Z</time>
      </trkpt>
      <trkpt lat="50.39861" lon="3.33142">
        <ele>15.781476</ele>
        <time>2020-05-31T18:48:11.121Z</time>
      </trkpt>
      <trkpt lat="50.39974" lon="3.33188">
        <ele>15.924821</ele>
        <time>2020-05-31T18:48:29.247Z</time>
      </trkpt>
      <trkpt lat="50.40066" lon="3.33213">
        <ele>15.980399</ele>
        <time>2020-05-31T18:48:43.425Z</time>
      </trkpt>
      <trkpt lat="50.40114" lon="3.33232">
        <ele>15.961684</ele>
        <time>2020-05-31T18:48:50.678Z</time>
      </trkpt>
      <trkpt lat="50.40214" lon="3.33214">
        <ele>15.923872</ele>
        <time>2020-05-31T18:49:05.263Z</time>
      </trkpt>
      <trkpt lat="50.40314" lon="3.33165">
        <ele>15.891665</ele>
        <time>2020-05-31T18:49:20.515Z</time>
      </trkpt>
      <trkpt lat="50.40339" lon="3.33161">
        <ele>15.883893</ele>
        <time>2020-05-31T18:49:24.192Z</time>
      </trkpt>
      <trkpt lat="50.40352" lon="3.3317">
        <ele>15.879535</ele>
        <time>2020-05-31T18:49:26.287Z</time>
      </trkpt>
      <trkpt lat="50.40471" lon="3.33315">
        <ele>16.049763</ele>
        <time>2020-05-31T18:49:49.097Z</time>
      </trkpt>
      <trkpt lat="50.40504" lon="3.33333">
        <ele>16.10135</ele>
        <time>2020-05-31T18:49:54.658Z</time>
      </trkpt>
      <trkpt lat="50.40511" lon="3.33337">
        <ele>16.112173</ele>
        <time>2020-05-31T18:49:55.833Z</time>
      </trkpt>
      <trkpt lat="50.40552" lon="3.33382">
        <ele>16.241</ele>
        <time>2020-05-31T18:50:03.872Z</time>
      </trkpt>
      <trkpt lat="50.40575" lon="3.33392">
        <ele>16.31312</ele>
        <time>2020-05-31T18:50:07.768Z</time>
      </trkpt>
      <trkpt lat="50.40717" lon="3.33396">
        <ele>16.681179</ele>
        <time>2020-05-31T18:50:30.688Z</time>
      </trkpt>
      <trkpt lat="50.40735" lon="3.33391">
        <ele>16.682462</ele>
        <time>2020-05-31T18:50:33.486Z</time>
      </trkpt>
      <trkpt lat="50.40748" lon="3.33383">
        <ele>16.683452</ele>
        <time>2020-05-31T18:50:35.526Z</time>
      </trkpt>
      <trkpt lat="50.40761" lon="3.33372">
        <ele>16.684508</ele>
        <time>2020-05-31T18:50:37.730Z</time>
      </trkpt>
      <trkpt lat="50.40809" lon="3.33342">
        <ele>16.688136</ele>
        <time>2020-05-31T18:50:45.223Z</time>
      </trkpt>
      <trkpt lat="50.40813" lon="3.33338">
        <ele>16.688463</ele>
        <time>2020-05-31T18:50:45.880Z</time>
      </trkpt>
      <trkpt lat="50.40823" lon="3.33332">
        <ele>16.689269</ele>
        <time>2020-05-31T18:50:47.559Z</time>
      </trkpt>
      <trkpt lat="50.40839" lon="3.33322">
        <ele>16.690438</ele>
        <time>2020-05-31T18:50:50.004Z</time>
      </trkpt>
      <trkpt lat="50.40846" lon="3.33312">
        <ele>16.691118</ele>
        <time>2020-05-31T18:50:51.344Z</time>
      </trkpt>
      <trkpt lat="50.4085" lon="3.33303">
        <ele>16.691626</ele>
        <time>2020-05-31T18:50:52.420Z</time>
      </trkpt>
      <trkpt lat="50.40853" lon="3.33297">
        <ele>16.691967</ele>
        <time>2020-05-31T18:50:53.101Z</time>
      </trkpt>
      <trkpt lat="50.40868" lon="3.33232">
        <ele>16.734041</ele>
        <time>2020-05-31T18:50:59.471Z</time>
      </trkpt>
      <trkpt lat="50.40877" lon="3.3322">
        <ele>16.747734</ele>
        <time>2020-05-31T18:51:01.191Z</time>
      </trkpt>
      <trkpt lat="50.40908" lon="3.33208">
        <ele>16.782</ele>
        <time>2020-05-31T18:51:05.741Z</time>
      </trkpt>
      <trkpt lat="50.40977" lon="3.33166">
        <ele>16.863678</ele>
        <time>2020-05-31T18:51:17.048Z</time>
      </trkpt>
      <trkpt lat="50.40981" lon="3.33154">
        <ele>16.873184</ele>
        <time>2020-05-31T18:51:18.500Z</time>
      </trkpt>
      <trkpt lat="50.40983" lon="3.33142">
        <ele>16.881824</ele>
        <time>2020-05-31T18:51:19.910Z</time>
      </trkpt>
      <trkpt lat="50.40967" lon="3.33081">
        <ele>17.088326</ele>
        <time>2020-05-31T18:51:27.044Z</time>
      </trkpt>
      <trkpt lat="50.40974" lon="3.32954">
        <ele>17.56075</ele>
        <time>2020-05-31T18:51:41.289Z</time>
      </trkpt>
      <trkpt lat="50.40983" lon="3.3291">
        <ele>17.733328</ele>
        <time>2020-05-31T18:51:46.566Z</time>
      </trkpt>
      <trkpt lat="50.41001" lon="3.32837">
        <ele>17.967949</ele>
        <time>2020-05-31T18:51:55.024Z</time>
      </trkpt>
      <trkpt lat="50.41018" lon="3.32763">
        <ele>18.067803</ele>
        <time>2020-05-31T18:52:03.364Z</time>
      </trkpt>
      <trkpt lat="50.41024" lon="3.32735">
        <ele>18.106492</ele>
        <time>2020-05-31T18:52:06.449Z</time>
      </trkpt>
      <trkpt lat="50.41027" lon="3.32658">
        <ele>18.204568</ele>
        <time>2020-05-31T18:52:14.146Z</time>
      </trkpt>
      <trkpt lat="50.41027" lon="3.32626">
        <ele>18.24649</ele>
        <time>2020-05-31T18:52:17.242Z</time>
      </trkpt>
      <trkpt lat="50.41027" lon="3.32545">
        <ele>18.173915</ele>
        <time>2020-05-31T18:52:24.543Z</time>
      </trkpt>
      <trkpt lat="50.41026" lon="3.32519">
        <ele>18.088649</ele>
        <time>2020-05-31T18:52:26.821Z</time>
      </trkpt>
      <trkpt lat="50.41034" lon="3.32416">
        <ele>17.757085</ele>
        <time>2020-05-31T18:52:35.430Z</time>
      </trkpt>
      <trkpt lat="50.41041" lon="3.32351">
        <ele>17.543236</ele>
        <time>2020-05-31T18:52:40.906Z</time>
      </trkpt>
      <trkpt lat="50.41042" lon="3.32349">
        <ele>17.534207</ele>
        <time>2020-05-31T18:52:41.102Z</time>
      </trkpt>
      <trkpt lat="50.41068" lon="3.32271">
        <ele>17.223391</ele>
        <time>2020-05-31T18:52:48.218Z</time>
      </trkpt>
      <trkpt lat="50.41078" lon="3.32254">
        <ele>17.13509</ele>
        <time>2020-05-31T18:52:50.076Z</time>
      </trkpt>
      <trkpt lat="50.41105" lon="3.32207">
        <ele>16.893015</ele>
        <time>2020-05-31T18:52:55.186Z</time>
      </trkpt>
      <trkpt lat="50.41121" lon="3.32175">
        <ele>16.735516</ele>
        <time>2020-05-31T18:52:58.591Z</time>
      </trkpt>
      <trkpt lat="50.41134" lon="3.32161">
        <ele>16.638887</ele>
        <time>2020-05-31T18:53:00.641Z</time>
      </trkpt>
      <trkpt lat="50.41137" lon="3.3216">
        <ele>16.622611</ele>
        <time>2020-05-31T18:53:01.001Z</time>
      </trkpt>
      <trkpt lat="50.41139" lon="3.32157">
        <ele>16.607868</ele>
        <time>2020-05-31T18:53:01.326Z</time>
      </trkpt>
      <trkpt lat="50.41139" lon="3.32155">
        <ele>16.599414</ele>
        <time>2020-05-31T18:53:01.510Z</time>
      </trkpt>
      <trkpt lat="50.4114" lon="3.32153">
        <ele>16.59096</ele>
        <time>2020-05-31T18:53:01.684Z</time>
      </trkpt>
      <trkpt lat="50.4114" lon="3.32149">
        <ele>16.574353</ele>
        <time>2020-05-31T18:53:02.053Z</time>
      </trkpt>
      <trkpt lat="50.41139" lon="3.32144">
        <ele>16.551763</ele>
        <time>2020-05-31T18:53:02.544Z</time>
      </trkpt>
      <trkpt lat="50.41137" lon="3.32126">
        <ele>16.482877</ele>
        <time>2020-05-31T18:53:04.051Z</time>
      </trkpt>
      <trkpt lat="50.41139" lon="3.32112">
        <ele>16.427235</ele>
        <time>2020-05-31T18:53:05.296Z</time>
      </trkpt>
      <trkpt lat="50.41141" lon="3.32043">
        <ele>16.305917</ele>
        <time>2020-05-31T18:53:11.417Z</time>
      </trkpt>
      <trkpt lat="50.41134" lon="3.32009">
        <ele>16.310081</ele>
        <time>2020-05-31T18:53:14.574Z</time>
      </trkpt>
      <trkpt lat="50.41094" lon="3.31923">
        <ele>16.322743</ele>
        <time>2020-05-31T18:53:24.468Z</time>
      </trkpt>
      <trkpt lat="50.41089" lon="3.31904">
        <ele>16.325145</ele>
        <time>2020-05-31T18:53:26.459Z</time>
      </trkpt>
      <trkpt lat="50.41071" lon="3.31717">
        <ele>16.549549</ele>
        <time>2020-05-31T18:53:46.403Z</time>
      </trkpt>
      <trkpt lat="50.4107" lon="3.31665">
        <ele>16.656403</ele>
        <time>2020-05-31T18:53:51.884Z</time>
      </trkpt>
      <trkpt lat="50.41073" lon="3.31575">
        <ele>16.839543</ele>
        <time>2020-05-31T18:54:01.111Z</time>
      </trkpt>
      <trkpt lat="50.41082" lon="3.31558">
        <ele>16.883421</ele>
        <time>2020-05-31T18:54:03.260Z</time>
      </trkpt>
      <trkpt lat="50.41083" lon="3.31556">
        <ele>16.889703</ele>
        <time>2020-05-31T18:54:03.578Z</time>
      </trkpt>
      <trkpt lat="50.41084" lon="3.31552">
        <ele>16.898118</ele>
        <time>2020-05-31T18:54:04.001Z</time>
      </trkpt>
      <trkpt lat="50.41084" lon="3.31546">
        <ele>16.909065</ele>
        <time>2020-05-31T18:54:04.552Z</time>
      </trkpt>
      <trkpt lat="50.41083" lon="3.31542">
        <ele>16.905835</ele>
        <time>2020-05-31T18:54:05.097Z</time>
      </trkpt>
      <trkpt lat="50.41081" lon="3.3154">
        <ele>16.90383</ele>
        <time>2020-05-31T18:54:05.425Z</time>
      </trkpt>
      <trkpt lat="50.41077" lon="3.31539">
        <ele>16.900661</ele>
        <time>2020-05-31T18:54:05.965Z</time>
      </trkpt>
      <trkpt lat="50.41068" lon="3.31523">
        <ele>16.887886</ele>
        <time>2020-05-31T18:54:08.080Z</time>
      </trkpt>
      <trkpt lat="50.41049" lon="3.31423">
        <ele>16.826026</ele>
        <time>2020-05-31T18:54:18.173Z</time>
      </trkpt>
      <trkpt lat="50.41047" lon="3.31298">
        <ele>16.752795</ele>
        <time>2020-05-31T18:54:29.261Z</time>
      </trkpt>
      <trkpt lat="50.41047" lon="3.31222">
        <ele>16.666917</ele>
        <time>2020-05-31T18:54:35.737Z</time>
      </trkpt>
      <trkpt lat="50.4106" lon="3.31075">
        <ele>16.475243</ele>
        <time>2020-05-31T18:54:49.101Z</time>
      </trkpt>
      <trkpt lat="50.41063" lon="3.31049">
        <ele>16.441474</ele>
        <time>2020-05-31T18:54:51.409Z</time>
      </trkpt>
      <trkpt lat="50.4112" lon="3.30653">
        <ele>16.237853</ele>
        <time>2020-05-31T18:55:29.414Z</time>
      </trkpt>
      <trkpt lat="50.41139" lon="3.30513">
        <ele>16.231741</ele>
        <time>2020-05-31T18:55:42.732Z</time>
      </trkpt>
      <trkpt lat="50.4114" lon="3.30504">
        <ele>16.231358</ele>
        <time>2020-05-31T18:55:43.608Z</time>
      </trkpt>
      <trkpt lat="50.41166" lon="3.30274">
        <ele>16.339498</ele>
        <time>2020-05-31T18:56:06.088Z</time>
      </trkpt>
      <trkpt lat="50.41199" lon="3.29975">
        <ele>16.566059</ele>
        <time>2020-05-31T18:56:36.269Z</time>
      </trkpt>
      <trkpt lat="50.41203" lon="3.29936">
        <ele>16.59776</ele>
        <time>2020-05-31T18:56:40.201Z</time>
      </trkpt>
      <trkpt lat="50.4122" lon="3.29762">
        <ele>16.657283</ele>
        <time>2020-05-31T18:56:56.493Z</time>
      </trkpt>
      <trkpt lat="50.41225" lon="3.2974">
        <ele>16.66162</ele>
        <time>2020-05-31T18:56:58.658Z</time>
      </trkpt>
      <trkpt lat="50.41233" lon="3.29729">
        <ele>16.664883</ele>
        <time>2020-05-31T18:57:00.281Z</time>
      </trkpt>
      <trkpt lat="50.41236" lon="3.29727">
        <ele>16.665811</ele>
        <time>2020-05-31T18:57:00.911Z</time>
      </trkpt>
      <trkpt lat="50.41241" lon="3.29753">
        <ele>16.670987</ele>
        <time>2020-05-31T18:57:03.416Z</time>
      </trkpt>
      <trkpt lat="50.41249" lon="3.29779">
        <ele>16.676445</ele>
        <time>2020-05-31T18:57:06.350Z</time>
      </trkpt>
      <trkpt lat="50.41266" lon="3.29804">
        <ele>16.683502</ele>
        <time>2020-05-31T18:57:09.933Z</time>
      </trkpt>
      <trkpt lat="50.41278" lon="3.29811">
        <ele>16.697384</ele>
        <time>2020-05-31T18:57:11.926Z</time>
      </trkpt>
      <trkpt lat="50.41289" lon="3.29815">
        <ele>16.721503</ele>
        <time>2020-05-31T18:57:13.709Z</time>
      </trkpt>
      <trkpt lat="50.41303" lon="3.29814">
        <ele>16.749603</ele>
        <time>2020-05-31T18:57:15.920Z</time>
      </trkpt>
      <trkpt lat="50.41317" lon="3.29809">
        <ele>16.778504</ele>
        <time>2020-05-31T18:57:18.276Z</time>
      </trkpt>
      <trkpt lat="50.41387" lon="3.29769">
        <ele>16.926774</ele>
        <time>2020-05-31T18:57:29.747Z</time>
      </trkpt>
      <trkpt lat="50.41456" lon="3.29726">
        <ele>17.032271</ele>
        <time>2020-05-31T18:57:41.607Z</time>
      </trkpt>
      <trkpt lat="50.41489" lon="3.29709">
        <ele>16.999018</ele>
        <time>2020-05-31T18:57:47.068Z</time>
      </trkpt>
      <trkpt lat="50.41599" lon="3.29648">
        <ele>16.888656</ele>
        <time>2020-05-31T18:58:03.560Z</time>
      </trkpt>
      <trkpt lat="50.41603" lon="3.29645">
        <ele>16.884228</ele>
        <time>2020-05-31T18:58:04.142Z</time>
      </trkpt>
      <trkpt lat="50.41635" lon="3.29629">
        <ele>16.817851</ele>
        <time>2020-05-31T18:58:08.657Z</time>
      </trkpt>
      <trkpt lat="50.41648" lon="3.29627">
        <ele>16.787398</ele>
        <time>2020-05-31T18:58:10.364Z</time>
      </trkpt>
      <trkpt lat="50.41652" lon="3.29626">
        <ele>16.776682</ele>
        <time>2020-05-31T18:58:10.983Z</time>
      </trkpt>
      <trkpt lat="50.41665" lon="3.29629">
        <ele>16.745821</ele>
        <time>2020-05-31T18:58:12.801Z</time>
      </trkpt>
      <trkpt lat="50.41675" lon="3.29635">
        <ele>16.720286</ele>
        <time>2020-05-31T18:58:14.215Z</time>
      </trkpt>
      <trkpt lat="50.41688" lon="3.2965">
        <ele>16.682316</ele>
        <time>2020-05-31T18:58:16.459Z</time>
      </trkpt>
      <trkpt lat="50.41726" lon="3.29721">
        <ele>16.541157</ele>
        <time>2020-05-31T18:58:24.795Z</time>
      </trkpt>
      <trkpt lat="50.41737" lon="3.29741">
        <ele>16.50276</ele>
        <time>2020-05-31T18:58:27.121Z</time>
      </trkpt>
      <trkpt lat="50.41754" lon="3.29772">
        <ele>16.451818</ele>
        <time>2020-05-31T18:58:30.944Z</time>
      </trkpt>
      <trkpt lat="50.41862" lon="3.29968">
        <ele>16.556268</ele>
        <time>2020-05-31T18:58:56.359Z</time>
      </trkpt>
      <trkpt lat="50.42094" lon="3.30386">
        <ele>16.416399</ele>
        <time>2020-05-31T18:59:47.909Z</time>
      </trkpt>
      <trkpt lat="50.42207" lon="3.3058">
        <ele>16.454296</ele>
        <time>2020-05-31T19:00:12.679Z</time>
      </trkpt>
      <trkpt lat="50.42213" lon="3.30588">
        <ele>16.45668</ele>
        <time>2020-05-31T19:00:13.855Z</time>
      </trkpt>
      <trkpt lat="50.42325" lon="3.30779">
        <ele>16.772689</ele>
        <time>2020-05-31T19:00:39.667Z</time>
      </trkpt>
      <trkpt lat="50.42342" lon="3.30807">
        <ele>16.825964</ele>
        <time>2020-05-31T19:00:43.662Z</time>
      </trkpt>
      <trkpt lat="50.42401" lon="3.309">
        <ele>17.081857</ele>
        <time>2020-05-31T19:00:57.621Z</time>
      </trkpt>
      <trkpt lat="50.42549" lon="3.30986">
        <ele>17.419</ele>
        <time>2020-05-31T19:01:22.678Z</time>
      </trkpt>
      <trkpt lat="50.42563" lon="3.30995">
        <ele>17.417023</ele>
        <time>2020-05-31T19:01:25.000Z</time>
      </trkpt>
      <trkpt lat="50.42669" lon="3.31056">
        <ele>17.40245</ele>
        <time>2020-05-31T19:01:41.078Z</time>
      </trkpt>
      <trkpt lat="50.42844" lon="3.31201">
        <ele>17.221013</ele>
        <time>2020-05-31T19:02:09.357Z</time>
      </trkpt>
      <trkpt lat="50.42908" lon="3.31272">
        <ele>17.392192</ele>
        <time>2020-05-31T19:02:21.920Z</time>
      </trkpt>
      <trkpt lat="50.43009" lon="3.31382">
        <ele>17.605468</ele>
        <time>2020-05-31T19:02:41.734Z</time>
      </trkpt>
      <trkpt lat="50.43019" lon="3.31394">
        <ele>17.614502</ele>
        <time>2020-05-31T19:02:43.839Z</time>
      </trkpt>
      <trkpt lat="50.4304" lon="3.31417">
        <ele>17.631761</ele>
        <time>2020-05-31T19:02:47.750Z</time>
      </trkpt>
      <trkpt lat="50.43047" lon="3.3143">
        <ele>17.639015</ele>
        <time>2020-05-31T19:02:49.346Z</time>
      </trkpt>
      <trkpt lat="50.43072" lon="3.31536">
        <ele>17.687831</ele>
        <time>2020-05-31T19:02:59.953Z</time>
      </trkpt>
      <trkpt lat="50.43105" lon="3.31754">
        <ele>17.437886</ele>
        <time>2020-05-31T19:03:19.828Z</time>
      </trkpt>
      <trkpt lat="50.43112" lon="3.318">
        <ele>17.37107</ele>
        <time>2020-05-31T19:03:24.164Z</time>
      </trkpt>
      <trkpt lat="50.43121" lon="3.31861">
        <ele>17.314382</ele>
        <time>2020-05-31T19:03:29.857Z</time>
      </trkpt>
      <trkpt lat="50.43135" lon="3.31962">
        <ele>17.349306</ele>
        <time>2020-05-31T19:03:39.548Z</time>
      </trkpt>
      <trkpt lat="50.43164" lon="3.32276">
        <ele>17.662383</ele>
        <time>2020-05-31T19:04:10.879Z</time>
      </trkpt>
      <trkpt lat="50.43165" lon="3.3239">
        <ele>17.852447</ele>
        <time>2020-05-31T19:04:22.602Z</time>
      </trkpt>
      <trkpt lat="50.43163" lon="3.32421">
        <ele>17.904105</ele>
        <time>2020-05-31T19:04:25.904Z</time>
      </trkpt>
      <trkpt lat="50.43158" lon="3.32524">
        <ele>18.073167</ele>
        <time>2020-05-31T19:04:36.761Z</time>
      </trkpt>
      <trkpt lat="50.43161" lon="3.32539">
        <ele>18.100842</ele>
        <time>2020-05-31T19:04:38.668Z</time>
      </trkpt>
      <trkpt lat="50.43147" lon="3.32542">
        <ele>18.137215</ele>
        <time>2020-05-31T19:04:40.692Z</time>
      </trkpt>
      <trkpt lat="50.43115" lon="3.32539">
        <ele>18.220553</ele>
        <time>2020-05-31T19:04:45.812Z</time>
      </trkpt>
      <trkpt lat="50.43147" lon="3.32542">
        <ele>18.303892</ele>
        <time>2020-05-31T19:04:50.828Z</time>
      </trkpt>
      <trkpt lat="50.43161" lon="3.32539">
        <ele>18.339236</ele>
        <time>2020-05-31T19:04:53.027Z</time>
      </trkpt>
      <trkpt lat="50.4317" lon="3.32562">
        <ele>18.363743</ele>
        <time>2020-05-31T19:04:55.612Z</time>
      </trkpt>
      <trkpt lat="50.43188" lon="3.32615">
        <ele>18.420179</ele>
        <time>2020-05-31T19:05:01.073Z</time>
      </trkpt>
      <trkpt lat="50.43193" lon="3.32629">
        <ele>18.435569</ele>
        <time>2020-05-31T19:05:02.374Z</time>
      </trkpt>
      <trkpt lat="50.43258" lon="3.32817">
        <ele>18.765667</ele>
        <time>2020-05-31T19:05:24.073Z</time>
      </trkpt>
      <trkpt lat="50.43265" lon="3.32836">
        <ele>18.866848</ele>
        <time>2020-05-31T19:05:26.145Z</time>
      </trkpt>
      <trkpt lat="50.43293" lon="3.32826">
        <ele>19.074741</ele>
        <time>2020-05-31T19:05:31.256Z</time>
      </trkpt>
      <trkpt lat="50.43391" lon="3.3279">
        <ele>19.804591</ele>
        <time>2020-05-31T19:05:49.900Z</time>
      </trkpt>
      <trkpt lat="50.43415" lon="3.32808">
        <ele>19.970438</ele>
        <time>2020-05-31T19:05:54.780Z</time>
      </trkpt>
      <trkpt lat="50.43446" lon="3.32852">
        <ele>20.193728</ele>
        <time>2020-05-31T19:06:02.498Z</time>
      </trkpt>
      <trkpt lat="50.4347" lon="3.32889">
        <ele>20.378495</ele>
        <time>2020-05-31T19:06:08.413Z</time>
      </trkpt>
      <trkpt lat="50.43495" lon="3.32947">
        <ele>20.615676</ele>
        <time>2020-05-31T19:06:15.716Z</time>
      </trkpt>
      <trkpt lat="50.43502" lon="3.32955">
        <ele>20.66215</ele>
        <time>2020-05-31T19:06:17.167Z</time>
      </trkpt>
      <trkpt lat="50.4353" lon="3.32944">
        <ele>20.813475</ele>
        <time>2020-05-31T19:06:21.599Z</time>
      </trkpt>
      <trkpt lat="50.43556" lon="3.32992">
        <ele>20.810888</ele>
        <time>2020-05-31T19:06:27.810Z</time>
      </trkpt>
      <trkpt lat="50.43597" lon="3.33065">
        <ele>20.688197</ele>
        <time>2020-05-31T19:06:36.752Z</time>
      </trkpt>
      <trkpt lat="50.43613" lon="3.33091">
        <ele>20.643623</ele>
        <time>2020-05-31T19:06:39.877Z</time>
      </trkpt>
      <trkpt lat="50.43633" lon="3.33115">
        <ele>20.59491</ele>
        <time>2020-05-31T19:06:43.191Z</time>
      </trkpt>
      <trkpt lat="50.43694" lon="3.33182">
        <ele>20.365001</ele>
        <time>2020-05-31T19:06:53.214Z</time>
      </trkpt>
      <trkpt lat="50.43695" lon="3.33183">
        <ele>20.359095</ele>
        <time>2020-05-31T19:06:53.360Z</time>
      </trkpt>
      <trkpt lat="50.43743" lon="3.33242">
        <ele>20.090797</ele>
        <time>2020-05-31T19:07:01.725Z</time>
      </trkpt>
      <trkpt lat="50.43745" lon="3.33245">
        <ele>20.077086</ele>
        <time>2020-05-31T19:07:02.088Z</time>
      </trkpt>
      <trkpt lat="50.43753" lon="3.33258">
        <ele>20.026514</ele>
        <time>2020-05-31T19:07:03.566Z</time>
      </trkpt>
      <trkpt lat="50.43799" lon="3.3336">
        <ele>19.709617</ele>
        <time>2020-05-31T19:07:14.180Z</time>
      </trkpt>
      <trkpt lat="50.43847" lon="3.33462">
        <ele>19.609564</ele>
        <time>2020-05-31T19:07:25.634Z</time>
      </trkpt>
      <trkpt lat="50.43886" lon="3.3354">
        <ele>19.531101</ele>
        <time>2020-05-31T19:07:35.177Z</time>
      </trkpt>
      <trkpt lat="50.43915" lon="3.33601">
        <ele>19.461871</ele>
        <time>2020-05-31T19:07:42.322Z</time>
      </trkpt>
      <trkpt lat="50.43946" lon="3.33669">
        <ele>19.374915</ele>
        <time>2020-05-31T19:07:50.204Z</time>
      </trkpt>
      <trkpt lat="50.4397" lon="3.33664">
        <ele>19.336339</ele>
        <time>2020-05-31T19:07:53.596Z</time>
      </trkpt>
      <trkpt lat="50.44158" lon="3.33624">
        <ele>18.695041</ele>
        <time>2020-05-31T19:08:19.661Z</time>
      </trkpt>
      <trkpt lat="50.44229" lon="3.33623">
        <ele>18.371261</ele>
        <time>2020-05-31T19:08:28.740Z</time>
      </trkpt>
      <trkpt lat="50.44239" lon="3.33619">
        <ele>18.323482</ele>
        <time>2020-05-31T19:08:30.093Z</time>
      </trkpt>
      <trkpt lat="50.44251" lon="3.3361">
        <ele>18.260167</ele>
        <time>2020-05-31T19:08:31.785Z</time>
      </trkpt>
      <trkpt lat="50.44271" lon="3.33588">
        <ele>18.148456</ele>
        <time>2020-05-31T19:08:34.996Z</time>
      </trkpt>
      <trkpt lat="50.44283" lon="3.33559">
        <ele>18.046926</ele>
        <time>2020-05-31T19:08:37.842Z</time>
      </trkpt>
      <trkpt lat="50.44292" lon="3.33516">
        <ele>17.910465</ele>
        <time>2020-05-31T19:08:41.656Z</time>
      </trkpt>
      <trkpt lat="50.44327" lon="3.3336">
        <ele>17.531793</ele>
        <time>2020-05-31T19:08:56.042Z</time>
      </trkpt>
      <trkpt lat="50.44359" lon="3.33252">
        <ele>17.503884</ele>
        <time>2020-05-31T19:09:07.357Z</time>
      </trkpt>
      <trkpt lat="50.44365" lon="3.33241">
        <ele>17.500487</ele>
        <time>2020-05-31T19:09:08.872Z</time>
      </trkpt>
      <trkpt lat="50.44374" lon="3.33232">
        <ele>17.496437</ele>
        <time>2020-05-31T19:09:10.532Z</time>
      </trkpt>
      <trkpt lat="50.44445" lon="3.33196">
        <ele>17.485822</ele>
        <time>2020-05-31T19:09:21.759Z</time>
      </trkpt>
      <trkpt lat="50.44452" lon="3.33192">
        <ele>17.491435</ele>
        <time>2020-05-31T19:09:22.983Z</time>
      </trkpt>
      <trkpt lat="50.44542" lon="3.33162">
        <ele>17.55379</ele>
        <time>2020-05-31T19:09:36.792Z</time>
      </trkpt>
      <trkpt lat="50.44553" lon="3.33159">
        <ele>17.561744</ele>
        <time>2020-05-31T19:09:38.575Z</time>
      </trkpt>
      <trkpt lat="50.44578" lon="3.33149">
        <ele>17.579461</ele>
        <time>2020-05-31T19:09:42.347Z</time>
      </trkpt>
      <trkpt lat="50.44584" lon="3.33147">
        <ele>17.583543</ele>
        <time>2020-05-31T19:09:43.246Z</time>
      </trkpt>
      <trkpt lat="50.44595" lon="3.33142">
        <ele>17.591221</ele>
        <time>2020-05-31T19:09:44.981Z</time>
      </trkpt>
      <trkpt lat="50.44593" lon="3.33132">
        <ele>17.595723</ele>
        <time>2020-05-31T19:09:45.888Z</time>
      </trkpt>
      <trkpt lat="50.44575" lon="3.33008">
        <ele>17.644181</ele>
        <time>2020-05-31T19:09:58.132Z</time>
      </trkpt>
      <trkpt lat="50.44575" lon="3.33002">
        <ele>17.646409</ele>
        <time>2020-05-31T19:09:58.642Z</time>
      </trkpt>
      <trkpt lat="50.44575" lon="3.32997">
        <ele>17.648313</ele>
        <time>2020-05-31T19:09:59.133Z</time>
      </trkpt>
      <trkpt lat="50.44578" lon="3.32993">
        <ele>17.650382</ele>
        <time>2020-05-31T19:09:59.784Z</time>
      </trkpt>
      <trkpt lat="50.4474" lon="3.32889">
        <ele>17.695862</ele>
        <time>2020-05-31T19:10:26.602Z</time>
      </trkpt>
      <trkpt lat="50.44745" lon="3.32869">
        <ele>17.694426</ele>
        <time>2020-05-31T19:10:28.593Z</time>
      </trkpt>
      <trkpt lat="50.44732" lon="3.3279">
        <ele>17.68912</ele>
        <time>2020-05-31T19:10:36.092Z</time>
      </trkpt>
      <trkpt lat="50.44733" lon="3.32771">
        <ele>17.687894</ele>
        <time>2020-05-31T19:10:37.843Z</time>
      </trkpt>
      <trkpt lat="50.44735" lon="3.32765">
        <ele>17.687477</ele>
        <time>2020-05-31T19:10:38.545Z</time>
      </trkpt>
      <trkpt lat="50.44736" lon="3.3276">
        <ele>17.687077</ele>
        <time>2020-05-31T19:10:38.989Z</time>
      </trkpt>
      <trkpt lat="50.44767" lon="3.32723">
        <ele>17.68063</ele>
        <time>2020-05-31T19:10:44.417Z</time>
      </trkpt>
      <trkpt lat="50.44851" lon="3.32672">
        <ele>17.663184</ele>
        <time>2020-05-31T19:10:57.179Z</time>
      </trkpt>
      <trkpt lat="50.44964" lon="3.32565">
        <ele>17.918643</ele>
        <time>2020-05-31T19:11:18.090Z</time>
      </trkpt>
      <trkpt lat="50.45028" lon="3.32516">
        <ele>18.18871</ele>
        <time>2020-05-31T19:11:30.264Z</time>
      </trkpt>
      <trkpt lat="50.45036" lon="3.32514">
        <ele>18.21838</ele>
        <time>2020-05-31T19:11:31.897Z</time>
      </trkpt>
      <trkpt lat="50.45041" lon="3.32515">
        <ele>18.236705</ele>
        <time>2020-05-31T19:11:32.789Z</time>
      </trkpt>
      <trkpt lat="50.45085" lon="3.32574">
        <ele>18.386799</ele>
        <time>2020-05-31T19:11:41.792Z</time>
      </trkpt>
      <trkpt lat="50.4509" lon="3.32582">
        <ele>18.398053</ele>
        <time>2020-05-31T19:11:43.227Z</time>
      </trkpt>
      <trkpt lat="50.4513" lon="3.32393">
        <ele>18.603459</ele>
        <time>2020-05-31T19:12:02.612Z</time>
      </trkpt>
      <trkpt lat="50.45143" lon="3.32333">
        <ele>18.614957</ele>
        <time>2020-05-31T19:12:08.228Z</time>
      </trkpt>
      <trkpt lat="50.45257" lon="3.31794">
        <ele>18.576952</ele>
        <time>2020-05-31T19:13:01.710Z</time>
      </trkpt>
      <trkpt lat="50.45276" lon="3.31801">
        <ele>18.612104</ele>
        <time>2020-05-31T19:13:04.654Z</time>
      </trkpt>
      <trkpt lat="50.45491" lon="3.31895">
        <ele>19.04209</ele>
        <time>2020-05-31T19:13:40.274Z</time>
      </trkpt>
      <trkpt lat="50.45541" lon="3.31916">
        <ele>19.147098</ele>
        <time>2020-05-31T19:13:48.163Z</time>
      </trkpt>
      <trkpt lat="50.45653" lon="3.31961">
        <ele>19.196674</ele>
        <time>2020-05-31T19:14:05.835Z</time>
      </trkpt>
      <trkpt lat="50.45666" lon="3.31961">
        <ele>19.192392</ele>
        <time>2020-05-31T19:14:07.536Z</time>
      </trkpt>
      <trkpt lat="50.45675" lon="3.31939">
        <ele>19.186625</ele>
        <time>2020-05-31T19:14:10.290Z</time>
      </trkpt>
      <trkpt lat="50.45693" lon="3.31872">
        <ele>19.171183</ele>
        <time>2020-05-31T19:14:16.661Z</time>
      </trkpt>
      <trkpt lat="50.45709" lon="3.31841">
        <ele>19.162145</ele>
        <time>2020-05-31T19:14:20.389Z</time>
      </trkpt>
      <trkpt lat="50.45712" lon="3.31836">
        <ele>19.159228</ele>
        <time>2020-05-31T19:14:20.950Z</time>
      </trkpt>
      <trkpt lat="50.45743" lon="3.31802">
        <ele>19.130975</ele>
        <time>2020-05-31T19:14:26.473Z</time>
      </trkpt>
      <trkpt lat="50.45879" lon="3.31693">
        <ele>19.040908</ele>
        <time>2020-05-31T19:14:48.775Z</time>
      </trkpt>
      <trkpt lat="50.46025" lon="3.31599">
        <ele>19.148285</ele>
        <time>2020-05-31T19:15:12.542Z</time>
      </trkpt>
      <trkpt lat="50.46056" lon="3.31567">
        <ele>19.274627</ele>
        <time>2020-05-31T19:15:18.326Z</time>
      </trkpt>
      <trkpt lat="50.46093" lon="3.31519">
        <ele>19.466906</ele>
        <time>2020-05-31T19:15:26.083Z</time>
      </trkpt>
      <trkpt lat="50.46217" lon="3.31361">
        <ele>20.227992</ele>
        <time>2020-05-31T19:15:53.111Z</time>
      </trkpt>
      <trkpt lat="50.46339" lon="3.31195">
        <ele>21.209741</ele>
        <time>2020-05-31T19:16:21.329Z</time>
      </trkpt>
      <trkpt lat="50.46361" lon="3.3118">
        <ele>21.358734</ele>
        <time>2020-05-31T19:16:25.617Z</time>
      </trkpt>
      <trkpt lat="50.46429" lon="3.31176">
        <ele>21.776493</ele>
        <time>2020-05-31T19:16:37.546Z</time>
      </trkpt>
      <trkpt lat="50.46494" lon="3.31139">
        <ele>22.125078</ele>
        <time>2020-05-31T19:16:48.936Z</time>
      </trkpt>
      <trkpt lat="50.46525" lon="3.31116">
        <ele>22.215424</ele>
        <time>2020-05-31T19:16:54.477Z</time>
      </trkpt>
      <trkpt lat="50.46582" lon="3.31069">
        <ele>22.383536</ele>
        <time>2020-05-31T19:17:04.547Z</time>
      </trkpt>
      <trkpt lat="50.46622" lon="3.31021">
        <ele>22.517238</ele>
        <time>2020-05-31T19:17:12.564Z</time>
      </trkpt>
      <trkpt lat="50.46657" lon="3.30991">
        <ele>22.678629</ele>
        <time>2020-05-31T19:17:18.806Z</time>
      </trkpt>
      <trkpt lat="50.46676" lon="3.30955">
        <ele>22.813123</ele>
        <time>2020-05-31T19:17:23.448Z</time>
      </trkpt>
      <trkpt lat="50.46678" lon="3.30952">
        <ele>22.823614</ele>
        <time>2020-05-31T19:17:23.828Z</time>
      </trkpt>
      <trkpt lat="50.46701" lon="3.30924">
        <ele>22.955013</ele>
        <time>2020-05-31T19:17:28.533Z</time>
      </trkpt>
      <trkpt lat="50.46778" lon="3.30867">
        <ele>23.339881</ele>
        <time>2020-05-31T19:17:43.452Z</time>
      </trkpt>
      <trkpt lat="50.46827" lon="3.30792">
        <ele>23.790297</ele>
        <time>2020-05-31T19:17:55.476Z</time>
      </trkpt>
      <trkpt lat="50.46851" lon="3.30747">
        <ele>24.040494</ele>
        <time>2020-05-31T19:18:02.100Z</time>
      </trkpt>
      <trkpt lat="50.46888" lon="3.3068">
        <ele>24.417716</ele>
        <time>2020-05-31T19:18:11.948Z</time>
      </trkpt>
      <trkpt lat="50.46907" lon="3.30648">
        <ele>24.609685</ele>
        <time>2020-05-31T19:18:16.769Z</time>
      </trkpt>
      <trkpt lat="50.47009" lon="3.3053">
        <ele>25.56799</ele>
        <time>2020-05-31T19:18:38.674Z</time>
      </trkpt>
      <trkpt lat="50.47075" lon="3.30465">
        <ele>26.364876</ele>
        <time>2020-05-31T19:18:53.363Z</time>
      </trkpt>
      <trkpt lat="50.47094" lon="3.30438">
        <ele>26.730606</ele>
        <time>2020-05-31T19:18:58.380Z</time>
      </trkpt>
      <trkpt lat="50.47119" lon="3.30401">
        <ele>27.229855</ele>
        <time>2020-05-31T19:19:05.531Z</time>
      </trkpt>
      <trkpt lat="50.47146" lon="3.3036">
        <ele>27.755491</ele>
        <time>2020-05-31T19:19:13.164Z</time>
      </trkpt>
      <trkpt lat="50.47169" lon="3.30343">
        <ele>28.124078</ele>
        <time>2020-05-31T19:19:18.518Z</time>
      </trkpt>
      <trkpt lat="50.4718" lon="3.30343">
        <ele>28.277499</ele>
        <time>2020-05-31T19:19:20.881Z</time>
      </trkpt>
      <trkpt lat="50.47189" lon="3.30348">
        <ele>28.411759</ele>
        <time>2020-05-31T19:19:23.577Z</time>
      </trkpt>
      <trkpt lat="50.47216" lon="3.30376">
        <ele>29.005587</ele>
        <time>2020-05-31T19:19:30.792Z</time>
      </trkpt>
      <trkpt lat="50.47227" lon="3.30378">
        <ele>29.222237</ele>
        <time>2020-05-31T19:19:33.319Z</time>
      </trkpt>
      <trkpt lat="50.47251" lon="3.3036">
        <ele>29.738615</ele>
        <time>2020-05-31T19:19:39.374Z</time>
      </trkpt>
      <trkpt lat="50.473" lon="3.30295">
        <ele>30.984097</ele>
        <time>2020-05-31T19:19:53.570Z</time>
      </trkpt>
      <trkpt lat="50.47302" lon="3.30293">
        <ele>31.03604</ele>
        <time>2020-05-31T19:19:54.607Z</time>
      </trkpt>
      <trkpt lat="50.4731" lon="3.30279">
        <ele>31.255338</ele>
        <time>2020-05-31T19:19:57.566Z</time>
      </trkpt>
      <trkpt lat="50.47353" lon="3.30171">
        <ele>32.63177</ele>
        <time>2020-05-31T19:20:15.303Z</time>
      </trkpt>
      <trkpt lat="50.47374" lon="3.3013">
        <ele>33.145221</ele>
        <time>2020-05-31T19:20:22.886Z</time>
      </trkpt>
      <trkpt lat="50.47379" lon="3.30124">
        <ele>33.233568</ele>
        <time>2020-05-31T19:20:24.029Z</time>
      </trkpt>
      <trkpt lat="50.47387" lon="3.30113">
        <ele>33.401361</ele>
        <time>2020-05-31T19:20:26.629Z</time>
      </trkpt>
      <trkpt lat="50.47394" lon="3.30101">
        <ele>33.552317</ele>
        <time>2020-05-31T19:20:28.953Z</time>
      </trkpt>
      <trkpt lat="50.47405" lon="3.30077">
        <ele>33.839364</ele>
        <time>2020-05-31T19:20:32.502Z</time>
      </trkpt>
      <trkpt lat="50.47416" lon="3.30052">
        <ele>34.122896</ele>
        <time>2020-05-31T19:20:36.233Z</time>
      </trkpt>
      <trkpt lat="50.47443" lon="3.29979">
        <ele>34.770927</ele>
        <time>2020-05-31T19:20:46.272Z</time>
      </trkpt>
      <trkpt lat="50.47463" lon="3.29924">
        <ele>35.022248</ele>
        <time>2020-05-31T19:20:53.715Z</time>
      </trkpt>
      <trkpt lat="50.47479" lon="3.29879">
        <ele>35.222552</ele>
        <time>2020-05-31T19:20:59.234Z</time>
      </trkpt>
      <trkpt lat="50.47492" lon="3.29848">
        <ele>35.367804</ele>
        <time>2020-05-31T19:21:03.184Z</time>
      </trkpt>
      <trkpt lat="50.47513" lon="3.29795">
        <ele>35.616193</ele>
        <time>2020-05-31T19:21:09.709Z</time>
      </trkpt>
      <trkpt lat="50.47567" lon="3.2974">
        <ele>35.965669</ele>
        <time>2020-05-31T19:21:20.347Z</time>
      </trkpt>
      <trkpt lat="50.47616" lon="3.29686">
        <ele>36.260417</ele>
        <time>2020-05-31T19:21:30.358Z</time>
      </trkpt>
      <trkpt lat="50.47621" lon="3.29676">
        <ele>36.301959</ele>
        <time>2020-05-31T19:21:31.754Z</time>
      </trkpt>
      <trkpt lat="50.47622" lon="3.29665">
        <ele>36.335217</ele>
        <time>2020-05-31T19:21:32.847Z</time>
      </trkpt>
      <trkpt lat="50.47622" lon="3.29659">
        <ele>36.354461</ele>
        <time>2020-05-31T19:21:33.486Z</time>
      </trkpt>
      <trkpt lat="50.4763" lon="3.29657">
        <ele>36.397558</ele>
        <time>2020-05-31T19:21:35.082Z</time>
      </trkpt>
      <trkpt lat="50.47726" lon="3.29548">
        <ele>36.897046</ele>
        <time>2020-05-31T19:21:54.995Z</time>
      </trkpt>
      <trkpt lat="50.47749" lon="3.29535">
        <ele>36.987456</ele>
        <time>2020-05-31T19:21:59.045Z</time>
      </trkpt>
      <trkpt lat="50.47758" lon="3.29535">
        <ele>37.020135</ele>
        <time>2020-05-31T19:22:00.655Z</time>
      </trkpt>
      <trkpt lat="50.47792" lon="3.29551">
        <ele>37.147061</ele>
        <time>2020-05-31T19:22:06.249Z</time>
      </trkpt>
      <trkpt lat="50.47818" lon="3.29554">
        <ele>37.241011</ele>
        <time>2020-05-31T19:22:10.258Z</time>
      </trkpt>
      <trkpt lat="50.47853" lon="3.29546">
        <ele>37.347851</ele>
        <time>2020-05-31T19:22:15.895Z</time>
      </trkpt>
      <trkpt lat="50.47853" lon="3.29546">
        <ele>37.347851</ele>
        <time>2020-05-31T19:22:15.925Z</time>
      </trkpt>
      <trkpt lat="50.47866" lon="3.29548">
        <ele>37.374565</ele>
        <time>2020-05-31T19:22:18.061Z</time>
      </trkpt>
      <trkpt lat="50.47883" lon="3.29558">
        <ele>37.412098</ele>
        <time>2020-05-31T19:22:20.741Z</time>
      </trkpt>
      <trkpt lat="50.48017" lon="3.2969">
        <ele>37.755135</ele>
        <time>2020-05-31T19:22:45.527Z</time>
      </trkpt>
      <trkpt lat="50.48051" lon="3.29697">
        <ele>37.842706</ele>
        <time>2020-05-31T19:22:51.102Z</time>
      </trkpt>
      <trkpt lat="50.48116" lon="3.29691">
        <ele>38.00922</ele>
        <time>2020-05-31T19:23:01.587Z</time>
      </trkpt>
      <trkpt lat="50.4819" lon="3.29685">
        <ele>38.127979</ele>
        <time>2020-05-31T19:23:13.022Z</time>
      </trkpt>
      <trkpt lat="50.48267" lon="3.29684">
        <ele>38.029093</ele>
        <time>2020-05-31T19:23:24.622Z</time>
      </trkpt>
      <trkpt lat="50.4842" lon="3.29653">
        <ele>37.584079</ele>
        <time>2020-05-31T19:23:45.694Z</time>
      </trkpt>
      <trkpt lat="50.48571" lon="3.29651">
        <ele>36.863375</ele>
        <time>2020-05-31T19:24:05.374Z</time>
      </trkpt>
      <trkpt lat="50.48661" lon="3.2967">
        <ele>36.455779</ele>
        <time>2020-05-31T19:24:17.375Z</time>
      </trkpt>
      <trkpt lat="50.4868" lon="3.29666">
        <ele>36.373039</ele>
        <time>2020-05-31T19:24:19.929Z</time>
      </trkpt>
      <trkpt lat="50.48694" lon="3.29658">
        <ele>36.305221</ele>
        <time>2020-05-31T19:24:22.013Z</time>
      </trkpt>
      <trkpt lat="50.48758" lon="3.29606">
        <ele>36.405522</ele>
        <time>2020-05-31T19:24:32.467Z</time>
      </trkpt>
      <trkpt lat="50.48769" lon="3.29594">
        <ele>36.445494</ele>
        <time>2020-05-31T19:24:34.646Z</time>
      </trkpt>
      <trkpt lat="50.48788" lon="3.29569">
        <ele>36.515701</ele>
        <time>2020-05-31T19:24:38.363Z</time>
      </trkpt>
      <trkpt lat="50.48811" lon="3.29515">
        <ele>36.634841</ele>
        <time>2020-05-31T19:24:45.267Z</time>
      </trkpt>
      <trkpt lat="50.48842" lon="3.29385">
        <ele>37.155846</ele>
        <time>2020-05-31T19:25:01.151Z</time>
      </trkpt>
      <trkpt lat="50.48861" lon="3.29332">
        <ele>37.49071</ele>
        <time>2020-05-31T19:25:08.245Z</time>
      </trkpt>
      <trkpt lat="50.48873" lon="3.29314">
        <ele>37.630714</ele>
        <time>2020-05-31T19:25:11.359Z</time>
      </trkpt>
      <trkpt lat="50.48883" lon="3.29343">
        <ele>37.815643</ele>
        <time>2020-05-31T19:25:16.368Z</time>
      </trkpt>
      <trkpt lat="50.48904" lon="3.29372">
        <ele>38.056865</ele>
        <time>2020-05-31T19:25:23.104Z</time>
      </trkpt>
      <trkpt lat="50.48968" lon="3.29393">
        <ele>38.440706</ele>
        <time>2020-05-31T19:25:38.755Z</time>
      </trkpt>
      <trkpt lat="50.49011" lon="3.29437">
        <ele>38.616116</ele>
        <time>2020-05-31T19:25:50.050Z</time>
      </trkpt>
      <trkpt lat="50.49038" lon="3.29453">
        <ele>38.713626</ele>
        <time>2020-05-31T19:25:56.126Z</time>
      </trkpt>
      <trkpt lat="50.49055" lon="3.29452">
        <ele>38.769087</ele>
        <time>2020-05-31T19:25:59.628Z</time>
      </trkpt>
      <trkpt lat="50.49084" lon="3.29472">
        <ele>38.87772</ele>
        <time>2020-05-31T19:26:05.971Z</time>
      </trkpt>
      <trkpt lat="50.4911" lon="3.29502">
        <ele>38.894153</ele>
        <time>2020-05-31T19:26:12.396Z</time>
      </trkpt>
      <trkpt lat="50.49114" lon="3.29517">
        <ele>38.869081</ele>
        <time>2020-05-31T19:26:14.692Z</time>
      </trkpt>
      <trkpt lat="50.49112" lon="3.2954">
        <ele>38.833168</ele>
        <time>2020-05-31T19:26:17.573Z</time>
      </trkpt>
      <trkpt lat="50.49112" lon="3.29555">
        <ele>38.80984</ele>
        <time>2020-05-31T19:26:19.311Z</time>
      </trkpt>
      <trkpt lat="50.49115" lon="3.2957">
        <ele>38.784742</ele>
        <time>2020-05-31T19:26:21.634Z</time>
      </trkpt>
      <trkpt lat="50.49147" lon="3.2962">
        <ele>38.674646</ele>
        <time>2020-05-31T19:26:30.342Z</time>
      </trkpt>
      <trkpt lat="50.49242" lon="3.29719">
        <ele>38.357324</ele>
        <time>2020-05-31T19:26:51.755Z</time>
      </trkpt>
      <trkpt lat="50.49236" lon="3.29831">
        <ele>38.109409</ele>
        <time>2020-05-31T19:27:01.869Z</time>
      </trkpt>
      <trkpt lat="50.49229" lon="3.29999">
        <ele>37.683143</ele>
        <time>2020-05-31T19:27:16.189Z</time>
      </trkpt>
      <trkpt lat="50.49239" lon="3.30528">
        <ele>36.001036</ele>
        <time>2020-05-31T19:28:00.950Z</time>
      </trkpt>
      <trkpt lat="50.49222" lon="3.30686">
        <ele>35.482403</ele>
        <time>2020-05-31T19:28:14.462Z</time>
      </trkpt>
      <trkpt lat="50.49217" lon="3.30807">
        <ele>35.0763</ele>
        <time>2020-05-31T19:28:24.782Z</time>
      </trkpt>
      <trkpt lat="50.49158" lon="3.31377">
        <ele>32.804744</ele>
        <time>2020-05-31T19:29:12.629Z</time>
      </trkpt>
      <trkpt lat="50.49153" lon="3.31426">
        <ele>32.535284</ele>
        <time>2020-05-31T19:29:16.612Z</time>
      </trkpt>
      <trkpt lat="50.49148" lon="3.31443">
        <ele>32.439024</ele>
        <time>2020-05-31T19:29:18.046Z</time>
      </trkpt>
      <trkpt lat="50.49168" lon="3.3148">
        <ele>32.176388</ele>
        <time>2020-05-31T19:29:23.549Z</time>
      </trkpt>
      <trkpt lat="50.49232" lon="3.3159">
        <ele>31.420529</ele>
        <time>2020-05-31T19:29:39.971Z</time>
      </trkpt>
      <trkpt lat="50.49265" lon="3.31662">
        <ele>31.113904</ele>
        <time>2020-05-31T19:29:50.402Z</time>
      </trkpt>
      <trkpt lat="50.49283" lon="3.31666">
        <ele>31.018898</ele>
        <time>2020-05-31T19:29:53.657Z</time>
      </trkpt>
      <trkpt lat="50.49347" lon="3.31657">
        <ele>30.669399</ele>
        <time>2020-05-31T19:30:05.748Z</time>
      </trkpt>
      <trkpt lat="50.49365" lon="3.31659">
        <ele>30.571424</ele>
        <time>2020-05-31T19:30:09.171Z</time>
      </trkpt>
      <trkpt lat="50.49396" lon="3.31683">
        <ele>30.494946</ele>
        <time>2020-05-31T19:30:15.674Z</time>
      </trkpt>
      <trkpt lat="50.49426" lon="3.31674">
        <ele>30.472658</ele>
        <time>2020-05-31T19:30:21.544Z</time>
      </trkpt>
      <trkpt lat="50.49439" lon="3.31679">
        <ele>30.462392</ele>
        <time>2020-05-31T19:30:24.285Z</time>
      </trkpt>
      <trkpt lat="50.49666" lon="3.31947">
        <ele>30.491881</ele>
        <time>2020-05-31T19:31:22.360Z</time>
      </trkpt>
      <trkpt lat="50.49903" lon="3.32101">
        <ele>30.522237</ele>
        <time>2020-05-31T19:32:14.915Z</time>
      </trkpt>
      <trkpt lat="50.49989" lon="3.32223">
        <ele>30.439476</ele>
        <time>2020-05-31T19:32:37.541Z</time>
      </trkpt>
      <trkpt lat="50.50053" lon="3.32341">
        <ele>30.369195</ele>
        <time>2020-05-31T19:32:57.584Z</time>
      </trkpt>
      <trkpt lat="50.50125" lon="3.32455">
        <ele>30.237679</ele>
        <time>2020-05-31T19:33:18.016Z</time>
      </trkpt>
      <trkpt lat="50.50138" lon="3.3248">
        <ele>30.17407</ele>
        <time>2020-05-31T19:33:20.986Z</time>
      </trkpt>
      <trkpt lat="50.50288" lon="3.32649">
        <ele>29.396748</ele>
        <time>2020-05-31T19:33:45.884Z</time>
      </trkpt>
      <trkpt lat="50.50295" lon="3.32658">
        <ele>29.332481</ele>
        <time>2020-05-31T19:33:46.968Z</time>
      </trkpt>
      <trkpt lat="50.50295" lon="3.32664">
        <ele>29.30537</ele>
        <time>2020-05-31T19:33:47.441Z</time>
      </trkpt>
      <trkpt lat="50.50285" lon="3.32708">
        <ele>29.093219</ele>
        <time>2020-05-31T19:33:51.190Z</time>
      </trkpt>
      <trkpt lat="50.50299" lon="3.3287">
        <ele>28.325139</ele>
        <time>2020-05-31T19:34:04.240Z</time>
      </trkpt>
      <trkpt lat="50.50295" lon="3.32997">
        <ele>27.660876</ele>
        <time>2020-05-31T19:34:14.511Z</time>
      </trkpt>
      <trkpt lat="50.50317" lon="3.3309">
        <ele>27.142745</ele>
        <time>2020-05-31T19:34:22.420Z</time>
      </trkpt>
      <trkpt lat="50.50354" lon="3.33206">
        <ele>26.505141</ele>
        <time>2020-05-31T19:34:32.748Z</time>
      </trkpt>
      <trkpt lat="50.50379" lon="3.33276">
        <ele>26.112509</ele>
        <time>2020-05-31T19:34:39.253Z</time>
      </trkpt>
      <trkpt lat="50.50385" lon="3.33312">
        <ele>25.934277</ele>
        <time>2020-05-31T19:34:42.295Z</time>
      </trkpt>
      <trkpt lat="50.50389" lon="3.33334">
        <ele>25.821912</ele>
        <time>2020-05-31T19:34:44.206Z</time>
      </trkpt>
      <trkpt lat="50.50408" lon="3.3347">
        <ele>25.241479</ele>
        <time>2020-05-31T19:34:55.545Z</time>
      </trkpt>
      <trkpt lat="50.50388" lon="3.33498">
        <ele>25.080522</ele>
        <time>2020-05-31T19:35:00.452Z</time>
      </trkpt>
      <trkpt lat="50.5037" lon="3.33524">
        <ele>24.929904</ele>
        <time>2020-05-31T19:35:04.912Z</time>
      </trkpt>
      <trkpt lat="50.50334" lon="3.33575">
        <ele>24.630445</ele>
        <time>2020-05-31T19:35:14.008Z</time>
      </trkpt>
      <trkpt lat="50.50337" lon="3.33588">
        <ele>24.573446</ele>
        <time>2020-05-31T19:35:15.580Z</time>
      </trkpt>
      <trkpt lat="50.50375" lon="3.3381">
        <ele>23.868441</ele>
        <time>2020-05-31T19:35:42.653Z</time>
      </trkpt>
      <trkpt lat="50.50378" lon="3.33876">
        <ele>23.668574</ele>
        <time>2020-05-31T19:35:50.652Z</time>
      </trkpt>
      <trkpt lat="50.50374" lon="3.33926">
        <ele>23.565661</ele>
        <time>2020-05-31T19:35:56.770Z</time>
      </trkpt>
      <trkpt lat="50.50384" lon="3.3399">
        <ele>23.434236</ele>
        <time>2020-05-31T19:36:04.875Z</time>
      </trkpt>
      <trkpt lat="50.5038" lon="3.34013">
        <ele>23.386326</ele>
        <time>2020-05-31T19:36:07.832Z</time>
      </trkpt>
      <trkpt lat="50.50338" lon="3.34084">
        <ele>23.193239</ele>
        <time>2020-05-31T19:36:19.750Z</time>
      </trkpt>
      <trkpt lat="50.50336" lon="3.34096">
        <ele>23.170176</ele>
        <time>2020-05-31T19:36:21.159Z</time>
      </trkpt>
      <trkpt lat="50.50354" lon="3.34139">
        <ele>23.060992</ele>
        <time>2020-05-31T19:36:27.375Z</time>
      </trkpt>
      <trkpt lat="50.50354" lon="3.34156">
        <ele>23.017964</ele>
        <time>2020-05-31T19:36:29.447Z</time>
      </trkpt>
      <trkpt lat="50.50348" lon="3.34174">
        <ele>22.966796</ele>
        <time>2020-05-31T19:36:31.910Z</time>
      </trkpt>
      <trkpt lat="50.50193" lon="3.34401">
        <ele>22.345044</ele>
        <time>2020-05-31T19:37:11.769Z</time>
      </trkpt>
      <trkpt lat="50.50019" lon="3.34559">
        <ele>22.665674</ele>
        <time>2020-05-31T19:37:53.573Z</time>
      </trkpt>
      <trkpt lat="50.5001" lon="3.3456">
        <ele>22.703887</ele>
        <time>2020-05-31T19:37:55.532Z</time>
      </trkpt>
      <trkpt lat="50.50001" lon="3.34559">
        <ele>22.748697</ele>
        <time>2020-05-31T19:37:57.851Z</time>
      </trkpt>
      <trkpt lat="50.49955" lon="3.34528">
        <ele>22.977532</ele>
        <time>2020-05-31T19:38:09.314Z</time>
      </trkpt>
      <trkpt lat="50.49921" lon="3.34494">
        <ele>23.160092</ele>
        <time>2020-05-31T19:38:18.696Z</time>
      </trkpt>
      <trkpt lat="50.49915" lon="3.3452">
        <ele>23.239082</ele>
        <time>2020-05-31T19:38:23.015Z</time>
      </trkpt>
      <trkpt lat="50.49911" lon="3.34545">
        <ele>23.312269</ele>
        <time>2020-05-31T19:38:26.859Z</time>
      </trkpt>
      <trkpt lat="50.49878" lon="3.34731">
        <ele>23.865922</ele>
        <time>2020-05-31T19:38:54.136Z</time>
      </trkpt>
      <trkpt lat="50.49874" lon="3.34748">
        <ele>23.881425</ele>
        <time>2020-05-31T19:38:56.544Z</time>
      </trkpt>
      <trkpt lat="50.49881" lon="3.3477">
        <ele>23.804581</ele>
        <time>2020-05-31T19:38:59.547Z</time>
      </trkpt>
      <trkpt lat="50.49925" lon="3.34883">
        <ele>23.399704</ele>
        <time>2020-05-31T19:39:15.191Z</time>
      </trkpt>
      <trkpt lat="50.49931" lon="3.34962">
        <ele>23.155249</ele>
        <time>2020-05-31T19:39:24.343Z</time>
      </trkpt>
      <trkpt lat="50.4996" lon="3.35094">
        <ele>22.662182</ele>
        <time>2020-05-31T19:39:39.996Z</time>
      </trkpt>
      <trkpt lat="50.49971" lon="3.3512">
        <ele>22.546342</ele>
        <time>2020-05-31T19:39:43.587Z</time>
      </trkpt>
      <trkpt lat="50.49986" lon="3.35136">
        <ele>22.441375</ele>
        <time>2020-05-31T19:39:46.853Z</time>
      </trkpt>
      <trkpt lat="50.50036" lon="3.35146">
        <ele>22.14803</ele>
        <time>2020-05-31T19:39:56.212Z</time>
      </trkpt>
      <trkpt lat="50.50048" lon="3.35163">
        <ele>22.053135</ele>
        <time>2020-05-31T19:39:59.325Z</time>
      </trkpt>
      <trkpt lat="50.50139" lon="3.35406">
        <ele>21.853226</ele>
        <time>2020-05-31T19:40:35.638Z</time>
      </trkpt>
      <trkpt lat="50.50197" lon="3.35541">
        <ele>21.617186</ele>
        <time>2020-05-31T19:40:55.792Z</time>
      </trkpt>
      <trkpt lat="50.5021" lon="3.35558">
        <ele>21.575311</ele>
        <time>2020-05-31T19:40:59.049Z</time>
      </trkpt>
      <trkpt lat="50.50234" lon="3.35585">
        <ele>21.502822</ele>
        <time>2020-05-31T19:41:04.556Z</time>
      </trkpt>
      <trkpt lat="50.50248" lon="3.35601">
        <ele>21.459176</ele>
        <time>2020-05-31T19:41:07.944Z</time>
      </trkpt>
      <trkpt lat="50.50214" lon="3.35653">
        <ele>21.352322</ele>
        <time>2020-05-31T19:41:16.940Z</time>
      </trkpt>
      <trkpt lat="50.50097" lon="3.35805">
        <ele>21.049933</ele>
        <time>2020-05-31T19:41:46.595Z</time>
      </trkpt>
      <trkpt lat="50.50021" lon="3.35861">
        <ele>20.946186</ele>
        <time>2020-05-31T19:42:03.469Z</time>
      </trkpt>
      <trkpt lat="50.49962" lon="3.35905">
        <ele>20.869802</ele>
        <time>2020-05-31T19:42:16.299Z</time>
      </trkpt>
      <trkpt lat="50.49888" lon="3.36024">
        <ele>20.757445</ele>
        <time>2020-05-31T19:42:36.954Z</time>
      </trkpt>
      <trkpt lat="50.49832" lon="3.36077">
        <ele>20.692823</ele>
        <time>2020-05-31T19:42:49.420Z</time>
      </trkpt>
      <trkpt lat="50.49749" lon="3.36136">
        <ele>20.932382</ele>
        <time>2020-05-31T19:43:08.911Z</time>
      </trkpt>
      <trkpt lat="50.49732" lon="3.36147">
        <ele>21.048331</ele>
        <time>2020-05-31T19:43:12.857Z</time>
      </trkpt>
      <trkpt lat="50.49714" lon="3.3615">
        <ele>21.161182</ele>
        <time>2020-05-31T19:43:17.101Z</time>
      </trkpt>
      <trkpt lat="50.49679" lon="3.36134">
        <ele>21.387602</ele>
        <time>2020-05-31T19:43:25.442Z</time>
      </trkpt>
      <trkpt lat="50.49664" lon="3.3612">
        <ele>21.499355</ele>
        <time>2020-05-31T19:43:29.468Z</time>
      </trkpt>
      <trkpt lat="50.49645" lon="3.36104">
        <ele>21.632052</ele>
        <time>2020-05-31T19:43:34.690Z</time>
      </trkpt>
      <trkpt lat="50.49625" lon="3.36092">
        <ele>21.767695</ele>
        <time>2020-05-31T19:43:39.796Z</time>
      </trkpt>
      <trkpt lat="50.49599" lon="3.36087">
        <ele>22.003445</ele>
        <time>2020-05-31T19:43:46.183Z</time>
      </trkpt>
      <trkpt lat="50.49507" lon="3.36135">
        <ele>22.88334</ele>
        <time>2020-05-31T19:44:10.218Z</time>
      </trkpt>
      <trkpt lat="50.49443" lon="3.36153">
        <ele>23.432932</ele>
        <time>2020-05-31T19:44:25.009Z</time>
      </trkpt>
      <trkpt lat="50.49427" lon="3.36171">
        <ele>23.488394</ele>
        <time>2020-05-31T19:44:29.401Z</time>
      </trkpt>
      <trkpt lat="50.4942" lon="3.36182">
        <ele>23.514229</ele>
        <time>2020-05-31T19:44:31.574Z</time>
      </trkpt>
      <trkpt lat="50.49412" lon="3.36193">
        <ele>23.545188</ele>
        <time>2020-05-31T19:44:33.967Z</time>
      </trkpt>
      <trkpt lat="50.49383" lon="3.36216">
        <ele>23.634122</ele>
        <time>2020-05-31T19:44:40.948Z</time>
      </trkpt>
      <trkpt lat="50.49297" lon="3.36244">
        <ele>23.877518</ele>
        <time>2020-05-31T19:44:59.335Z</time>
      </trkpt>
      <trkpt lat="50.49252" lon="3.36269">
        <ele>23.866013</ele>
        <time>2020-05-31T19:45:08.805Z</time>
      </trkpt>
      <trkpt lat="50.49227" lon="3.36287">
        <ele>23.830132</ele>
        <time>2020-05-31T19:45:14.184Z</time>
      </trkpt>
      <trkpt lat="50.4921" lon="3.36245">
        <ele>23.788718</ele>
        <time>2020-05-31T19:45:18.667Z</time>
      </trkpt>
      <trkpt lat="50.49208" lon="3.3624">
        <ele>23.783392</ele>
        <time>2020-05-31T19:45:19.237Z</time>
      </trkpt>
      <trkpt lat="50.49198" lon="3.36216">
        <ele>23.759982</ele>
        <time>2020-05-31T19:45:21.775Z</time>
      </trkpt>
      <trkpt lat="50.49182" lon="3.36169">
        <ele>23.716039</ele>
        <time>2020-05-31T19:45:26.481Z</time>
      </trkpt>
      <trkpt lat="50.49159" lon="3.36089">
        <ele>23.777327</ele>
        <time>2020-05-31T19:45:34.447Z</time>
      </trkpt>
      <trkpt lat="50.49134" lon="3.36041">
        <ele>23.927896</ele>
        <time>2020-05-31T19:45:40.266Z</time>
      </trkpt>
      <trkpt lat="50.49101" lon="3.35996">
        <ele>24.09555</ele>
        <time>2020-05-31T19:45:47.134Z</time>
      </trkpt>
      <trkpt lat="50.49072" lon="3.35962">
        <ele>24.235403</ele>
        <time>2020-05-31T19:45:53.313Z</time>
      </trkpt>
      <trkpt lat="50.49063" lon="3.35948">
        <ele>24.284189</ele>
        <time>2020-05-31T19:45:55.865Z</time>
      </trkpt>
      <trkpt lat="50.49043" lon="3.35895">
        <ele>24.54408</ele>
        <time>2020-05-31T19:46:03.481Z</time>
      </trkpt>
      <trkpt lat="50.49029" lon="3.35851">
        <ele>24.861997</ele>
        <time>2020-05-31T19:46:09.644Z</time>
      </trkpt>
      <trkpt lat="50.49012" lon="3.35798">
        <ele>25.240845</ele>
        <time>2020-05-31T19:46:17.138Z</time>
      </trkpt>
      <trkpt lat="50.49003" lon="3.35768">
        <ele>25.453572</ele>
        <time>2020-05-31T19:46:20.830Z</time>
      </trkpt>
      <trkpt lat="50.48999" lon="3.35751">
        <ele>25.573064</ele>
        <time>2020-05-31T19:46:23.316Z</time>
      </trkpt>
      <trkpt lat="50.48997" lon="3.3574">
        <ele>25.641213</ele>
        <time>2020-05-31T19:46:25.134Z</time>
      </trkpt>
      <trkpt lat="50.48986" lon="3.35647">
        <ele>26.199641</ele>
        <time>2020-05-31T19:46:35.646Z</time>
      </trkpt>
      <trkpt lat="50.48984" lon="3.35623">
        <ele>26.243056</ele>
        <time>2020-05-31T19:46:39.067Z</time>
      </trkpt>
      <trkpt lat="50.48982" lon="3.35604">
        <ele>26.277637</ele>
        <time>2020-05-31T19:46:40.652Z</time>
      </trkpt>
      <trkpt lat="50.48948" lon="3.35446">
        <ele>26.575646</ele>
        <time>2020-05-31T19:46:57.538Z</time>
      </trkpt>
      <trkpt lat="50.48943" lon="3.3535">
        <ele>26.68648</ele>
        <time>2020-05-31T19:47:06.490Z</time>
      </trkpt>
      <trkpt lat="50.48934" lon="3.35284">
        <ele>26.686147</ele>
        <time>2020-05-31T19:47:12.809Z</time>
      </trkpt>
      <trkpt lat="50.48924" lon="3.3524">
        <ele>26.685915</ele>
        <time>2020-05-31T19:47:17.379Z</time>
      </trkpt>
      <trkpt lat="50.48913" lon="3.35188">
        <ele>26.685645</ele>
        <time>2020-05-31T19:47:22.646Z</time>
      </trkpt>
      <trkpt lat="50.48903" lon="3.35165">
        <ele>26.685509</ele>
        <time>2020-05-31T19:47:25.265Z</time>
      </trkpt>
      <trkpt lat="50.48898" lon="3.35161">
        <ele>26.685467</ele>
        <time>2020-05-31T19:47:26.093Z</time>
      </trkpt>
      <trkpt lat="50.48891" lon="3.35173">
        <ele>26.685386</ele>
        <time>2020-05-31T19:47:27.634Z</time>
      </trkpt>
      <trkpt lat="50.48826" lon="3.35242">
        <ele>26.533218</ele>
        <time>2020-05-31T19:47:38.914Z</time>
      </trkpt>
      <trkpt lat="50.48816" lon="3.3525">
        <ele>26.503454</ele>
        <time>2020-05-31T19:47:40.579Z</time>
      </trkpt>
      <trkpt lat="50.48779" lon="3.3528">
        <ele>26.39913</ele>
        <time>2020-05-31T19:47:46.368Z</time>
      </trkpt>
      <trkpt lat="50.48733" lon="3.35302">
        <ele>26.279774</ele>
        <time>2020-05-31T19:47:52.919Z</time>
      </trkpt>
      <trkpt lat="50.48709" lon="3.35312">
        <ele>26.197297</ele>
        <time>2020-05-31T19:47:56.172Z</time>
      </trkpt>
      <trkpt lat="50.4868" lon="3.35324">
        <ele>26.038164</ele>
        <time>2020-05-31T19:48:00.215Z</time>
      </trkpt>
      <trkpt lat="50.48642" lon="3.35358">
        <ele>25.805925</ele>
        <time>2020-05-31T19:48:05.899Z</time>
      </trkpt>
      <trkpt lat="50.48597" lon="3.35406">
        <ele>25.521167</ele>
        <time>2020-05-31T19:48:13.106Z</time>
      </trkpt>
      <trkpt lat="50.48591" lon="3.35416">
        <ele>25.473645</ele>
        <time>2020-05-31T19:48:14.325Z</time>
      </trkpt>
      <trkpt lat="50.48588" lon="3.35427">
        <ele>25.435099</ele>
        <time>2020-05-31T19:48:15.228Z</time>
      </trkpt>
      <trkpt lat="50.48577" lon="3.35632">
        <ele>24.819102</ele>
        <time>2020-05-31T19:48:32.705Z</time>
      </trkpt>
      <trkpt lat="50.48476" lon="3.35877">
        <ele>23.896632</ele>
        <time>2020-05-31T19:48:57.597Z</time>
      </trkpt>
      <trkpt lat="50.4844" lon="3.36037">
        <ele>23.203027</ele>
        <time>2020-05-31T19:49:11.571Z</time>
      </trkpt>
      <trkpt lat="50.48415" lon="3.36123">
        <ele>22.679695</ele>
        <time>2020-05-31T19:49:19.219Z</time>
      </trkpt>
      <trkpt lat="50.4841" lon="3.3614">
        <ele>22.580364</ele>
        <time>2020-05-31T19:49:20.541Z</time>
      </trkpt>
      <trkpt lat="50.48385" lon="3.36214">
        <ele>22.114655</ele>
        <time>2020-05-31T19:49:27.320Z</time>
      </trkpt>
      <trkpt lat="50.48379" lon="3.36227">
        <ele>22.03143</ele>
        <time>2020-05-31T19:49:28.445Z</time>
      </trkpt>
      <trkpt lat="50.48373" lon="3.36241">
        <ele>21.935652</ele>
        <time>2020-05-31T19:49:30.365Z</time>
      </trkpt>
      <trkpt lat="50.48272" lon="3.36423">
        <ele>20.735724</ele>
        <time>2020-05-31T19:49:57.482Z</time>
      </trkpt>
      <trkpt lat="50.48173" lon="3.36555">
        <ele>20.538712</ele>
        <time>2020-05-31T19:50:23.055Z</time>
      </trkpt>
      <trkpt lat="50.48161" lon="3.36588">
        <ele>20.5334</ele>
        <time>2020-05-31T19:50:28.091Z</time>
      </trkpt>
      <trkpt lat="50.48151" lon="3.36663">
        <ele>20.523909</ele>
        <time>2020-05-31T19:50:38.410Z</time>
      </trkpt>
      <trkpt lat="50.48143" lon="3.36713">
        <ele>20.623753</ele>
        <time>2020-05-31T19:50:45.497Z</time>
      </trkpt>
      <trkpt lat="50.48132" lon="3.36793">
        <ele>20.783555</ele>
        <time>2020-05-31T19:50:56.947Z</time>
      </trkpt>
      <trkpt lat="50.48117" lon="3.3686">
        <ele>20.919217</ele>
        <time>2020-05-31T19:51:06.671Z</time>
      </trkpt>
      <trkpt lat="50.48069" lon="3.3701">
        <ele>20.997735</ele>
        <time>2020-05-31T19:51:29.095Z</time>
      </trkpt>
      <trkpt lat="50.4804" lon="3.37082">
        <ele>20.929928</ele>
        <time>2020-05-31T19:51:39.792Z</time>
      </trkpt>
      <trkpt lat="50.47943" lon="3.37285">
        <ele>20.456328</ele>
        <time>2020-05-31T19:52:10.431Z</time>
      </trkpt>
      <trkpt lat="50.47896" lon="3.37358">
        <ele>20.181644</ele>
        <time>2020-05-31T19:52:22.722Z</time>
      </trkpt>
      <trkpt lat="50.47871" lon="3.37382">
        <ele>20.065362</ele>
        <time>2020-05-31T19:52:28.135Z</time>
      </trkpt>
      <trkpt lat="50.4784" lon="3.37402">
        <ele>19.941156</ele>
        <time>2020-05-31T19:52:34.475Z</time>
      </trkpt>
      <trkpt lat="50.47705" lon="3.37474">
        <ele>19.431857</ele>
        <time>2020-05-31T19:53:01.505Z</time>
      </trkpt>
      <trkpt lat="50.47664" lon="3.37496">
        <ele>19.350302</ele>
        <time>2020-05-31T19:53:10.035Z</time>
      </trkpt>
      <trkpt lat="50.47627" lon="3.3752">
        <ele>19.275756</ele>
        <time>2020-05-31T19:53:17.861Z</time>
      </trkpt>
      <trkpt lat="50.47622" lon="3.37529">
        <ele>19.261087</ele>
        <time>2020-05-31T19:53:19.389Z</time>
      </trkpt>
      <trkpt lat="50.47619" lon="3.37534">
        <ele>19.252398</ele>
        <time>2020-05-31T19:53:20.316Z</time>
      </trkpt>
      <trkpt lat="50.47611" lon="3.37549">
        <ele>19.230477</ele>
        <time>2020-05-31T19:53:22.615Z</time>
      </trkpt>
      <trkpt lat="50.47606" lon="3.37568">
        <ele>19.20544</ele>
        <time>2020-05-31T19:53:25.267Z</time>
      </trkpt>
      <trkpt lat="50.47586" lon="3.37645">
        <ele>19.106679</ele>
        <time>2020-05-31T19:53:35.735Z</time>
      </trkpt>
      <trkpt lat="50.47437" lon="3.38201">
        <ele>18.624212</ele>
        <time>2020-05-31T19:54:51.611Z</time>
      </trkpt>
      <trkpt lat="50.47437" lon="3.38201">
        <ele>18.624212</ele>
        <time>2020-05-31T19:54:51.652Z</time>
      </trkpt>
      <trkpt lat="50.4736" lon="3.38488">
        <ele>18.413417</ele>
        <time>2020-05-31T19:55:31.526Z</time>
      </trkpt>
      <trkpt lat="50.47379" lon="3.38499">
        <ele>18.362834</ele>
        <time>2020-05-31T19:55:35.432Z</time>
      </trkpt>
      <trkpt lat="50.47484" lon="3.38564">
        <ele>18.083814</ele>
        <time>2020-05-31T19:55:56.918Z</time>
      </trkpt>
      <trkpt lat="50.4749" lon="3.38567">
        <ele>18.065381</ele>
        <time>2020-05-31T19:55:58.189Z</time>
      </trkpt>
      <trkpt lat="50.47519" lon="3.38585">
        <ele>17.960907</ele>
        <time>2020-05-31T19:56:03.873Z</time>
      </trkpt>
      <trkpt lat="50.47533" lon="3.38594">
        <ele>17.907678</ele>
        <time>2020-05-31T19:56:06.828Z</time>
      </trkpt>
      <trkpt lat="50.47584" lon="3.38612">
        <ele>17.731427</ele>
        <time>2020-05-31T19:56:16.644Z</time>
      </trkpt>
      <trkpt lat="50.47626" lon="3.38618">
        <ele>17.585955</ele>
        <time>2020-05-31T19:56:24.803Z</time>
      </trkpt>
      <trkpt lat="50.47801" lon="3.38601">
        <ele>17.298739</ele>
        <time>2020-05-31T19:56:59.033Z</time>
      </trkpt>
      <trkpt lat="50.47818" lon="3.38613">
        <ele>17.277359</ele>
        <time>2020-05-31T19:57:02.820Z</time>
      </trkpt>
      <trkpt lat="50.47886" lon="3.38706">
        <ele>17.29798</ele>
        <time>2020-05-31T19:57:21.497Z</time>
      </trkpt>
      <trkpt lat="50.47948" lon="3.3879">
        <ele>17.355654</ele>
        <time>2020-05-31T19:57:38.439Z</time>
      </trkpt>
      <trkpt lat="50.47935" lon="3.38862">
        <ele>17.364681</ele>
        <time>2020-05-31T19:57:48.112Z</time>
      </trkpt>
      <trkpt lat="50.47932" lon="3.38926">
        <ele>17.334493</ele>
        <time>2020-05-31T19:57:56.215Z</time>
      </trkpt>
      <trkpt lat="50.47949" lon="3.38958">
        <ele>17.314797</ele>
        <time>2020-05-31T19:58:01.357Z</time>
      </trkpt>
      <trkpt lat="50.48047" lon="3.39107">
        <ele>17.294984</ele>
        <time>2020-05-31T19:58:28.613Z</time>
      </trkpt>
      <trkpt lat="50.48049" lon="3.39109">
        <ele>17.298046</ele>
        <time>2020-05-31T19:58:29.003Z</time>
      </trkpt>
      <trkpt lat="50.48056" lon="3.39118">
        <ele>17.309133</ele>
        <time>2020-05-31T19:58:31.032Z</time>
      </trkpt>
      <trkpt lat="50.48091" lon="3.39168">
        <ele>17.369755</ele>
        <time>2020-05-31T19:58:41.081Z</time>
      </trkpt>
      <trkpt lat="50.48107" lon="3.3932">
        <ele>17.472274</ele>
        <time>2020-05-31T19:59:01.730Z</time>
      </trkpt>
      <trkpt lat="50.48115" lon="3.39328">
        <ele>17.472156</ele>
        <time>2020-05-31T19:59:03.743Z</time>
      </trkpt>
      <trkpt lat="50.48132" lon="3.3934">
        <ele>17.471903</ele>
        <time>2020-05-31T19:59:07.677Z</time>
      </trkpt>
      <trkpt lat="50.48141" lon="3.39355">
        <ele>17.471734</ele>
        <time>2020-05-31T19:59:10.388Z</time>
      </trkpt>
      <trkpt lat="50.48162" lon="3.39398">
        <ele>17.471274</ele>
        <time>2020-05-31T19:59:17.443Z</time>
      </trkpt>
      <trkpt lat="50.4826" lon="3.39528">
        <ele>17.468667</ele>
        <time>2020-05-31T19:59:42.527Z</time>
      </trkpt>
      <trkpt lat="50.4827" lon="3.39544">
        <ele>17.468164</ele>
        <time>2020-05-31T19:59:45.267Z</time>
      </trkpt>
      <trkpt lat="50.48272" lon="3.39547">
        <ele>17.468048</ele>
        <time>2020-05-31T19:59:45.883Z</time>
      </trkpt>
      <trkpt lat="50.48299" lon="3.39629">
        <ele>17.465968</ele>
        <time>2020-05-31T19:59:57.632Z</time>
      </trkpt>
      <trkpt lat="50.48312" lon="3.39671">
        <ele>17.464926</ele>
        <time>2020-05-31T20:00:03.733Z</time>
      </trkpt>
      <trkpt lat="50.4833" lon="3.39725">
        <ele>17.50041</ele>
        <time>2020-05-31T20:00:11.923Z</time>
      </trkpt>
      <trkpt lat="50.48343" lon="3.39766">
        <ele>17.695901</ele>
        <time>2020-05-31T20:00:18.335Z</time>
      </trkpt>
      <trkpt lat="50.48355" lon="3.39827">
        <ele>17.962908</ele>
        <time>2020-05-31T20:00:27.424Z</time>
      </trkpt>
      <trkpt lat="50.48358" lon="3.3984">
        <ele>18.021401</ele>
        <time>2020-05-31T20:00:29.533Z</time>
      </trkpt>
      <trkpt lat="50.48391" lon="3.39831">
        <ele>18.237868</ele>
        <time>2020-05-31T20:00:35.271Z</time>
      </trkpt>
      <trkpt lat="50.48545" lon="3.39763">
        <ele>19.4574</ele>
        <time>2020-05-31T20:01:04.949Z</time>
      </trkpt>
      <trkpt lat="50.48632" lon="3.39811">
        <ele>20.198207</ele>
        <time>2020-05-31T20:01:21.246Z</time>
      </trkpt>
      <trkpt lat="50.48649" lon="3.39826">
        <ele>20.339179</ele>
        <time>2020-05-31T20:01:24.875Z</time>
      </trkpt>
      <trkpt lat="50.48669" lon="3.39842">
        <ele>20.492757</ele>
        <time>2020-05-31T20:01:28.656Z</time>
      </trkpt>
      <trkpt lat="50.48698" lon="3.39865">
        <ele>20.72554</ele>
        <time>2020-05-31T20:01:34.543Z</time>
      </trkpt>
      <trkpt lat="50.48717" lon="3.39879">
        <ele>20.871865</ele>
        <time>2020-05-31T20:01:38.297Z</time>
      </trkpt>
      <trkpt lat="50.48786" lon="3.3993">
        <ele>21.397388</ele>
        <time>2020-05-31T20:01:51.929Z</time>
      </trkpt>
      <trkpt lat="50.48769" lon="3.40014">
        <ele>21.547432</ele>
        <time>2020-05-31T20:02:04.202Z</time>
      </trkpt>
      <trkpt lat="50.48752" lon="3.40064">
        <ele>21.642395</ele>
        <time>2020-05-31T20:02:11.638Z</time>
      </trkpt>
      <trkpt lat="50.48726" lon="3.40143">
        <ele>21.794057</ele>
        <time>2020-05-31T20:02:23.517Z</time>
      </trkpt>
      <trkpt lat="50.48703" lon="3.40206">
        <ele>21.838194</ele>
        <time>2020-05-31T20:02:33.080Z</time>
      </trkpt>
      <trkpt lat="50.48686" lon="3.40261">
        <ele>21.761621</ele>
        <time>2020-05-31T20:02:40.682Z</time>
      </trkpt>
      <trkpt lat="50.48667" lon="3.40307">
        <ele>21.690572</ele>
        <time>2020-05-31T20:02:45.703Z</time>
      </trkpt>
      <trkpt lat="50.4861" lon="3.40419">
        <ele>21.509444</ele>
        <time>2020-05-31T20:02:58.166Z</time>
      </trkpt>
      <trkpt lat="50.48594" lon="3.40435">
        <ele>21.487351</ele>
        <time>2020-05-31T20:03:00.855Z</time>
      </trkpt>
      <trkpt lat="50.48538" lon="3.40457">
        <ele>21.421791</ele>
        <time>2020-05-31T20:03:08.986Z</time>
      </trkpt>
      <trkpt lat="50.48527" lon="3.40481">
        <ele>21.399783</ele>
        <time>2020-05-31T20:03:11.676Z</time>
      </trkpt>
      <trkpt lat="50.48489" lon="3.40632">
        <ele>21.309254</ele>
        <time>2020-05-31T20:03:27.223Z</time>
      </trkpt>
      <trkpt lat="50.48479" lon="3.40698">
        <ele>21.317564</ele>
        <time>2020-05-31T20:03:33.688Z</time>
      </trkpt>
      <trkpt lat="50.48467" lon="3.4075">
        <ele>21.324402</ele>
        <time>2020-05-31T20:03:38.986Z</time>
      </trkpt>
      <trkpt lat="50.48455" lon="3.40801">
        <ele>21.331053</ele>
        <time>2020-05-31T20:03:44.138Z</time>
      </trkpt>
      <trkpt lat="50.48423" lon="3.40932">
        <ele>21.2773</ele>
        <time>2020-05-31T20:03:57.341Z</time>
      </trkpt>
      <trkpt lat="50.48382" lon="3.41136">
        <ele>21.080956</ele>
        <time>2020-05-31T20:04:16.714Z</time>
      </trkpt>
      <trkpt lat="50.48367" lon="3.4127">
        <ele>20.954721</ele>
        <time>2020-05-31T20:04:28.992Z</time>
      </trkpt>
      <trkpt lat="50.48361" lon="3.41323">
        <ele>20.905092</ele>
        <time>2020-05-31T20:04:33.836Z</time>
      </trkpt>
      <trkpt lat="50.48335" lon="3.41557">
        <ele>20.741108</ele>
        <time>2020-05-31T20:04:55.733Z</time>
      </trkpt>
      <trkpt lat="50.48277" lon="3.41973">
        <ele>20.55486</ele>
        <time>2020-05-31T20:05:35.670Z</time>
      </trkpt>
      <trkpt lat="50.48265" lon="3.42058">
        <ele>20.396558</ele>
        <time>2020-05-31T20:05:43.423Z</time>
      </trkpt>
      <trkpt lat="50.48267" lon="3.42088">
        <ele>20.342687</ele>
        <time>2020-05-31T20:05:46.047Z</time>
      </trkpt>
      <trkpt lat="50.4827" lon="3.42108">
        <ele>20.304342</ele>
        <time>2020-05-31T20:05:47.905Z</time>
      </trkpt>
      <trkpt lat="50.48281" lon="3.42171">
        <ele>20.185723</ele>
        <time>2020-05-31T20:05:53.605Z</time>
      </trkpt>
      <trkpt lat="50.48282" lon="3.42212">
        <ele>20.109756</ele>
        <time>2020-05-31T20:05:57.251Z</time>
      </trkpt>
      <trkpt lat="50.48275" lon="3.42268">
        <ele>19.969253</ele>
        <time>2020-05-31T20:06:02.130Z</time>
      </trkpt>
      <trkpt lat="50.48243" lon="3.4251">
        <ele>19.112659</ele>
        <time>2020-05-31T20:06:22.679Z</time>
      </trkpt>
      <trkpt lat="50.48265" lon="3.42517">
        <ele>19.02137</ele>
        <time>2020-05-31T20:06:25.578Z</time>
      </trkpt>
      <trkpt lat="50.48298" lon="3.42533">
        <ele>18.903059</ele>
        <time>2020-05-31T20:06:30.213Z</time>
      </trkpt>
      <trkpt lat="50.48331" lon="3.42556">
        <ele>18.780572</ele>
        <time>2020-05-31T20:06:35.105Z</time>
      </trkpt>
      <trkpt lat="50.48364" lon="3.42603">
        <ele>18.631647</ele>
        <time>2020-05-31T20:06:41.292Z</time>
      </trkpt>
      <trkpt lat="50.48379" lon="3.42655">
        <ele>18.509743</ele>
        <time>2020-05-31T20:06:46.396Z</time>
      </trkpt>
      <trkpt lat="50.48391" lon="3.42733">
        <ele>18.487546</ele>
        <time>2020-05-31T20:06:54.024Z</time>
      </trkpt>
      <trkpt lat="50.48397" lon="3.4277">
        <ele>18.502149</ele>
        <time>2020-05-31T20:06:57.923Z</time>
      </trkpt>
      <trkpt lat="50.48404" lon="3.42822">
        <ele>18.522101</ele>
        <time>2020-05-31T20:07:03.008Z</time>
      </trkpt>
      <trkpt lat="50.48423" lon="3.42957">
        <ele>18.576195</ele>
        <time>2020-05-31T20:07:16.259Z</time>
      </trkpt>
      <trkpt lat="50.48426" lon="3.42971">
        <ele>18.585408</ele>
        <time>2020-05-31T20:07:17.735Z</time>
      </trkpt>
      <trkpt lat="50.48432" lon="3.43001">
        <ele>18.604903</ele>
        <time>2020-05-31T20:07:20.672Z</time>
      </trkpt>
      <trkpt lat="50.48438" lon="3.43022">
        <ele>18.619595</ele>
        <time>2020-05-31T20:07:22.821Z</time>
      </trkpt>
      <trkpt lat="50.48468" lon="3.43113">
        <ele>18.683151</ele>
        <time>2020-05-31T20:07:32.528Z</time>
      </trkpt>
      <trkpt lat="50.48503" lon="3.4319">
        <ele>18.742281</ele>
        <time>2020-05-31T20:07:41.944Z</time>
      </trkpt>
      <trkpt lat="50.48515" lon="3.43211">
        <ele>18.804322</ele>
        <time>2020-05-31T20:07:44.569Z</time>
      </trkpt>
      <trkpt lat="50.48516" lon="3.43213">
        <ele>18.815654</ele>
        <time>2020-05-31T20:07:45.137Z</time>
      </trkpt>
      <trkpt lat="50.48566" lon="3.43274">
        <ele>19.12348</ele>
        <time>2020-05-31T20:07:55.737Z</time>
      </trkpt>
      <trkpt lat="50.48614" lon="3.43307">
        <ele>19.378647</ele>
        <time>2020-05-31T20:08:04.725Z</time>
      </trkpt>
      <trkpt lat="50.48697" lon="3.4335">
        <ele>19.798327</ele>
        <time>2020-05-31T20:08:19.596Z</time>
      </trkpt>
      <trkpt lat="50.48714" lon="3.43358">
        <ele>19.88337</ele>
        <time>2020-05-31T20:08:22.600Z</time>
      </trkpt>
      <trkpt lat="50.48812" lon="3.43386">
        <ele>20.356523</ele>
        <time>2020-05-31T20:08:39.175Z</time>
      </trkpt>
      <trkpt lat="50.48835" lon="3.43392">
        <ele>20.470173</ele>
        <time>2020-05-31T20:08:42.983Z</time>
      </trkpt>
      <trkpt lat="50.48831" lon="3.43417">
        <ele>20.555537</ele>
        <time>2020-05-31T20:08:45.690Z</time>
      </trkpt>
      <trkpt lat="50.48777" lon="3.43508">
        <ele>20.955236</ele>
        <time>2020-05-31T20:08:58.872Z</time>
      </trkpt>
      <trkpt lat="50.48772" lon="3.4353">
        <ele>21.028902</ele>
        <time>2020-05-31T20:09:01.394Z</time>
      </trkpt>
      <trkpt lat="50.48774" lon="3.4355">
        <ele>21.09529</ele>
        <time>2020-05-31T20:09:03.805Z</time>
      </trkpt>
      <trkpt lat="50.48786" lon="3.43584">
        <ele>21.220758</ele>
        <time>2020-05-31T20:09:08.031Z</time>
      </trkpt>
      <trkpt lat="50.48793" lon="3.43602">
        <ele>21.289103</ele>
        <time>2020-05-31T20:09:10.465Z</time>
      </trkpt>
      <trkpt lat="50.488" lon="3.4362">
        <ele>21.35691</ele>
        <time>2020-05-31T20:09:12.654Z</time>
      </trkpt>
      <trkpt lat="50.48851" lon="3.4374">
        <ele>21.615899</ele>
        <time>2020-05-31T20:09:28.078Z</time>
      </trkpt>
      <trkpt lat="50.48863" lon="3.43769">
        <ele>21.673698</ele>
        <time>2020-05-31T20:09:31.524Z</time>
      </trkpt>
      <trkpt lat="50.48882" lon="3.43799">
        <ele>21.744337</ele>
        <time>2020-05-31T20:09:35.849Z</time>
      </trkpt>
      <trkpt lat="50.48907" lon="3.43837">
        <ele>21.83607</ele>
        <time>2020-05-31T20:09:41.192Z</time>
      </trkpt>
      <trkpt lat="50.48918" lon="3.43854">
        <ele>21.835551</ele>
        <time>2020-05-31T20:09:43.518Z</time>
      </trkpt>
      <trkpt lat="50.48944" lon="3.43891">
        <ele>21.570828</ele>
        <time>2020-05-31T20:09:48.136Z</time>
      </trkpt>
      <trkpt lat="50.48953" lon="3.43902">
        <ele>21.478703</ele>
        <time>2020-05-31T20:09:49.706Z</time>
      </trkpt>
      <trkpt lat="50.48981" lon="3.43937">
        <ele>21.201419</ele>
        <time>2020-05-31T20:09:54.204Z</time>
      </trkpt>
      <trkpt lat="50.48998" lon="3.43966">
        <ele>21.010184</ele>
        <time>2020-05-31T20:09:57.268Z</time>
      </trkpt>
      <trkpt lat="50.4902" lon="3.44022">
        <ele>20.687406</ele>
        <time>2020-05-31T20:10:02.377Z</time>
      </trkpt>
      <trkpt lat="50.49043" lon="3.44079">
        <ele>20.342713</ele>
        <time>2020-05-31T20:10:07.553Z</time>
      </trkpt>
      <trkpt lat="50.49109" lon="3.44183">
        <ele>19.53437</ele>
        <time>2020-05-31T20:10:18.859Z</time>
      </trkpt>
      <trkpt lat="50.49138" lon="3.44236">
        <ele>19.145567</ele>
        <time>2020-05-31T20:10:24.520Z</time>
      </trkpt>
      <trkpt lat="50.49167" lon="3.44324">
        <ele>18.831723</ele>
        <time>2020-05-31T20:10:32.973Z</time>
      </trkpt>
      <trkpt lat="50.49219" lon="3.44434">
        <ele>18.618664</ele>
        <time>2020-05-31T20:10:45.407Z</time>
      </trkpt>
      <trkpt lat="50.49227" lon="3.44464">
        <ele>18.566816</ele>
        <time>2020-05-31T20:10:48.488Z</time>
      </trkpt>
      <trkpt lat="50.49237" lon="3.44565">
        <ele>18.412452</ele>
        <time>2020-05-31T20:10:57.912Z</time>
      </trkpt>
      <trkpt lat="50.49254" lon="3.44618">
        <ele>18.324863</ele>
        <time>2020-05-31T20:11:03.344Z</time>
      </trkpt>
      <trkpt lat="50.49286" lon="3.44688">
        <ele>18.19874</ele>
        <time>2020-05-31T20:11:10.926Z</time>
      </trkpt>
      <trkpt lat="50.49301" lon="3.44709">
        <ele>18.152023</ele>
        <time>2020-05-31T20:11:13.709Z</time>
      </trkpt>
      <trkpt lat="50.49336" lon="3.44729">
        <ele>18.066955</ele>
        <time>2020-05-31T20:11:18.740Z</time>
      </trkpt>
      <trkpt lat="50.4934" lon="3.44731">
        <ele>18.06656</ele>
        <time>2020-05-31T20:11:19.235Z</time>
      </trkpt>
      <trkpt lat="50.49353" lon="3.4475">
        <ele>18.064813</ele>
        <time>2020-05-31T20:11:21.597Z</time>
      </trkpt>
      <trkpt lat="50.49359" lon="3.44758">
        <ele>18.063984</ele>
        <time>2020-05-31T20:11:22.783Z</time>
      </trkpt>
      <trkpt lat="50.49366" lon="3.44748">
        <ele>18.063113</ele>
        <time>2020-05-31T20:11:23.987Z</time>
      </trkpt>
      <trkpt lat="50.49368" lon="3.44744">
        <ele>18.062786</ele>
        <time>2020-05-31T20:11:24.450Z</time>
      </trkpt>
      <trkpt lat="50.4942" lon="3.44663">
        <ele>18.055491</ele>
        <time>2020-05-31T20:11:35.488Z</time>
      </trkpt>
      <trkpt lat="50.49426" lon="3.44654">
        <ele>18.054667</ele>
        <time>2020-05-31T20:11:36.598Z</time>
      </trkpt>
      <trkpt lat="50.49477" lon="3.44573">
        <ele>18.048387</ele>
        <time>2020-05-31T20:11:48.334Z</time>
      </trkpt>
      <trkpt lat="50.49491" lon="3.44561">
        <ele>18.047628</ele>
        <time>2020-05-31T20:11:51.238Z</time>
      </trkpt>
      <trkpt lat="50.49544" lon="3.44521">
        <ele>18.044836</ele>
        <time>2020-05-31T20:12:00.324Z</time>
      </trkpt>
      <trkpt lat="50.49562" lon="3.44503">
        <ele>18.043814</ele>
        <time>2020-05-31T20:12:03.636Z</time>
      </trkpt>
      <trkpt lat="50.4959" lon="3.44475">
        <ele>18.042254</ele>
        <time>2020-05-31T20:12:08.303Z</time>
      </trkpt>
      <trkpt lat="50.49648" lon="3.44404">
        <ele>17.67037</ele>
        <time>2020-05-31T20:12:18.034Z</time>
      </trkpt>
      <trkpt lat="50.49663" lon="3.44393">
        <ele>17.520833</ele>
        <time>2020-05-31T20:12:20.066Z</time>
      </trkpt>
      <trkpt lat="50.49669" lon="3.44396">
        <ele>17.466018</ele>
        <time>2020-05-31T20:12:20.831Z</time>
      </trkpt>
      <trkpt lat="50.49672" lon="3.44401">
        <ele>17.424727</ele>
        <time>2020-05-31T20:12:21.400Z</time>
      </trkpt>
      <trkpt lat="50.49674" lon="3.44405">
        <ele>17.395429</ele>
        <time>2020-05-31T20:12:21.731Z</time>
      </trkpt>
      <trkpt lat="50.49687" lon="3.44433">
        <ele>17.19374</ele>
        <time>2020-05-31T20:12:24.490Z</time>
      </trkpt>
      <trkpt lat="50.49735" lon="3.44569">
        <ele>16.337441</ele>
        <time>2020-05-31T20:12:36.280Z</time>
      </trkpt>
      <trkpt lat="50.49754" lon="3.44626">
        <ele>16.136874</ele>
        <time>2020-05-31T20:12:41.339Z</time>
      </trkpt>
      <trkpt lat="50.49776" lon="3.4469">
        <ele>15.910733</ele>
        <time>2020-05-31T20:12:47.502Z</time>
      </trkpt>
      <trkpt lat="50.49798" lon="3.44759">
        <ele>15.669559</ele>
        <time>2020-05-31T20:12:54.277Z</time>
      </trkpt>
      <trkpt lat="50.49799" lon="3.44762">
        <ele>15.659565</ele>
        <time>2020-05-31T20:12:54.665Z</time>
      </trkpt>
      <trkpt lat="50.49844" lon="3.44889">
        <ele>15.939891</ele>
        <time>2020-05-31T20:13:09.115Z</time>
      </trkpt>
      <trkpt lat="50.49851" lon="3.44909">
        <ele>16.042108</ele>
        <time>2020-05-31T20:13:11.859Z</time>
      </trkpt>
      <trkpt lat="50.49853" lon="3.44914">
        <ele>16.06695</ele>
        <time>2020-05-31T20:13:12.486Z</time>
      </trkpt>
      <trkpt lat="50.49864" lon="3.44939">
        <ele>16.198092</ele>
        <time>2020-05-31T20:13:16.022Z</time>
      </trkpt>
      <trkpt lat="50.49867" lon="3.44946">
        <ele>16.234168</ele>
        <time>2020-05-31T20:13:17.047Z</time>
      </trkpt>
      <trkpt lat="50.49874" lon="3.44964">
        <ele>16.325989</ele>
        <time>2020-05-31T20:13:19.727Z</time>
      </trkpt>
      <trkpt lat="50.49935" lon="3.45106">
        <ele>16.941494</ele>
        <time>2020-05-31T20:13:40.459Z</time>
      </trkpt>
      <trkpt lat="50.49943" lon="3.45125">
        <ele>17.005101</ele>
        <time>2020-05-31T20:13:43.003Z</time>
      </trkpt>
      <trkpt lat="50.49958" lon="3.45159">
        <ele>17.116108</ele>
        <time>2020-05-31T20:13:47.124Z</time>
      </trkpt>
      <trkpt lat="50.49974" lon="3.45177">
        <ele>17.201403</ele>
        <time>2020-05-31T20:13:50.273Z</time>
      </trkpt>
      <trkpt lat="50.49999" lon="3.45188">
        <ele>17.308132</ele>
        <time>2020-05-31T20:13:53.909Z</time>
      </trkpt>
      <trkpt lat="50.50005" lon="3.45189">
        <ele>17.335236</ele>
        <time>2020-05-31T20:13:54.944Z</time>
      </trkpt>
      <trkpt lat="50.50044" lon="3.45199">
        <ele>17.50113</ele>
        <time>2020-05-31T20:14:01.102Z</time>
      </trkpt>
      <trkpt lat="50.50051" lon="3.45202">
        <ele>17.493886</ele>
        <time>2020-05-31T20:14:02.158Z</time>
      </trkpt>
      <trkpt lat="50.50052" lon="3.45203">
        <ele>17.492172</ele>
        <time>2020-05-31T20:14:02.414Z</time>
      </trkpt>
      <trkpt lat="50.50084" lon="3.45223">
        <ele>17.456497</ele>
        <time>2020-05-31T20:14:07.690Z</time>
      </trkpt>
      <trkpt lat="50.50092" lon="3.45227">
        <ele>17.447758</ele>
        <time>2020-05-31T20:14:08.903Z</time>
      </trkpt>
      <trkpt lat="50.50129" lon="3.45252">
        <ele>17.406238</ele>
        <time>2020-05-31T20:14:14.415Z</time>
      </trkpt>
      <trkpt lat="50.50141" lon="3.4526">
        <ele>17.392884</ele>
        <time>2020-05-31T20:14:16.280Z</time>
      </trkpt>
      <trkpt lat="50.50195" lon="3.45295">
        <ele>17.333139</ele>
        <time>2020-05-31T20:14:24.065Z</time>
      </trkpt>
      <trkpt lat="50.50229" lon="3.45322">
        <ele>17.42083</ele>
        <time>2020-05-31T20:14:29.570Z</time>
      </trkpt>
      <trkpt lat="50.5031" lon="3.45386">
        <ele>17.868844</ele>
        <time>2020-05-31T20:14:46.032Z</time>
      </trkpt>
      <trkpt lat="50.50341" lon="3.45413">
        <ele>18.043495</ele>
        <time>2020-05-31T20:14:52.084Z</time>
      </trkpt>
      <trkpt lat="50.50355" lon="3.45425">
        <ele>18.122353</ele>
        <time>2020-05-31T20:14:54.691Z</time>
      </trkpt>
      <trkpt lat="50.50407" lon="3.45459">
        <ele>18.412393</ele>
        <time>2020-05-31T20:15:04.023Z</time>
      </trkpt>
      <trkpt lat="50.50416" lon="3.45464">
        <ele>18.465065</ele>
        <time>2020-05-31T20:15:05.689Z</time>
      </trkpt>
      <trkpt lat="50.50444" lon="3.45482">
        <ele>18.622161</ele>
        <time>2020-05-31T20:15:10.834Z</time>
      </trkpt>
      <trkpt lat="50.50447" lon="3.4549">
        <ele>18.653951</ele>
        <time>2020-05-31T20:15:11.837Z</time>
      </trkpt>
      <trkpt lat="50.50448" lon="3.45508">
        <ele>18.716237</ele>
        <time>2020-05-31T20:15:13.804Z</time>
      </trkpt>
      <trkpt lat="50.50443" lon="3.45552">
        <ele>18.864108</ele>
        <time>2020-05-31T20:15:18.871Z</time>
      </trkpt>
      <trkpt lat="50.50441" lon="3.45568">
        <ele>18.918947</ele>
        <time>2020-05-31T20:15:20.552Z</time>
      </trkpt>
      <trkpt lat="50.50441" lon="3.45573">
        <ele>18.936185</ele>
        <time>2020-05-31T20:15:21.084Z</time>
      </trkpt>
      <trkpt lat="50.5044" lon="3.45588">
        <ele>18.987783</ele>
        <time>2020-05-31T20:15:22.934Z</time>
      </trkpt>
      <trkpt lat="50.50437" lon="3.45631">
        <ele>19.134235</ele>
        <time>2020-05-31T20:15:27.260Z</time>
      </trkpt>
      <trkpt lat="50.50436" lon="3.45642">
        <ele>19.166737</ele>
        <time>2020-05-31T20:15:28.648Z</time>
      </trkpt>
      <trkpt lat="50.50433" lon="3.4572">
        <ele>19.3702</ele>
        <time>2020-05-31T20:15:36.656Z</time>
      </trkpt>
      <trkpt lat="50.50424" lon="3.45772">
        <ele>19.512433</ele>
        <time>2020-05-31T20:15:42.328Z</time>
      </trkpt>
      <trkpt lat="50.5041" lon="3.45851">
        <ele>19.727144</ele>
        <time>2020-05-31T20:15:50.904Z</time>
      </trkpt>
      <trkpt lat="50.50361" lon="3.46074">
        <ele>20.373672</ele>
        <time>2020-05-31T20:16:16.161Z</time>
      </trkpt>
      <trkpt lat="50.50345" lon="3.46155">
        <ele>20.608469</ele>
        <time>2020-05-31T20:16:25.014Z</time>
      </trkpt>
      <trkpt lat="50.50335" lon="3.46236">
        <ele>20.677117</ele>
        <time>2020-05-31T20:16:33.229Z</time>
      </trkpt>
      <trkpt lat="50.50325" lon="3.46304">
        <ele>20.677117</ele>
        <time>2020-05-31T20:16:40.269Z</time>
      </trkpt>
      <trkpt lat="50.50317" lon="3.46374">
        <ele>20.677117</ele>
        <time>2020-05-31T20:16:47.294Z</time>
      </trkpt>
      <trkpt lat="50.50313" lon="3.46411">
        <ele>20.677117</ele>
        <time>2020-05-31T20:16:50.811Z</time>
      </trkpt>
      <trkpt lat="50.50316" lon="3.46422">
        <ele>20.677117</ele>
        <time>2020-05-31T20:16:52.039Z</time>
      </trkpt>
      <trkpt lat="50.5034" lon="3.46438">
        <ele>20.677117</ele>
        <time>2020-05-31T20:16:55.881Z</time>
      </trkpt>
      <trkpt lat="50.50358" lon="3.46452">
        <ele>20.677117</ele>
        <time>2020-05-31T20:16:58.779Z</time>
      </trkpt>
      <trkpt lat="50.50361" lon="3.46454">
        <ele>20.677117</ele>
        <time>2020-05-31T20:16:59.273Z</time>
      </trkpt>
      <trkpt lat="50.50361" lon="3.46454">
        <ele>20.677117</ele>
        <time>2020-05-31T20:16:59.336Z</time>
      </trkpt>
    </trkseg>
  </trk>
</gpx>